<?xml version="1.0" encoding="UTF-8" standalone="no" ?>
<gpx xmlns="http://www.topografix.com/GPX/1/1" xmlns:xsi="http://www.w3.org/2001/XMLSchema-instance" xsi:schemaLocation="http://www.topografix.com/GPX/1/1 http://www.topografix.com/GPX/1/1/gpx.xsd" version="1.1" creator="VisuGPX - https://www.visugpx.com">
  <metadata>
    <name>Villecresnes Grosbois</name>
    <desc><![CDATA[AVF Antony - Villecresnes Grosbois]]></desc>
  </metadata>
  <trk>
    <name><![CDATA[Track 021]]></name>
    <desc><![CDATA[29 janv. 2016 10:40 am]]></desc>
    <trkseg>
      <trkpt lat="48.73452" lon="2.51853">
        <ele>90.459</ele>
        <time>2016-01-29T09:40:49.999Z</time>
      </trkpt>
      <trkpt lat="48.73452" lon="2.51851">
        <ele>91.007</ele>
        <time>2016-01-29T09:40:51.195Z</time>
      </trkpt>
      <trkpt lat="48.73454" lon="2.51838">
        <ele>91.567</ele>
        <time>2016-01-29T09:40:59.882Z</time>
      </trkpt>
      <trkpt lat="48.73453" lon="2.51823">
        <ele>91.819</ele>
        <time>2016-01-29T09:41:07.949Z</time>
      </trkpt>
      <trkpt lat="48.73459" lon="2.51813">
        <ele>91.831</ele>
        <time>2016-01-29T09:41:17.797Z</time>
      </trkpt>
      <trkpt lat="48.73465" lon="2.51801">
        <ele>91.738</ele>
        <time>2016-01-29T09:41:28.524Z</time>
      </trkpt>
      <trkpt lat="48.7347" lon="2.5179">
        <ele>91.577</ele>
        <time>2016-01-29T09:41:36.930Z</time>
      </trkpt>
      <trkpt lat="48.73476" lon="2.51778">
        <ele>91.331</ele>
        <time>2016-01-29T09:41:45.181Z</time>
      </trkpt>
      <trkpt lat="48.73483" lon="2.51768">
        <ele>91.07</ele>
        <time>2016-01-29T09:41:53.095Z</time>
      </trkpt>
      <trkpt lat="48.7349" lon="2.51757">
        <ele>90.92</ele>
        <time>2016-01-29T09:42:01.334Z</time>
      </trkpt>
      <trkpt lat="48.73496" lon="2.51746">
        <ele>90.907</ele>
        <time>2016-01-29T09:42:09.066Z</time>
      </trkpt>
      <trkpt lat="48.73502" lon="2.51736">
        <ele>90.955</ele>
        <time>2016-01-29T09:42:16.624Z</time>
      </trkpt>
      <trkpt lat="48.73509" lon="2.51726">
        <ele>90.979</ele>
        <time>2016-01-29T09:42:23.895Z</time>
      </trkpt>
      <trkpt lat="48.73512" lon="2.51711">
        <ele>90.952</ele>
        <time>2016-01-29T09:42:31.033Z</time>
      </trkpt>
      <trkpt lat="48.73518" lon="2.517">
        <ele>90.905</ele>
        <time>2016-01-29T09:42:37.928Z</time>
      </trkpt>
      <trkpt lat="48.73525" lon="2.5169">
        <ele>90.894</ele>
        <time>2016-01-29T09:42:45.121Z</time>
      </trkpt>
      <trkpt lat="48.73529" lon="2.51677">
        <ele>90.938</ele>
        <time>2016-01-29T09:42:53.216Z</time>
      </trkpt>
      <trkpt lat="48.73535" lon="2.51665">
        <ele>91.011</ele>
        <time>2016-01-29T09:43:01.551Z</time>
      </trkpt>
      <trkpt lat="48.73539" lon="2.51652">
        <ele>91.087</ele>
        <time>2016-01-29T09:43:08.604Z</time>
      </trkpt>
      <trkpt lat="48.73542" lon="2.51637">
        <ele>91.16</ele>
        <time>2016-01-29T09:43:16.178Z</time>
      </trkpt>
      <trkpt lat="48.73545" lon="2.51624">
        <ele>91.221</ele>
        <time>2016-01-29T09:43:24.159Z</time>
      </trkpt>
      <trkpt lat="48.73549" lon="2.51609">
        <ele>91.271</ele>
        <time>2016-01-29T09:43:32.775Z</time>
      </trkpt>
      <trkpt lat="48.73552" lon="2.51595">
        <ele>91.35</ele>
        <time>2016-01-29T09:43:40.123Z</time>
      </trkpt>
      <trkpt lat="48.73554" lon="2.51581">
        <ele>91.552</ele>
        <time>2016-01-29T09:43:48.005Z</time>
      </trkpt>
      <trkpt lat="48.73556" lon="2.51566">
        <ele>91.878</ele>
        <time>2016-01-29T09:43:56.464Z</time>
      </trkpt>
      <trkpt lat="48.73558" lon="2.51553">
        <ele>92.165</ele>
        <time>2016-01-29T09:44:03.704Z</time>
      </trkpt>
      <trkpt lat="48.73559" lon="2.51539">
        <ele>92.296</ele>
        <time>2016-01-29T09:44:10.663Z</time>
      </trkpt>
      <trkpt lat="48.73561" lon="2.51524">
        <ele>92.261</ele>
        <time>2016-01-29T09:44:17.840Z</time>
      </trkpt>
      <trkpt lat="48.73563" lon="2.5151">
        <ele>92.1</ele>
        <time>2016-01-29T09:44:24.527Z</time>
      </trkpt>
      <trkpt lat="48.73565" lon="2.51496">
        <ele>91.93</ele>
        <time>2016-01-29T09:44:31.430Z</time>
      </trkpt>
      <trkpt lat="48.73568" lon="2.51482">
        <ele>91.841</ele>
        <time>2016-01-29T09:44:39.235Z</time>
      </trkpt>
      <trkpt lat="48.73569" lon="2.51467">
        <ele>91.836</ele>
        <time>2016-01-29T09:44:49.118Z</time>
      </trkpt>
      <trkpt lat="48.73572" lon="2.51454">
        <ele>91.907</ele>
        <time>2016-01-29T09:45:00.270Z</time>
      </trkpt>
      <trkpt lat="48.73575" lon="2.51439">
        <ele>92.06</ele>
        <time>2016-01-29T09:45:10.313Z</time>
      </trkpt>
      <trkpt lat="48.73578" lon="2.51424">
        <ele>92.286</ele>
        <time>2016-01-29T09:45:18.349Z</time>
      </trkpt>
      <trkpt lat="48.73579" lon="2.5141">
        <ele>92.514</ele>
        <time>2016-01-29T09:45:26.091Z</time>
      </trkpt>
      <trkpt lat="48.73583" lon="2.51397">
        <ele>92.65</ele>
        <time>2016-01-29T09:45:34.063Z</time>
      </trkpt>
      <trkpt lat="48.73583" lon="2.51382">
        <ele>92.683</ele>
        <time>2016-01-29T09:45:40.751Z</time>
      </trkpt>
      <trkpt lat="48.73584" lon="2.51366">
        <ele>92.667</ele>
        <time>2016-01-29T09:45:47.452Z</time>
      </trkpt>
      <trkpt lat="48.73586" lon="2.51352">
        <ele>92.644</ele>
        <time>2016-01-29T09:45:53.864Z</time>
      </trkpt>
      <trkpt lat="48.73589" lon="2.51339">
        <ele>92.616</ele>
        <time>2016-01-29T09:46:02.353Z</time>
      </trkpt>
      <trkpt lat="48.73592" lon="2.51325">
        <ele>92.577</ele>
        <time>2016-01-29T09:46:11.761Z</time>
      </trkpt>
      <trkpt lat="48.73593" lon="2.51311">
        <ele>92.52</ele>
        <time>2016-01-29T09:46:19.674Z</time>
      </trkpt>
      <trkpt lat="48.73595" lon="2.51297">
        <ele>92.444</ele>
        <time>2016-01-29T09:46:27.653Z</time>
      </trkpt>
      <trkpt lat="48.73598" lon="2.51282">
        <ele>92.437</ele>
        <time>2016-01-29T09:46:36.150Z</time>
      </trkpt>
      <trkpt lat="48.73598" lon="2.51267">
        <ele>92.559</ele>
        <time>2016-01-29T09:46:43.599Z</time>
      </trkpt>
      <trkpt lat="48.736" lon="2.51253">
        <ele>92.775</ele>
        <time>2016-01-29T09:46:50.920Z</time>
      </trkpt>
      <trkpt lat="48.73603" lon="2.51239">
        <ele>92.982</ele>
        <time>2016-01-29T09:46:59.859Z</time>
      </trkpt>
      <trkpt lat="48.73607" lon="2.51226">
        <ele>93.069</ele>
        <time>2016-01-29T09:47:08.200Z</time>
      </trkpt>
      <trkpt lat="48.7361" lon="2.51211">
        <ele>93.039</ele>
        <time>2016-01-29T09:47:16.306Z</time>
      </trkpt>
      <trkpt lat="48.73614" lon="2.51197">
        <ele>92.98</ele>
        <time>2016-01-29T09:47:24.392Z</time>
      </trkpt>
      <trkpt lat="48.73616" lon="2.51182">
        <ele>92.917</ele>
        <time>2016-01-29T09:47:32.356Z</time>
      </trkpt>
      <trkpt lat="48.73619" lon="2.51169">
        <ele>92.858</ele>
        <time>2016-01-29T09:47:39.572Z</time>
      </trkpt>
      <trkpt lat="48.73621" lon="2.51154">
        <ele>92.799</ele>
        <time>2016-01-29T09:47:47.477Z</time>
      </trkpt>
      <trkpt lat="48.73625" lon="2.51141">
        <ele>92.757</ele>
        <time>2016-01-29T09:47:55.050Z</time>
      </trkpt>
      <trkpt lat="48.73625" lon="2.51127">
        <ele>92.78</ele>
        <time>2016-01-29T09:48:02.294Z</time>
      </trkpt>
      <trkpt lat="48.73624" lon="2.51113">
        <ele>92.857</ele>
        <time>2016-01-29T09:48:09.234Z</time>
      </trkpt>
      <trkpt lat="48.73628" lon="2.511">
        <ele>92.921</ele>
        <time>2016-01-29T09:48:16.796Z</time>
      </trkpt>
      <trkpt lat="48.7363" lon="2.51086">
        <ele>92.938</ele>
        <time>2016-01-29T09:48:24.161Z</time>
      </trkpt>
      <trkpt lat="48.73633" lon="2.51073">
        <ele>92.915</ele>
        <time>2016-01-29T09:48:30.755Z</time>
      </trkpt>
      <trkpt lat="48.73639" lon="2.51061">
        <ele>92.88</ele>
        <time>2016-01-29T09:48:37.672Z</time>
      </trkpt>
      <trkpt lat="48.7364" lon="2.51046">
        <ele>92.828</ele>
        <time>2016-01-29T09:48:44.807Z</time>
      </trkpt>
      <trkpt lat="48.73645" lon="2.51034">
        <ele>92.725</ele>
        <time>2016-01-29T09:48:52.059Z</time>
      </trkpt>
      <trkpt lat="48.73648" lon="2.51019">
        <ele>92.588</ele>
        <time>2016-01-29T09:49:00.232Z</time>
      </trkpt>
      <trkpt lat="48.7365" lon="2.51004">
        <ele>92.488</ele>
        <time>2016-01-29T09:49:08.109Z</time>
      </trkpt>
      <trkpt lat="48.73654" lon="2.50992">
        <ele>92.466</ele>
        <time>2016-01-29T09:49:15.506Z</time>
      </trkpt>
      <trkpt lat="48.73655" lon="2.50978">
        <ele>92.527</ele>
        <time>2016-01-29T09:49:24.179Z</time>
      </trkpt>
      <trkpt lat="48.7366" lon="2.50966">
        <ele>92.631</ele>
        <time>2016-01-29T09:49:33.171Z</time>
      </trkpt>
      <trkpt lat="48.73664" lon="2.50953">
        <ele>92.73</ele>
        <time>2016-01-29T09:49:40.728Z</time>
      </trkpt>
      <trkpt lat="48.73665" lon="2.50937">
        <ele>92.848</ele>
        <time>2016-01-29T09:49:48.311Z</time>
      </trkpt>
      <trkpt lat="48.73663" lon="2.50923">
        <ele>93.013</ele>
        <time>2016-01-29T09:49:55.026Z</time>
      </trkpt>
      <trkpt lat="48.73663" lon="2.50908">
        <ele>93.111</ele>
        <time>2016-01-29T09:50:02.472Z</time>
      </trkpt>
      <trkpt lat="48.73666" lon="2.50894">
        <ele>93.059</ele>
        <time>2016-01-29T09:50:10.424Z</time>
      </trkpt>
      <trkpt lat="48.73671" lon="2.50882">
        <ele>93.049</ele>
        <time>2016-01-29T09:50:17.802Z</time>
      </trkpt>
      <trkpt lat="48.73674" lon="2.50869">
        <ele>93.242</ele>
        <time>2016-01-29T09:50:25.155Z</time>
      </trkpt>
      <trkpt lat="48.73665" lon="2.5086">
        <ele>93.345</ele>
        <time>2016-01-29T09:50:34.505Z</time>
      </trkpt>
      <trkpt lat="48.73675" lon="2.50863">
        <ele>93.09</ele>
        <time>2016-01-29T09:50:44.359Z</time>
      </trkpt>
      <trkpt lat="48.73685" lon="2.50863">
        <ele>92.692</ele>
        <time>2016-01-29T09:50:53.453Z</time>
      </trkpt>
      <trkpt lat="48.73694" lon="2.50861">
        <ele>92.309</ele>
        <time>2016-01-29T09:51:00.178Z</time>
      </trkpt>
      <trkpt lat="48.73698" lon="2.50847">
        <ele>91.896</ele>
        <time>2016-01-29T09:51:07.231Z</time>
      </trkpt>
      <trkpt lat="48.73694" lon="2.50833">
        <ele>91.569</ele>
        <time>2016-01-29T09:51:14.543Z</time>
      </trkpt>
      <trkpt lat="48.73689" lon="2.50822">
        <ele>91.433</ele>
        <time>2016-01-29T09:51:21.485Z</time>
      </trkpt>
      <trkpt lat="48.73685" lon="2.50809">
        <ele>91.353</ele>
        <time>2016-01-29T09:51:28.967Z</time>
      </trkpt>
      <trkpt lat="48.73681" lon="2.50797">
        <ele>91.201</ele>
        <time>2016-01-29T09:51:37.166Z</time>
      </trkpt>
      <trkpt lat="48.73676" lon="2.50784">
        <ele>90.904</ele>
        <time>2016-01-29T09:51:45.918Z</time>
      </trkpt>
      <trkpt lat="48.73674" lon="2.50771">
        <ele>90.423</ele>
        <time>2016-01-29T09:51:54.016Z</time>
      </trkpt>
      <trkpt lat="48.73671" lon="2.50758">
        <ele>89.868</ele>
        <time>2016-01-29T09:52:01.953Z</time>
      </trkpt>
      <trkpt lat="48.73666" lon="2.50747">
        <ele>89.424</ele>
        <time>2016-01-29T09:52:09.376Z</time>
      </trkpt>
      <trkpt lat="48.73659" lon="2.50737">
        <ele>89.09</ele>
        <time>2016-01-29T09:52:16.598Z</time>
      </trkpt>
      <trkpt lat="48.73655" lon="2.50723">
        <ele>88.81</ele>
        <time>2016-01-29T09:52:24.002Z</time>
      </trkpt>
      <trkpt lat="48.73652" lon="2.50708">
        <ele>88.644</ele>
        <time>2016-01-29T09:52:31.195Z</time>
      </trkpt>
      <trkpt lat="48.73649" lon="2.50696">
        <ele>88.637</ele>
        <time>2016-01-29T09:52:37.697Z</time>
      </trkpt>
      <trkpt lat="48.73648" lon="2.50681">
        <ele>88.701</ele>
        <time>2016-01-29T09:52:45.467Z</time>
      </trkpt>
      <trkpt lat="48.73647" lon="2.50667">
        <ele>88.734</ele>
        <time>2016-01-29T09:52:53.013Z</time>
      </trkpt>
      <trkpt lat="48.73651" lon="2.50653">
        <ele>88.679</ele>
        <time>2016-01-29T09:53:01.396Z</time>
      </trkpt>
      <trkpt lat="48.73656" lon="2.50641">
        <ele>88.429</ele>
        <time>2016-01-29T09:53:09.228Z</time>
      </trkpt>
      <trkpt lat="48.73659" lon="2.50627">
        <ele>87.912</ele>
        <time>2016-01-29T09:53:16.951Z</time>
      </trkpt>
      <trkpt lat="48.73662" lon="2.50613">
        <ele>87.324</ele>
        <time>2016-01-29T09:53:24.158Z</time>
      </trkpt>
      <trkpt lat="48.73669" lon="2.50602">
        <ele>86.944</ele>
        <time>2016-01-29T09:53:31.248Z</time>
      </trkpt>
      <trkpt lat="48.7367" lon="2.50588">
        <ele>86.81</ele>
        <time>2016-01-29T09:53:38.189Z</time>
      </trkpt>
      <trkpt lat="48.73671" lon="2.50573">
        <ele>86.751</ele>
        <time>2016-01-29T09:53:46.043Z</time>
      </trkpt>
      <trkpt lat="48.73674" lon="2.50559">
        <ele>86.628</ele>
        <time>2016-01-29T09:53:53.845Z</time>
      </trkpt>
      <trkpt lat="48.73678" lon="2.50546">
        <ele>86.471</ele>
        <time>2016-01-29T09:54:01.472Z</time>
      </trkpt>
      <trkpt lat="48.73679" lon="2.50532">
        <ele>86.364</ele>
        <time>2016-01-29T09:54:08.312Z</time>
      </trkpt>
      <trkpt lat="48.73682" lon="2.50518">
        <ele>86.28</ele>
        <time>2016-01-29T09:54:16.178Z</time>
      </trkpt>
      <trkpt lat="48.73686" lon="2.50504">
        <ele>86.169</ele>
        <time>2016-01-29T09:54:24.231Z</time>
      </trkpt>
      <trkpt lat="48.73691" lon="2.50491">
        <ele>86.041</ele>
        <time>2016-01-29T09:54:31.729Z</time>
      </trkpt>
      <trkpt lat="48.73694" lon="2.50478">
        <ele>85.928</ele>
        <time>2016-01-29T09:54:39.668Z</time>
      </trkpt>
      <trkpt lat="48.73698" lon="2.50466">
        <ele>85.818</ele>
        <time>2016-01-29T09:54:47.334Z</time>
      </trkpt>
      <trkpt lat="48.73704" lon="2.50453">
        <ele>85.708</ele>
        <time>2016-01-29T09:54:55.355Z</time>
      </trkpt>
      <trkpt lat="48.73708" lon="2.5044">
        <ele>85.642</ele>
        <time>2016-01-29T09:55:02.580Z</time>
      </trkpt>
      <trkpt lat="48.73713" lon="2.50428">
        <ele>85.685</ele>
        <time>2016-01-29T09:55:09.351Z</time>
      </trkpt>
      <trkpt lat="48.73716" lon="2.50415">
        <ele>85.824</ele>
        <time>2016-01-29T09:55:16.656Z</time>
      </trkpt>
      <trkpt lat="48.73722" lon="2.50403">
        <ele>85.936</ele>
        <time>2016-01-29T09:55:24.682Z</time>
      </trkpt>
      <trkpt lat="48.73726" lon="2.50389">
        <ele>85.915</ele>
        <time>2016-01-29T09:55:32.907Z</time>
      </trkpt>
      <trkpt lat="48.73731" lon="2.50377">
        <ele>85.793</ele>
        <time>2016-01-29T09:55:40.361Z</time>
      </trkpt>
      <trkpt lat="48.73735" lon="2.50364">
        <ele>85.671</ele>
        <time>2016-01-29T09:55:47.460Z</time>
      </trkpt>
      <trkpt lat="48.73736" lon="2.50349">
        <ele>85.572</ele>
        <time>2016-01-29T09:55:54.525Z</time>
      </trkpt>
      <trkpt lat="48.73738" lon="2.50335">
        <ele>85.427</ele>
        <time>2016-01-29T09:56:02.231Z</time>
      </trkpt>
      <trkpt lat="48.7374" lon="2.50322">
        <ele>85.226</ele>
        <time>2016-01-29T09:56:09.114Z</time>
      </trkpt>
      <trkpt lat="48.73744" lon="2.50309">
        <ele>85.065</ele>
        <time>2016-01-29T09:56:15.954Z</time>
      </trkpt>
      <trkpt lat="48.73741" lon="2.50294">
        <ele>85</ele>
        <time>2016-01-29T09:56:24.000Z</time>
      </trkpt>
      <trkpt lat="48.73741" lon="2.50294">
        <ele>84.989</ele>
        <time>2016-01-29T09:56:29.000Z</time>
      </trkpt>
      <trkpt lat="48.73741" lon="2.50294">
        <ele>84.977</ele>
        <time>2016-01-29T09:56:41.686Z</time>
      </trkpt>
      <trkpt lat="48.73735" lon="2.50284">
        <ele>84.946</ele>
        <time>2016-01-29T09:56:57.118Z</time>
      </trkpt>
      <trkpt lat="48.73726" lon="2.50285">
        <ele>84.981</ele>
        <time>2016-01-29T09:57:07.862Z</time>
      </trkpt>
      <trkpt lat="48.73716" lon="2.50284">
        <ele>85.192</ele>
        <time>2016-01-29T09:57:17.494Z</time>
      </trkpt>
      <trkpt lat="48.73707" lon="2.50285">
        <ele>85.509</ele>
        <time>2016-01-29T09:57:25.917Z</time>
      </trkpt>
      <trkpt lat="48.73697" lon="2.50286">
        <ele>85.836</ele>
        <time>2016-01-29T09:57:35.091Z</time>
      </trkpt>
      <trkpt lat="48.73687" lon="2.50287">
        <ele>86.195</ele>
        <time>2016-01-29T09:57:44.768Z</time>
      </trkpt>
      <trkpt lat="48.73678" lon="2.5029">
        <ele>86.534</ele>
        <time>2016-01-29T09:57:53.528Z</time>
      </trkpt>
      <trkpt lat="48.73668" lon="2.50289">
        <ele>86.738</ele>
        <time>2016-01-29T09:58:00.792Z</time>
      </trkpt>
      <trkpt lat="48.73659" lon="2.5029">
        <ele>86.833</ele>
        <time>2016-01-29T09:58:07.632Z</time>
      </trkpt>
      <trkpt lat="48.7365" lon="2.50293">
        <ele>86.9</ele>
        <time>2016-01-29T09:58:15.303Z</time>
      </trkpt>
      <trkpt lat="48.73641" lon="2.50299">
        <ele>86.883</ele>
        <time>2016-01-29T09:58:23.722Z</time>
      </trkpt>
      <trkpt lat="48.73633" lon="2.50304">
        <ele>86.527</ele>
        <time>2016-01-29T09:58:31.719Z</time>
      </trkpt>
      <trkpt lat="48.73623" lon="2.50305">
        <ele>86.295</ele>
        <time>2016-01-29T09:58:38.630Z</time>
      </trkpt>
      <trkpt lat="48.73614" lon="2.50307">
        <ele>86.196</ele>
        <time>2016-01-29T09:58:45.885Z</time>
      </trkpt>
      <trkpt lat="48.73605" lon="2.5031">
        <ele>86.1</ele>
        <time>2016-01-29T09:58:54.002Z</time>
      </trkpt>
      <trkpt lat="48.73595" lon="2.5031">
        <ele>86.016</ele>
        <time>2016-01-29T09:59:03.450Z</time>
      </trkpt>
      <trkpt lat="48.73585" lon="2.50312">
        <ele>85.909</ele>
        <time>2016-01-29T09:59:11.637Z</time>
      </trkpt>
      <trkpt lat="48.73576" lon="2.50314">
        <ele>85.824</ele>
        <time>2016-01-29T09:59:19.749Z</time>
      </trkpt>
      <trkpt lat="48.73566" lon="2.50315">
        <ele>85.891</ele>
        <time>2016-01-29T09:59:28.546Z</time>
      </trkpt>
      <trkpt lat="48.73556" lon="2.50315">
        <ele>86.241</ele>
        <time>2016-01-29T09:59:36.864Z</time>
      </trkpt>
      <trkpt lat="48.73547" lon="2.50313">
        <ele>86.808</ele>
        <time>2016-01-29T09:59:44.879Z</time>
      </trkpt>
      <trkpt lat="48.73538" lon="2.50316">
        <ele>87.315</ele>
        <time>2016-01-29T09:59:54.329Z</time>
      </trkpt>
      <trkpt lat="48.73529" lon="2.50318">
        <ele>87.651</ele>
        <time>2016-01-29T10:00:04.279Z</time>
      </trkpt>
      <trkpt lat="48.73518" lon="2.50317">
        <ele>87.985</ele>
        <time>2016-01-29T10:00:11.369Z</time>
      </trkpt>
      <trkpt lat="48.73507" lon="2.50317">
        <ele>88.431</ele>
        <time>2016-01-29T10:00:17.147Z</time>
      </trkpt>
      <trkpt lat="48.73498" lon="2.50318">
        <ele>88.865</ele>
        <time>2016-01-29T10:00:23.064Z</time>
      </trkpt>
      <trkpt lat="48.73489" lon="2.50318">
        <ele>89.185</ele>
        <time>2016-01-29T10:00:30.650Z</time>
      </trkpt>
      <trkpt lat="48.73479" lon="2.50319">
        <ele>89.406</ele>
        <time>2016-01-29T10:00:39.919Z</time>
      </trkpt>
      <trkpt lat="48.7347" lon="2.50321">
        <ele>89.548</ele>
        <time>2016-01-29T10:00:48.459Z</time>
      </trkpt>
      <trkpt lat="48.7346" lon="2.5032">
        <ele>89.633</ele>
        <time>2016-01-29T10:00:56.838Z</time>
      </trkpt>
      <trkpt lat="48.7345" lon="2.50321">
        <ele>89.697</ele>
        <time>2016-01-29T10:01:04.881Z</time>
      </trkpt>
      <trkpt lat="48.73441" lon="2.50327">
        <ele>89.766</ele>
        <time>2016-01-29T10:01:12.424Z</time>
      </trkpt>
      <trkpt lat="48.73431" lon="2.50324">
        <ele>89.848</ele>
        <time>2016-01-29T10:01:19.441Z</time>
      </trkpt>
      <trkpt lat="48.73422" lon="2.50321">
        <ele>89.937</ele>
        <time>2016-01-29T10:01:26.460Z</time>
      </trkpt>
      <trkpt lat="48.73413" lon="2.50317">
        <ele>90.046</ele>
        <time>2016-01-29T10:01:34.034Z</time>
      </trkpt>
      <trkpt lat="48.73404" lon="2.50313">
        <ele>90.237</ele>
        <time>2016-01-29T10:01:42.024Z</time>
      </trkpt>
      <trkpt lat="48.73394" lon="2.50314">
        <ele>90.492</ele>
        <time>2016-01-29T10:01:49.705Z</time>
      </trkpt>
      <trkpt lat="48.73385" lon="2.50317">
        <ele>90.667</ele>
        <time>2016-01-29T10:01:57.625Z</time>
      </trkpt>
      <trkpt lat="48.73375" lon="2.50318">
        <ele>90.511</ele>
        <time>2016-01-29T10:02:05.685Z</time>
      </trkpt>
      <trkpt lat="48.73365" lon="2.50316">
        <ele>89.831</ele>
        <time>2016-01-29T10:02:14.030Z</time>
      </trkpt>
      <trkpt lat="48.73355" lon="2.5032">
        <ele>88.7</ele>
        <time>2016-01-29T10:02:22.044Z</time>
      </trkpt>
      <trkpt lat="48.73345" lon="2.50325">
        <ele>87.456</ele>
        <time>2016-01-29T10:02:31.049Z</time>
      </trkpt>
      <trkpt lat="48.73337" lon="2.50332">
        <ele>86.498</ele>
        <time>2016-01-29T10:02:41.578Z</time>
      </trkpt>
      <trkpt lat="48.73328" lon="2.50331">
        <ele>86.04</ele>
        <time>2016-01-29T10:02:51.085Z</time>
      </trkpt>
      <trkpt lat="48.73318" lon="2.50332">
        <ele>85.969</ele>
        <time>2016-01-29T10:02:58.390Z</time>
      </trkpt>
      <trkpt lat="48.73309" lon="2.50334">
        <ele>86.033</ele>
        <time>2016-01-29T10:03:05.389Z</time>
      </trkpt>
      <trkpt lat="48.73299" lon="2.50336">
        <ele>86.073</ele>
        <time>2016-01-29T10:03:13.350Z</time>
      </trkpt>
      <trkpt lat="48.7329" lon="2.50336">
        <ele>86.069</ele>
        <time>2016-01-29T10:03:20.505Z</time>
      </trkpt>
      <trkpt lat="48.7328" lon="2.50335">
        <ele>86.056</ele>
        <time>2016-01-29T10:03:28.147Z</time>
      </trkpt>
      <trkpt lat="48.73271" lon="2.50338">
        <ele>86.058</ele>
        <time>2016-01-29T10:03:35.792Z</time>
      </trkpt>
      <trkpt lat="48.73261" lon="2.50339">
        <ele>86.066</ele>
        <time>2016-01-29T10:03:43.662Z</time>
      </trkpt>
      <trkpt lat="48.73251" lon="2.50337">
        <ele>86.047</ele>
        <time>2016-01-29T10:03:51.180Z</time>
      </trkpt>
      <trkpt lat="48.73241" lon="2.50335">
        <ele>86.009</ele>
        <time>2016-01-29T10:03:58.792Z</time>
      </trkpt>
      <trkpt lat="48.73231" lon="2.50336">
        <ele>86.027</ele>
        <time>2016-01-29T10:04:06.671Z</time>
      </trkpt>
      <trkpt lat="48.73221" lon="2.50338">
        <ele>86.135</ele>
        <time>2016-01-29T10:04:13.248Z</time>
      </trkpt>
      <trkpt lat="48.73212" lon="2.50337">
        <ele>86.242</ele>
        <time>2016-01-29T10:04:19.270Z</time>
      </trkpt>
      <trkpt lat="48.73202" lon="2.50339">
        <ele>86.235</ele>
        <time>2016-01-29T10:04:27.373Z</time>
      </trkpt>
      <trkpt lat="48.73192" lon="2.50342">
        <ele>86.074</ele>
        <time>2016-01-29T10:04:36.574Z</time>
      </trkpt>
      <trkpt lat="48.73183" lon="2.50343">
        <ele>85.829</ele>
        <time>2016-01-29T10:04:45.872Z</time>
      </trkpt>
      <trkpt lat="48.73173" lon="2.50343">
        <ele>85.659</ele>
        <time>2016-01-29T10:04:54.037Z</time>
      </trkpt>
      <trkpt lat="48.73164" lon="2.50345">
        <ele>85.688</ele>
        <time>2016-01-29T10:05:01.333Z</time>
      </trkpt>
      <trkpt lat="48.73155" lon="2.50349">
        <ele>85.907</ele>
        <time>2016-01-29T10:05:11.123Z</time>
      </trkpt>
      <trkpt lat="48.73145" lon="2.50347">
        <ele>86.23</ele>
        <time>2016-01-29T10:05:21.707Z</time>
      </trkpt>
      <trkpt lat="48.73136" lon="2.50347">
        <ele>86.591</ele>
        <time>2016-01-29T10:05:29.493Z</time>
      </trkpt>
      <trkpt lat="48.73126" lon="2.50348">
        <ele>86.975</ele>
        <time>2016-01-29T10:05:37.045Z</time>
      </trkpt>
      <trkpt lat="48.73116" lon="2.5035">
        <ele>87.329</ele>
        <time>2016-01-29T10:05:44.000Z</time>
      </trkpt>
      <trkpt lat="48.73116" lon="2.5035">
        <ele>87.551</ele>
        <time>2016-01-29T10:05:51.000Z</time>
      </trkpt>
      <trkpt lat="48.73116" lon="2.5035">
        <ele>87.599</ele>
        <time>2016-01-29T10:05:51.100Z</time>
      </trkpt>
      <trkpt lat="48.73098" lon="2.50344">
        <ele>87.519</ele>
        <time>2016-01-29T10:06:14.475Z</time>
      </trkpt>
      <trkpt lat="48.73092" lon="2.50331">
        <ele>87.387</ele>
        <time>2016-01-29T10:06:21.244Z</time>
      </trkpt>
      <trkpt lat="48.73091" lon="2.50317">
        <ele>87.286</ele>
        <time>2016-01-29T10:06:27.382Z</time>
      </trkpt>
      <trkpt lat="48.73083" lon="2.50306">
        <ele>87.247</ele>
        <time>2016-01-29T10:06:34.413Z</time>
      </trkpt>
      <trkpt lat="48.73078" lon="2.50293">
        <ele>87.246</ele>
        <time>2016-01-29T10:06:41.854Z</time>
      </trkpt>
      <trkpt lat="48.73074" lon="2.5028">
        <ele>87.255</ele>
        <time>2016-01-29T10:06:50.061Z</time>
      </trkpt>
      <trkpt lat="48.73071" lon="2.50267">
        <ele>87.252</ele>
        <time>2016-01-29T10:06:57.428Z</time>
      </trkpt>
      <trkpt lat="48.73067" lon="2.50254">
        <ele>87.229</ele>
        <time>2016-01-29T10:07:04.873Z</time>
      </trkpt>
      <trkpt lat="48.73062" lon="2.50243">
        <ele>87.206</ele>
        <time>2016-01-29T10:07:12.893Z</time>
      </trkpt>
      <trkpt lat="48.7306" lon="2.50228">
        <ele>87.237</ele>
        <time>2016-01-29T10:07:21.922Z</time>
      </trkpt>
      <trkpt lat="48.73055" lon="2.50215">
        <ele>87.336</ele>
        <time>2016-01-29T10:07:30.584Z</time>
      </trkpt>
      <trkpt lat="48.73049" lon="2.50205">
        <ele>87.438</ele>
        <time>2016-01-29T10:07:37.201Z</time>
      </trkpt>
      <trkpt lat="48.73044" lon="2.50193">
        <ele>87.508</ele>
        <time>2016-01-29T10:07:43.649Z</time>
      </trkpt>
      <trkpt lat="48.73041" lon="2.50179">
        <ele>87.622</ele>
        <time>2016-01-29T10:07:50.279Z</time>
      </trkpt>
      <trkpt lat="48.73039" lon="2.50164">
        <ele>87.83</ele>
        <time>2016-01-29T10:07:57.082Z</time>
      </trkpt>
      <trkpt lat="48.73038" lon="2.5015">
        <ele>88.059</ele>
        <time>2016-01-29T10:08:04.066Z</time>
      </trkpt>
      <trkpt lat="48.73035" lon="2.50136">
        <ele>88.224</ele>
        <time>2016-01-29T10:08:11.433Z</time>
      </trkpt>
      <trkpt lat="48.73034" lon="2.50122">
        <ele>88.303</ele>
        <time>2016-01-29T10:08:18.659Z</time>
      </trkpt>
      <trkpt lat="48.73031" lon="2.50109">
        <ele>88.329</ele>
        <time>2016-01-29T10:08:25.687Z</time>
      </trkpt>
      <trkpt lat="48.73031" lon="2.50095">
        <ele>88.33</ele>
        <time>2016-01-29T10:08:33.052Z</time>
      </trkpt>
      <trkpt lat="48.7303" lon="2.50081">
        <ele>88.296</ele>
        <time>2016-01-29T10:08:40.007Z</time>
      </trkpt>
      <trkpt lat="48.73026" lon="2.50068">
        <ele>88.21</ele>
        <time>2016-01-29T10:08:47.278Z</time>
      </trkpt>
      <trkpt lat="48.73024" lon="2.50054">
        <ele>88.093</ele>
        <time>2016-01-29T10:08:54.105Z</time>
      </trkpt>
      <trkpt lat="48.73019" lon="2.50042">
        <ele>87.965</ele>
        <time>2016-01-29T10:09:00.957Z</time>
      </trkpt>
      <trkpt lat="48.73017" lon="2.50027">
        <ele>87.825</ele>
        <time>2016-01-29T10:09:07.942Z</time>
      </trkpt>
      <trkpt lat="48.7302" lon="2.50013">
        <ele>87.668</ele>
        <time>2016-01-29T10:09:15.000Z</time>
      </trkpt>
      <trkpt lat="48.7302" lon="2.50013">
        <ele>87.55</ele>
        <time>2016-01-29T10:09:17.000Z</time>
      </trkpt>
      <trkpt lat="48.7302" lon="2.50013">
        <ele>87.497</ele>
        <time>2016-01-29T10:12:09.981Z</time>
      </trkpt>
      <trkpt lat="48.73021" lon="2.49998">
        <ele>87.453</ele>
        <time>2016-01-29T10:12:22.546Z</time>
      </trkpt>
      <trkpt lat="48.73017" lon="2.49985">
        <ele>87.174</ele>
        <time>2016-01-29T10:12:29.000Z</time>
      </trkpt>
      <trkpt lat="48.73017" lon="2.49985">
        <ele>86.469</ele>
        <time>2016-01-29T10:12:42.000Z</time>
      </trkpt>
      <trkpt lat="48.73017" lon="2.49985">
        <ele>85.868</ele>
        <time>2016-01-29T10:12:42.100Z</time>
      </trkpt>
      <trkpt lat="48.73006" lon="2.49976">
        <ele>85.843</ele>
        <time>2016-01-29T10:13:00.651Z</time>
      </trkpt>
      <trkpt lat="48.72997" lon="2.49975">
        <ele>85.977</ele>
        <time>2016-01-29T10:13:09.870Z</time>
      </trkpt>
      <trkpt lat="48.72988" lon="2.49966">
        <ele>85.478</ele>
        <time>2016-01-29T10:13:20.528Z</time>
      </trkpt>
      <trkpt lat="48.7298" lon="2.49958">
        <ele>85.18</ele>
        <time>2016-01-29T10:13:28.632Z</time>
      </trkpt>
      <trkpt lat="48.72972" lon="2.4995">
        <ele>85.046</ele>
        <time>2016-01-29T10:13:35.642Z</time>
      </trkpt>
      <trkpt lat="48.72962" lon="2.49947">
        <ele>85.123</ele>
        <time>2016-01-29T10:13:43.000Z</time>
      </trkpt>
      <trkpt lat="48.72962" lon="2.49947">
        <ele>85.105</ele>
        <time>2016-01-29T10:13:55.000Z</time>
      </trkpt>
      <trkpt lat="48.72962" lon="2.49947">
        <ele>85.057</ele>
        <time>2016-01-29T10:13:55.100Z</time>
      </trkpt>
      <trkpt lat="48.72957" lon="2.49962">
        <ele>85.029</ele>
        <time>2016-01-29T10:14:12.713Z</time>
      </trkpt>
      <trkpt lat="48.72957" lon="2.49975">
        <ele>85.139</ele>
        <time>2016-01-29T10:14:23.477Z</time>
      </trkpt>
      <trkpt lat="48.72957" lon="2.49989">
        <ele>85.481</ele>
        <time>2016-01-29T10:14:33.368Z</time>
      </trkpt>
      <trkpt lat="48.72959" lon="2.50003">
        <ele>85.908</ele>
        <time>2016-01-29T10:14:42.867Z</time>
      </trkpt>
      <trkpt lat="48.72962" lon="2.50017">
        <ele>86.316</ele>
        <time>2016-01-29T10:14:51.671Z</time>
      </trkpt>
      <trkpt lat="48.72964" lon="2.5003">
        <ele>86.769</ele>
        <time>2016-01-29T10:14:59.589Z</time>
      </trkpt>
      <trkpt lat="48.72967" lon="2.50045">
        <ele>87.247</ele>
        <time>2016-01-29T10:15:08.312Z</time>
      </trkpt>
      <trkpt lat="48.72968" lon="2.5006">
        <ele>87.757</ele>
        <time>2016-01-29T10:15:17.032Z</time>
      </trkpt>
      <trkpt lat="48.7297" lon="2.50074">
        <ele>88.331</ele>
        <time>2016-01-29T10:15:24.931Z</time>
      </trkpt>
      <trkpt lat="48.72971" lon="2.50089">
        <ele>88.877</ele>
        <time>2016-01-29T10:15:33.414Z</time>
      </trkpt>
      <trkpt lat="48.72973" lon="2.50103">
        <ele>89.305</ele>
        <time>2016-01-29T10:15:41.316Z</time>
      </trkpt>
      <trkpt lat="48.72974" lon="2.50117">
        <ele>89.702</ele>
        <time>2016-01-29T10:15:48.915Z</time>
      </trkpt>
      <trkpt lat="48.72975" lon="2.50131">
        <ele>90.183</ele>
        <time>2016-01-29T10:15:55.923Z</time>
      </trkpt>
      <trkpt lat="48.72979" lon="2.50144">
        <ele>90.697</ele>
        <time>2016-01-29T10:16:02.591Z</time>
      </trkpt>
      <trkpt lat="48.72979" lon="2.50158">
        <ele>91.119</ele>
        <time>2016-01-29T10:16:08.669Z</time>
      </trkpt>
      <trkpt lat="48.72979" lon="2.50171">
        <ele>91.443</ele>
        <time>2016-01-29T10:16:14.717Z</time>
      </trkpt>
      <trkpt lat="48.72981" lon="2.50185">
        <ele>91.682</ele>
        <time>2016-01-29T10:16:21.195Z</time>
      </trkpt>
      <trkpt lat="48.72981" lon="2.50199">
        <ele>91.807</ele>
        <time>2016-01-29T10:16:28.169Z</time>
      </trkpt>
      <trkpt lat="48.72982" lon="2.50214">
        <ele>91.652</ele>
        <time>2016-01-29T10:16:36.088Z</time>
      </trkpt>
      <trkpt lat="48.72983" lon="2.50229">
        <ele>91.099</ele>
        <time>2016-01-29T10:16:44.349Z</time>
      </trkpt>
      <trkpt lat="48.72984" lon="2.50244">
        <ele>90.352</ele>
        <time>2016-01-29T10:16:52.367Z</time>
      </trkpt>
      <trkpt lat="48.72984" lon="2.50258">
        <ele>89.72</ele>
        <time>2016-01-29T10:16:59.512Z</time>
      </trkpt>
      <trkpt lat="48.72984" lon="2.50272">
        <ele>89.296</ele>
        <time>2016-01-29T10:17:06.891Z</time>
      </trkpt>
      <trkpt lat="48.72985" lon="2.50287">
        <ele>89.017</ele>
        <time>2016-01-29T10:17:14.915Z</time>
      </trkpt>
      <trkpt lat="48.72987" lon="2.50302">
        <ele>88.726</ele>
        <time>2016-01-29T10:17:22.643Z</time>
      </trkpt>
      <trkpt lat="48.72987" lon="2.50316">
        <ele>88.311</ele>
        <time>2016-01-29T10:17:29.590Z</time>
      </trkpt>
      <trkpt lat="48.72988" lon="2.5033">
        <ele>87.854</ele>
        <time>2016-01-29T10:17:36.495Z</time>
      </trkpt>
      <trkpt lat="48.72984" lon="2.50342">
        <ele>87.452</ele>
        <time>2016-01-29T10:17:43.551Z</time>
      </trkpt>
      <trkpt lat="48.72975" lon="2.50349">
        <ele>87.104</ele>
        <time>2016-01-29T10:17:51.210Z</time>
      </trkpt>
      <trkpt lat="48.72965" lon="2.50347">
        <ele>86.851</ele>
        <time>2016-01-29T10:18:00.190Z</time>
      </trkpt>
      <trkpt lat="48.72956" lon="2.50346">
        <ele>86.747</ele>
        <time>2016-01-29T10:18:08.467Z</time>
      </trkpt>
      <trkpt lat="48.72947" lon="2.50347">
        <ele>86.766</ele>
        <time>2016-01-29T10:18:15.930Z</time>
      </trkpt>
      <trkpt lat="48.72938" lon="2.50351">
        <ele>86.852</ele>
        <time>2016-01-29T10:18:23.613Z</time>
      </trkpt>
      <trkpt lat="48.72928" lon="2.50351">
        <ele>86.977</ele>
        <time>2016-01-29T10:18:32.631Z</time>
      </trkpt>
      <trkpt lat="48.72918" lon="2.50352">
        <ele>87.178</ele>
        <time>2016-01-29T10:18:41.473Z</time>
      </trkpt>
      <trkpt lat="48.72908" lon="2.50356">
        <ele>87.467</ele>
        <time>2016-01-29T10:18:50.703Z</time>
      </trkpt>
      <trkpt lat="48.72898" lon="2.50355">
        <ele>87.796</ele>
        <time>2016-01-29T10:19:00.842Z</time>
      </trkpt>
      <trkpt lat="48.72887" lon="2.50357">
        <ele>88.101</ele>
        <time>2016-01-29T10:19:13.997Z</time>
      </trkpt>
      <trkpt lat="48.72877" lon="2.5036">
        <ele>88.406</ele>
        <time>2016-01-29T10:19:23.310Z</time>
      </trkpt>
      <trkpt lat="48.72868" lon="2.50362">
        <ele>88.771</ele>
        <time>2016-01-29T10:19:31.486Z</time>
      </trkpt>
      <trkpt lat="48.72859" lon="2.50359">
        <ele>89.133</ele>
        <time>2016-01-29T10:19:39.470Z</time>
      </trkpt>
      <trkpt lat="48.72849" lon="2.5036">
        <ele>89.377</ele>
        <time>2016-01-29T10:19:47.700Z</time>
      </trkpt>
      <trkpt lat="48.7284" lon="2.50362">
        <ele>89.581</ele>
        <time>2016-01-29T10:19:55.466Z</time>
      </trkpt>
      <trkpt lat="48.72831" lon="2.50363">
        <ele>89.89</ele>
        <time>2016-01-29T10:20:02.905Z</time>
      </trkpt>
      <trkpt lat="48.72822" lon="2.50363">
        <ele>90.263</ele>
        <time>2016-01-29T10:20:09.707Z</time>
      </trkpt>
      <trkpt lat="48.72813" lon="2.50364">
        <ele>90.539</ele>
        <time>2016-01-29T10:20:16.664Z</time>
      </trkpt>
      <trkpt lat="48.72804" lon="2.50364">
        <ele>90.712</ele>
        <time>2016-01-29T10:20:23.753Z</time>
      </trkpt>
      <trkpt lat="48.72794" lon="2.50364">
        <ele>90.882</ele>
        <time>2016-01-29T10:20:32.366Z</time>
      </trkpt>
      <trkpt lat="48.72785" lon="2.50363">
        <ele>91.134</ele>
        <time>2016-01-29T10:20:40.474Z</time>
      </trkpt>
      <trkpt lat="48.72775" lon="2.50363">
        <ele>91.526</ele>
        <time>2016-01-29T10:20:48.416Z</time>
      </trkpt>
      <trkpt lat="48.72765" lon="2.50362">
        <ele>91.991</ele>
        <time>2016-01-29T10:20:56.999Z</time>
      </trkpt>
      <trkpt lat="48.72765" lon="2.50362">
        <ele>92.344</ele>
        <time>2016-01-29T10:21:03.000Z</time>
      </trkpt>
      <trkpt lat="48.72765" lon="2.50362">
        <ele>92.469</ele>
        <time>2016-01-29T10:21:03.100Z</time>
      </trkpt>
      <trkpt lat="48.72755" lon="2.50365">
        <ele>92.41</ele>
        <time>2016-01-29T10:21:17.780Z</time>
      </trkpt>
      <trkpt lat="48.72746" lon="2.50367">
        <ele>92.415</ele>
        <time>2016-01-29T10:21:28.318Z</time>
      </trkpt>
      <trkpt lat="48.72737" lon="2.50365">
        <ele>92.702</ele>
        <time>2016-01-29T10:21:38.456Z</time>
      </trkpt>
      <trkpt lat="48.72728" lon="2.50365">
        <ele>93.175</ele>
        <time>2016-01-29T10:21:49.250Z</time>
      </trkpt>
      <trkpt lat="48.72718" lon="2.50367">
        <ele>93.63</ele>
        <time>2016-01-29T10:22:00.641Z</time>
      </trkpt>
      <trkpt lat="48.72707" lon="2.50368">
        <ele>93.998</ele>
        <time>2016-01-29T10:22:08.784Z</time>
      </trkpt>
      <trkpt lat="48.72698" lon="2.50367">
        <ele>94.285</ele>
        <time>2016-01-29T10:22:15.515Z</time>
      </trkpt>
      <trkpt lat="48.72688" lon="2.50368">
        <ele>94.545</ele>
        <time>2016-01-29T10:22:23.294Z</time>
      </trkpt>
      <trkpt lat="48.72678" lon="2.50368">
        <ele>94.853</ele>
        <time>2016-01-29T10:22:31.532Z</time>
      </trkpt>
      <trkpt lat="48.72668" lon="2.5037">
        <ele>95.187</ele>
        <time>2016-01-29T10:22:38.448Z</time>
      </trkpt>
      <trkpt lat="48.72658" lon="2.50373">
        <ele>95.43</ele>
        <time>2016-01-29T10:22:44.531Z</time>
      </trkpt>
      <trkpt lat="48.72648" lon="2.50373">
        <ele>95.565</ele>
        <time>2016-01-29T10:22:50.872Z</time>
      </trkpt>
      <trkpt lat="48.72639" lon="2.50376">
        <ele>95.715</ele>
        <time>2016-01-29T10:22:58.119Z</time>
      </trkpt>
      <trkpt lat="48.7263" lon="2.50381">
        <ele>95.943</ele>
        <time>2016-01-29T10:23:06.186Z</time>
      </trkpt>
      <trkpt lat="48.72622" lon="2.50388">
        <ele>96.233</ele>
        <time>2016-01-29T10:23:15.075Z</time>
      </trkpt>
      <trkpt lat="48.72612" lon="2.50389">
        <ele>96.621</ele>
        <time>2016-01-29T10:23:23.588Z</time>
      </trkpt>
      <trkpt lat="48.72603" lon="2.50383">
        <ele>97.113</ele>
        <time>2016-01-29T10:23:32.687Z</time>
      </trkpt>
      <trkpt lat="48.72594" lon="2.50378">
        <ele>97.573</ele>
        <time>2016-01-29T10:23:41.252Z</time>
      </trkpt>
      <trkpt lat="48.72584" lon="2.5038">
        <ele>98.007</ele>
        <time>2016-01-29T10:23:50.079Z</time>
      </trkpt>
      <trkpt lat="48.72574" lon="2.5038">
        <ele>98.512</ele>
        <time>2016-01-29T10:23:59.768Z</time>
      </trkpt>
      <trkpt lat="48.72565" lon="2.50379">
        <ele>99.005</ele>
        <time>2016-01-29T10:24:09.000Z</time>
      </trkpt>
      <trkpt lat="48.72565" lon="2.50379">
        <ele>99.353</ele>
        <time>2016-01-29T10:24:17.000Z</time>
      </trkpt>
      <trkpt lat="48.72565" lon="2.50379">
        <ele>99.492</ele>
        <time>2016-01-29T10:24:17.100Z</time>
      </trkpt>
      <trkpt lat="48.7255" lon="2.50379">
        <ele>99.399</ele>
        <time>2016-01-29T10:24:45.002Z</time>
      </trkpt>
      <trkpt lat="48.7254" lon="2.5038">
        <ele>99.224</ele>
        <time>2016-01-29T10:24:55.313Z</time>
      </trkpt>
      <trkpt lat="48.72531" lon="2.50383">
        <ele>99.132</ele>
        <time>2016-01-29T10:25:03.147Z</time>
      </trkpt>
      <trkpt lat="48.7252" lon="2.50385">
        <ele>99.125</ele>
        <time>2016-01-29T10:25:09.623Z</time>
      </trkpt>
      <trkpt lat="48.72511" lon="2.50388">
        <ele>99.141</ele>
        <time>2016-01-29T10:25:15.080Z</time>
      </trkpt>
      <trkpt lat="48.72501" lon="2.50388">
        <ele>99.153</ele>
        <time>2016-01-29T10:25:22.387Z</time>
      </trkpt>
      <trkpt lat="48.72493" lon="2.50384">
        <ele>99.1</ele>
        <time>2016-01-29T10:25:29.905Z</time>
      </trkpt>
      <trkpt lat="48.72482" lon="2.50382">
        <ele>98.95</ele>
        <time>2016-01-29T10:25:37.463Z</time>
      </trkpt>
      <trkpt lat="48.72473" lon="2.50385">
        <ele>98.728</ele>
        <time>2016-01-29T10:25:44.217Z</time>
      </trkpt>
      <trkpt lat="48.72464" lon="2.50388">
        <ele>98.494</ele>
        <time>2016-01-29T10:25:52.080Z</time>
      </trkpt>
      <trkpt lat="48.72454" lon="2.5039">
        <ele>98.223</ele>
        <time>2016-01-29T10:26:00.856Z</time>
      </trkpt>
      <trkpt lat="48.72444" lon="2.5039">
        <ele>97.832</ele>
        <time>2016-01-29T10:26:09.902Z</time>
      </trkpt>
      <trkpt lat="48.72434" lon="2.50391">
        <ele>97.347</ele>
        <time>2016-01-29T10:26:17.926Z</time>
      </trkpt>
      <trkpt lat="48.72424" lon="2.50387">
        <ele>96.831</ele>
        <time>2016-01-29T10:26:25.991Z</time>
      </trkpt>
      <trkpt lat="48.72414" lon="2.50391">
        <ele>96.308</ele>
        <time>2016-01-29T10:26:32.711Z</time>
      </trkpt>
      <trkpt lat="48.72405" lon="2.50392">
        <ele>95.907</ele>
        <time>2016-01-29T10:26:40.389Z</time>
      </trkpt>
      <trkpt lat="48.72396" lon="2.50395">
        <ele>95.715</ele>
        <time>2016-01-29T10:26:48.368Z</time>
      </trkpt>
      <trkpt lat="48.72387" lon="2.50397">
        <ele>95.632</ele>
        <time>2016-01-29T10:26:56.627Z</time>
      </trkpt>
      <trkpt lat="48.72377" lon="2.50399">
        <ele>95.525</ele>
        <time>2016-01-29T10:27:04.058Z</time>
      </trkpt>
      <trkpt lat="48.72367" lon="2.504">
        <ele>95.264</ele>
        <time>2016-01-29T10:27:11.061Z</time>
      </trkpt>
      <trkpt lat="48.72358" lon="2.50399">
        <ele>94.826</ele>
        <time>2016-01-29T10:27:18.972Z</time>
      </trkpt>
      <trkpt lat="48.72349" lon="2.50398">
        <ele>94.394</ele>
        <time>2016-01-29T10:27:27.852Z</time>
      </trkpt>
      <trkpt lat="48.72338" lon="2.50398">
        <ele>94.146</ele>
        <time>2016-01-29T10:27:41.274Z</time>
      </trkpt>
      <trkpt lat="48.72328" lon="2.504">
        <ele>94.073</ele>
        <time>2016-01-29T10:27:52.961Z</time>
      </trkpt>
      <trkpt lat="48.72318" lon="2.50401">
        <ele>94.08</ele>
        <time>2016-01-29T10:28:01.674Z</time>
      </trkpt>
      <trkpt lat="48.72309" lon="2.50401">
        <ele>94.09</ele>
        <time>2016-01-29T10:28:08.722Z</time>
      </trkpt>
      <trkpt lat="48.723" lon="2.504">
        <ele>94.125</ele>
        <time>2016-01-29T10:28:15.131Z</time>
      </trkpt>
      <trkpt lat="48.7229" lon="2.50402">
        <ele>94.316</ele>
        <time>2016-01-29T10:28:22.085Z</time>
      </trkpt>
      <trkpt lat="48.72281" lon="2.50406">
        <ele>94.745</ele>
        <time>2016-01-29T10:28:28.759Z</time>
      </trkpt>
      <trkpt lat="48.72271" lon="2.50409">
        <ele>95.274</ele>
        <time>2016-01-29T10:28:34.908Z</time>
      </trkpt>
      <trkpt lat="48.72262" lon="2.5041">
        <ele>95.685</ele>
        <time>2016-01-29T10:28:41.478Z</time>
      </trkpt>
      <trkpt lat="48.72253" lon="2.5041">
        <ele>95.967</ele>
        <time>2016-01-29T10:28:48.879Z</time>
      </trkpt>
      <trkpt lat="48.72244" lon="2.50407">
        <ele>96.213</ele>
        <time>2016-01-29T10:28:57.237Z</time>
      </trkpt>
      <trkpt lat="48.72234" lon="2.5041">
        <ele>96.392</ele>
        <time>2016-01-29T10:29:06.632Z</time>
      </trkpt>
      <trkpt lat="48.72225" lon="2.50411">
        <ele>96.455</ele>
        <time>2016-01-29T10:29:13.999Z</time>
      </trkpt>
      <trkpt lat="48.72225" lon="2.50411">
        <ele>96.441</ele>
        <time>2016-01-29T10:29:27.999Z</time>
      </trkpt>
      <trkpt lat="48.72225" lon="2.50411">
        <ele>96.392</ele>
        <time>2016-01-29T10:29:28.099Z</time>
      </trkpt>
      <trkpt lat="48.72219" lon="2.50421">
        <ele>96.349</ele>
        <time>2016-01-29T10:29:43.445Z</time>
      </trkpt>
      <trkpt lat="48.72219" lon="2.50436">
        <ele>96.479</ele>
        <time>2016-01-29T10:29:52.782Z</time>
      </trkpt>
      <trkpt lat="48.72217" lon="2.50449">
        <ele>97.064</ele>
        <time>2016-01-29T10:30:00.652Z</time>
      </trkpt>
      <trkpt lat="48.72217" lon="2.50463">
        <ele>98.005</ele>
        <time>2016-01-29T10:30:09.046Z</time>
      </trkpt>
      <trkpt lat="48.72217" lon="2.50476">
        <ele>98.979</ele>
        <time>2016-01-29T10:30:17.907Z</time>
      </trkpt>
      <trkpt lat="48.72216" lon="2.50491">
        <ele>99.904</ele>
        <time>2016-01-29T10:30:27.679Z</time>
      </trkpt>
      <trkpt lat="48.72215" lon="2.50506">
        <ele>100.696</ele>
        <time>2016-01-29T10:30:38.518Z</time>
      </trkpt>
      <trkpt lat="48.72215" lon="2.5052">
        <ele>101.304</ele>
        <time>2016-01-29T10:30:49.004Z</time>
      </trkpt>
      <trkpt lat="48.72214" lon="2.50535">
        <ele>101.823</ele>
        <time>2016-01-29T10:30:59.011Z</time>
      </trkpt>
      <trkpt lat="48.72213" lon="2.50549">
        <ele>102.154</ele>
        <time>2016-01-29T10:31:07.335Z</time>
      </trkpt>
      <trkpt lat="48.72214" lon="2.50563">
        <ele>102.009</ele>
        <time>2016-01-29T10:31:15.052Z</time>
      </trkpt>
      <trkpt lat="48.72214" lon="2.50578">
        <ele>101.396</ele>
        <time>2016-01-29T10:31:23.392Z</time>
      </trkpt>
      <trkpt lat="48.72214" lon="2.50593">
        <ele>100.728</ele>
        <time>2016-01-29T10:31:31.823Z</time>
      </trkpt>
      <trkpt lat="48.72214" lon="2.50607">
        <ele>100.345</ele>
        <time>2016-01-29T10:31:39.794Z</time>
      </trkpt>
      <trkpt lat="48.72213" lon="2.50621">
        <ele>100.221</ele>
        <time>2016-01-29T10:31:47.680Z</time>
      </trkpt>
      <trkpt lat="48.72212" lon="2.50636">
        <ele>100.264</ele>
        <time>2016-01-29T10:31:55.430Z</time>
      </trkpt>
      <trkpt lat="48.72213" lon="2.50651">
        <ele>100.517</ele>
        <time>2016-01-29T10:32:03.451Z</time>
      </trkpt>
      <trkpt lat="48.72215" lon="2.50665">
        <ele>101.054</ele>
        <time>2016-01-29T10:32:10.280Z</time>
      </trkpt>
      <trkpt lat="48.72216" lon="2.5068">
        <ele>101.682</ele>
        <time>2016-01-29T10:32:18.270Z</time>
      </trkpt>
      <trkpt lat="48.72217" lon="2.50694">
        <ele>102.11</ele>
        <time>2016-01-29T10:32:25.768Z</time>
      </trkpt>
      <trkpt lat="48.72216" lon="2.5071">
        <ele>102.298</ele>
        <time>2016-01-29T10:32:34.307Z</time>
      </trkpt>
      <trkpt lat="48.72216" lon="2.50724">
        <ele>102.397</ele>
        <time>2016-01-29T10:32:42.005Z</time>
      </trkpt>
      <trkpt lat="48.72214" lon="2.50738">
        <ele>102.619</ele>
        <time>2016-01-29T10:32:49.333Z</time>
      </trkpt>
      <trkpt lat="48.72214" lon="2.50753">
        <ele>103.053</ele>
        <time>2016-01-29T10:32:56.782Z</time>
      </trkpt>
      <trkpt lat="48.72213" lon="2.50768">
        <ele>103.617</ele>
        <time>2016-01-29T10:33:04.505Z</time>
      </trkpt>
      <trkpt lat="48.72213" lon="2.50782">
        <ele>104.228</ele>
        <time>2016-01-29T10:33:12.046Z</time>
      </trkpt>
      <trkpt lat="48.72214" lon="2.50797">
        <ele>104.895</ele>
        <time>2016-01-29T10:33:20.076Z</time>
      </trkpt>
      <trkpt lat="48.72215" lon="2.50812">
        <ele>105.538</ele>
        <time>2016-01-29T10:33:28.479Z</time>
      </trkpt>
      <trkpt lat="48.72215" lon="2.50827">
        <ele>106.032</ele>
        <time>2016-01-29T10:33:36.625Z</time>
      </trkpt>
      <trkpt lat="48.72215" lon="2.50841">
        <ele>106.37</ele>
        <time>2016-01-29T10:33:44.239Z</time>
      </trkpt>
      <trkpt lat="48.72216" lon="2.50855">
        <ele>106.643</ele>
        <time>2016-01-29T10:33:52.088Z</time>
      </trkpt>
      <trkpt lat="48.72216" lon="2.50869">
        <ele>106.89</ele>
        <time>2016-01-29T10:33:59.332Z</time>
      </trkpt>
      <trkpt lat="48.72216" lon="2.50884">
        <ele>107.166</ele>
        <time>2016-01-29T10:34:07.333Z</time>
      </trkpt>
      <trkpt lat="48.72219" lon="2.50897">
        <ele>107.474</ele>
        <time>2016-01-29T10:34:15.781Z</time>
      </trkpt>
      <trkpt lat="48.72227" lon="2.50905">
        <ele>107.787</ele>
        <time>2016-01-29T10:34:23.697Z</time>
      </trkpt>
      <trkpt lat="48.72235" lon="2.50913">
        <ele>108.141</ele>
        <time>2016-01-29T10:34:31.324Z</time>
      </trkpt>
      <trkpt lat="48.72243" lon="2.50922">
        <ele>108.556</ele>
        <time>2016-01-29T10:34:39.145Z</time>
      </trkpt>
      <trkpt lat="48.72252" lon="2.50926">
        <ele>108.995</ele>
        <time>2016-01-29T10:34:46.620Z</time>
      </trkpt>
      <trkpt lat="48.7226" lon="2.50934">
        <ele>109.539</ele>
        <time>2016-01-29T10:34:55.340Z</time>
      </trkpt>
      <trkpt lat="48.72268" lon="2.50941">
        <ele>110.165</ele>
        <time>2016-01-29T10:35:04.561Z</time>
      </trkpt>
      <trkpt lat="48.72274" lon="2.50953">
        <ele>110.684</ele>
        <time>2016-01-29T10:35:13.187Z</time>
      </trkpt>
      <trkpt lat="48.7228" lon="2.50963">
        <ele>111.011</ele>
        <time>2016-01-29T10:35:20.906Z</time>
      </trkpt>
      <trkpt lat="48.72286" lon="2.50973">
        <ele>111.27</ele>
        <time>2016-01-29T10:35:28.905Z</time>
      </trkpt>
      <trkpt lat="48.72282" lon="2.50985">
        <ele>111.578</ele>
        <time>2016-01-29T10:35:37.399Z</time>
      </trkpt>
      <trkpt lat="48.72275" lon="2.50995">
        <ele>111.879</ele>
        <time>2016-01-29T10:35:44.689Z</time>
      </trkpt>
      <trkpt lat="48.7227" lon="2.51008">
        <ele>111.997</ele>
        <time>2016-01-29T10:35:52.010Z</time>
      </trkpt>
      <trkpt lat="48.72264" lon="2.5102">
        <ele>111.915</ele>
        <time>2016-01-29T10:35:59.750Z</time>
      </trkpt>
      <trkpt lat="48.72259" lon="2.51032">
        <ele>111.658</ele>
        <time>2016-01-29T10:36:07.174Z</time>
      </trkpt>
      <trkpt lat="48.72255" lon="2.51045">
        <ele>111.265</ele>
        <time>2016-01-29T10:36:15.556Z</time>
      </trkpt>
      <trkpt lat="48.72248" lon="2.51056">
        <ele>110.847</ele>
        <time>2016-01-29T10:36:24.000Z</time>
      </trkpt>
      <trkpt lat="48.72248" lon="2.51056">
        <ele>110.526</ele>
        <time>2016-01-29T10:36:34.000Z</time>
      </trkpt>
      <trkpt lat="48.72248" lon="2.51056">
        <ele>110.353</ele>
        <time>2016-01-29T10:36:38.207Z</time>
      </trkpt>
      <trkpt lat="48.72255" lon="2.51072">
        <ele>110.323</ele>
        <time>2016-01-29T10:36:50.000Z</time>
      </trkpt>
      <trkpt lat="48.72255" lon="2.51072">
        <ele>110.327</ele>
        <time>2016-01-29T10:36:58.000Z</time>
      </trkpt>
      <trkpt lat="48.72255" lon="2.51072">
        <ele>110.286</ele>
        <time>2016-01-29T10:37:18.623Z</time>
      </trkpt>
      <trkpt lat="48.72263" lon="2.51086">
        <ele>110.227</ele>
        <time>2016-01-29T10:37:40.438Z</time>
      </trkpt>
      <trkpt lat="48.72271" lon="2.51095">
        <ele>110.194</ele>
        <time>2016-01-29T10:37:49.779Z</time>
      </trkpt>
      <trkpt lat="48.72281" lon="2.51098">
        <ele>110.219</ele>
        <time>2016-01-29T10:37:57.796Z</time>
      </trkpt>
      <trkpt lat="48.72288" lon="2.51108">
        <ele>110.311</ele>
        <time>2016-01-29T10:38:04.963Z</time>
      </trkpt>
      <trkpt lat="48.72296" lon="2.51117">
        <ele>110.435</ele>
        <time>2016-01-29T10:38:12.227Z</time>
      </trkpt>
      <trkpt lat="48.72304" lon="2.51126">
        <ele>110.561</ele>
        <time>2016-01-29T10:38:19.584Z</time>
      </trkpt>
      <trkpt lat="48.72311" lon="2.51135">
        <ele>110.691</ele>
        <time>2016-01-29T10:38:26.779Z</time>
      </trkpt>
      <trkpt lat="48.72318" lon="2.51144">
        <ele>110.799</ele>
        <time>2016-01-29T10:38:34.453Z</time>
      </trkpt>
      <trkpt lat="48.72325" lon="2.51153">
        <ele>110.846</ele>
        <time>2016-01-29T10:38:41.969Z</time>
      </trkpt>
      <trkpt lat="48.72333" lon="2.51164">
        <ele>110.832</ele>
        <time>2016-01-29T10:38:50.079Z</time>
      </trkpt>
      <trkpt lat="48.72339" lon="2.51175">
        <ele>110.86</ele>
        <time>2016-01-29T10:38:57.291Z</time>
      </trkpt>
      <trkpt lat="48.72345" lon="2.51186">
        <ele>111.017</ele>
        <time>2016-01-29T10:39:04.331Z</time>
      </trkpt>
      <trkpt lat="48.72345" lon="2.51201">
        <ele>111.245</ele>
        <time>2016-01-29T10:39:11.181Z</time>
      </trkpt>
      <trkpt lat="48.72346" lon="2.51216">
        <ele>111.438</ele>
        <time>2016-01-29T10:39:18.164Z</time>
      </trkpt>
      <trkpt lat="48.72355" lon="2.51222">
        <ele>111.544</ele>
        <time>2016-01-29T10:39:25.564Z</time>
      </trkpt>
      <trkpt lat="48.72362" lon="2.51231">
        <ele>111.515</ele>
        <time>2016-01-29T10:39:33.000Z</time>
      </trkpt>
      <trkpt lat="48.72362" lon="2.51231">
        <ele>111.365</ele>
        <time>2016-01-29T10:39:34.000Z</time>
      </trkpt>
      <trkpt lat="48.72362" lon="2.51231">
        <ele>111.22</ele>
        <time>2016-01-29T10:47:54.768Z</time>
      </trkpt>
      <trkpt lat="48.72374" lon="2.51243">
        <ele>111.197</ele>
        <time>2016-01-29T10:48:49.495Z</time>
      </trkpt>
      <trkpt lat="48.72382" lon="2.51251">
        <ele>111.345</ele>
        <time>2016-01-29T10:48:58.726Z</time>
      </trkpt>
      <trkpt lat="48.72389" lon="2.51262">
        <ele>111.644</ele>
        <time>2016-01-29T10:49:10.105Z</time>
      </trkpt>
      <trkpt lat="48.72393" lon="2.51274">
        <ele>111.947</ele>
        <time>2016-01-29T10:49:20.830Z</time>
      </trkpt>
      <trkpt lat="48.72401" lon="2.51283">
        <ele>112.114</ele>
        <time>2016-01-29T10:49:29.128Z</time>
      </trkpt>
      <trkpt lat="48.7241" lon="2.5129">
        <ele>112.18</ele>
        <time>2016-01-29T10:49:36.657Z</time>
      </trkpt>
      <trkpt lat="48.72418" lon="2.51298">
        <ele>112.232</ele>
        <time>2016-01-29T10:49:43.651Z</time>
      </trkpt>
      <trkpt lat="48.72427" lon="2.51306">
        <ele>112.259</ele>
        <time>2016-01-29T10:49:51.112Z</time>
      </trkpt>
      <trkpt lat="48.72435" lon="2.51313">
        <ele>112.224</ele>
        <time>2016-01-29T10:49:58.966Z</time>
      </trkpt>
      <trkpt lat="48.72441" lon="2.51323">
        <ele>112.118</ele>
        <time>2016-01-29T10:50:07.124Z</time>
      </trkpt>
      <trkpt lat="48.72448" lon="2.51334">
        <ele>111.96</ele>
        <time>2016-01-29T10:50:15.191Z</time>
      </trkpt>
      <trkpt lat="48.72454" lon="2.51345">
        <ele>111.84</ele>
        <time>2016-01-29T10:50:23.475Z</time>
      </trkpt>
      <trkpt lat="48.72463" lon="2.51354">
        <ele>111.833</ele>
        <time>2016-01-29T10:50:32.026Z</time>
      </trkpt>
      <trkpt lat="48.72472" lon="2.51362">
        <ele>111.896</ele>
        <time>2016-01-29T10:50:39.794Z</time>
      </trkpt>
      <trkpt lat="48.72479" lon="2.51371">
        <ele>111.94</ele>
        <time>2016-01-29T10:50:47.116Z</time>
      </trkpt>
      <trkpt lat="48.72486" lon="2.5138">
        <ele>111.895</ele>
        <time>2016-01-29T10:50:54.669Z</time>
      </trkpt>
      <trkpt lat="48.72493" lon="2.5139">
        <ele>111.781</ele>
        <time>2016-01-29T10:51:02.424Z</time>
      </trkpt>
      <trkpt lat="48.725" lon="2.51398">
        <ele>111.715</ele>
        <time>2016-01-29T10:51:10.259Z</time>
      </trkpt>
      <trkpt lat="48.72507" lon="2.51408">
        <ele>111.761</ele>
        <time>2016-01-29T10:51:17.905Z</time>
      </trkpt>
      <trkpt lat="48.72513" lon="2.51418">
        <ele>111.888</ele>
        <time>2016-01-29T10:51:25.442Z</time>
      </trkpt>
      <trkpt lat="48.7252" lon="2.51428">
        <ele>112.039</ele>
        <time>2016-01-29T10:51:34.076Z</time>
      </trkpt>
      <trkpt lat="48.72528" lon="2.51439">
        <ele>112.142</ele>
        <time>2016-01-29T10:51:43.121Z</time>
      </trkpt>
      <trkpt lat="48.72534" lon="2.5145">
        <ele>112.154</ele>
        <time>2016-01-29T10:51:51.384Z</time>
      </trkpt>
      <trkpt lat="48.72542" lon="2.51458">
        <ele>112.125</ele>
        <time>2016-01-29T10:51:58.752Z</time>
      </trkpt>
      <trkpt lat="48.7255" lon="2.51467">
        <ele>112.109</ele>
        <time>2016-01-29T10:52:06.010Z</time>
      </trkpt>
      <trkpt lat="48.72557" lon="2.51476">
        <ele>112.114</ele>
        <time>2016-01-29T10:52:12.658Z</time>
      </trkpt>
      <trkpt lat="48.72564" lon="2.51485">
        <ele>112.067</ele>
        <time>2016-01-29T10:52:20.020Z</time>
      </trkpt>
      <trkpt lat="48.72572" lon="2.51493">
        <ele>111.916</ele>
        <time>2016-01-29T10:52:27.610Z</time>
      </trkpt>
      <trkpt lat="48.72579" lon="2.51502">
        <ele>111.737</ele>
        <time>2016-01-29T10:52:35.761Z</time>
      </trkpt>
      <trkpt lat="48.72585" lon="2.51514">
        <ele>111.595</ele>
        <time>2016-01-29T10:52:44.703Z</time>
      </trkpt>
      <trkpt lat="48.72591" lon="2.51524">
        <ele>111.484</ele>
        <time>2016-01-29T10:52:52.277Z</time>
      </trkpt>
      <trkpt lat="48.72599" lon="2.51531">
        <ele>111.395</ele>
        <time>2016-01-29T10:52:58.999Z</time>
      </trkpt>
      <trkpt lat="48.72599" lon="2.51531">
        <ele>111.313</ele>
        <time>2016-01-29T10:53:11.999Z</time>
      </trkpt>
      <trkpt lat="48.72599" lon="2.51531">
        <ele>111.246</ele>
        <time>2016-01-29T10:54:06.376Z</time>
      </trkpt>
      <trkpt lat="48.72605" lon="2.51564">
        <ele>111.215</ele>
        <time>2016-01-29T10:54:35.480Z</time>
      </trkpt>
      <trkpt lat="48.72609" lon="2.51576">
        <ele>111.23</ele>
        <time>2016-01-29T10:54:43.570Z</time>
      </trkpt>
      <trkpt lat="48.72608" lon="2.5159">
        <ele>111.273</ele>
        <time>2016-01-29T10:54:51.455Z</time>
      </trkpt>
      <trkpt lat="48.72599" lon="2.516">
        <ele>111.257</ele>
        <time>2016-01-29T10:54:59.549Z</time>
      </trkpt>
      <trkpt lat="48.72591" lon="2.51605">
        <ele>111.117</ele>
        <time>2016-01-29T10:55:06.737Z</time>
      </trkpt>
      <trkpt lat="48.72581" lon="2.51608">
        <ele>110.865</ele>
        <time>2016-01-29T10:55:14.582Z</time>
      </trkpt>
      <trkpt lat="48.72571" lon="2.5161">
        <ele>110.515</ele>
        <time>2016-01-29T10:55:22.869Z</time>
      </trkpt>
      <trkpt lat="48.72562" lon="2.51611">
        <ele>110.06</ele>
        <time>2016-01-29T10:55:31.811Z</time>
      </trkpt>
      <trkpt lat="48.72553" lon="2.51614">
        <ele>109.513</ele>
        <time>2016-01-29T10:55:40.316Z</time>
      </trkpt>
      <trkpt lat="48.72543" lon="2.51617">
        <ele>108.902</ele>
        <time>2016-01-29T10:55:49.811Z</time>
      </trkpt>
      <trkpt lat="48.72533" lon="2.51618">
        <ele>108.276</ele>
        <time>2016-01-29T10:55:58.347Z</time>
      </trkpt>
      <trkpt lat="48.72524" lon="2.51621">
        <ele>107.749</ele>
        <time>2016-01-29T10:56:05.322Z</time>
      </trkpt>
      <trkpt lat="48.72515" lon="2.51622">
        <ele>107.431</ele>
        <time>2016-01-29T10:56:12.086Z</time>
      </trkpt>
      <trkpt lat="48.72505" lon="2.51624">
        <ele>107.309</ele>
        <time>2016-01-29T10:56:20.716Z</time>
      </trkpt>
      <trkpt lat="48.72496" lon="2.51625">
        <ele>107.279</ele>
        <time>2016-01-29T10:56:30.198Z</time>
      </trkpt>
      <trkpt lat="48.72487" lon="2.51628">
        <ele>107.264</ele>
        <time>2016-01-29T10:56:37.877Z</time>
      </trkpt>
      <trkpt lat="48.72477" lon="2.51629">
        <ele>107.213</ele>
        <time>2016-01-29T10:56:46.089Z</time>
      </trkpt>
      <trkpt lat="48.72468" lon="2.51631">
        <ele>107.022</ele>
        <time>2016-01-29T10:56:55.408Z</time>
      </trkpt>
      <trkpt lat="48.72458" lon="2.5163">
        <ele>106.632</ele>
        <time>2016-01-29T10:57:04.502Z</time>
      </trkpt>
      <trkpt lat="48.72448" lon="2.51633">
        <ele>106.198</ele>
        <time>2016-01-29T10:57:12.501Z</time>
      </trkpt>
      <trkpt lat="48.72439" lon="2.51634">
        <ele>105.828</ele>
        <time>2016-01-29T10:57:19.765Z</time>
      </trkpt>
      <trkpt lat="48.72429" lon="2.51636">
        <ele>105.431</ele>
        <time>2016-01-29T10:57:26.818Z</time>
      </trkpt>
      <trkpt lat="48.72419" lon="2.51639">
        <ele>104.952</ele>
        <time>2016-01-29T10:57:34.066Z</time>
      </trkpt>
      <trkpt lat="48.7241" lon="2.51644">
        <ele>104.382</ele>
        <time>2016-01-29T10:57:41.597Z</time>
      </trkpt>
      <trkpt lat="48.724" lon="2.51646">
        <ele>103.682</ele>
        <time>2016-01-29T10:57:50.056Z</time>
      </trkpt>
      <trkpt lat="48.7239" lon="2.51646">
        <ele>102.929</ele>
        <time>2016-01-29T10:57:59.213Z</time>
      </trkpt>
      <trkpt lat="48.7238" lon="2.51651">
        <ele>102.243</ele>
        <time>2016-01-29T10:58:07.954Z</time>
      </trkpt>
      <trkpt lat="48.7237" lon="2.51651">
        <ele>101.595</ele>
        <time>2016-01-29T10:58:16.027Z</time>
      </trkpt>
      <trkpt lat="48.72361" lon="2.51652">
        <ele>100.924</ele>
        <time>2016-01-29T10:58:23.642Z</time>
      </trkpt>
      <trkpt lat="48.72352" lon="2.51653">
        <ele>100.249</ele>
        <time>2016-01-29T10:58:31.155Z</time>
      </trkpt>
      <trkpt lat="48.72342" lon="2.51654">
        <ele>99.582</ele>
        <time>2016-01-29T10:58:39.529Z</time>
      </trkpt>
      <trkpt lat="48.72333" lon="2.51655">
        <ele>98.948</ele>
        <time>2016-01-29T10:58:47.372Z</time>
      </trkpt>
      <trkpt lat="48.72324" lon="2.51657">
        <ele>98.351</ele>
        <time>2016-01-29T10:58:54.824Z</time>
      </trkpt>
      <trkpt lat="48.72315" lon="2.51658">
        <ele>97.765</ele>
        <time>2016-01-29T10:59:02.454Z</time>
      </trkpt>
      <trkpt lat="48.72305" lon="2.51658">
        <ele>97.256</ele>
        <time>2016-01-29T10:59:11.225Z</time>
      </trkpt>
      <trkpt lat="48.72295" lon="2.51659">
        <ele>96.86</ele>
        <time>2016-01-29T10:59:18.850Z</time>
      </trkpt>
      <trkpt lat="48.72286" lon="2.51663">
        <ele>96.519</ele>
        <time>2016-01-29T10:59:26.495Z</time>
      </trkpt>
      <trkpt lat="48.72277" lon="2.51669">
        <ele>96.216</ele>
        <time>2016-01-29T10:59:34.899Z</time>
      </trkpt>
      <trkpt lat="48.72268" lon="2.51674">
        <ele>95.982</ele>
        <time>2016-01-29T10:59:43.474Z</time>
      </trkpt>
      <trkpt lat="48.72258" lon="2.5167">
        <ele>95.779</ele>
        <time>2016-01-29T10:59:53.056Z</time>
      </trkpt>
      <trkpt lat="48.72249" lon="2.51671">
        <ele>95.541</ele>
        <time>2016-01-29T11:00:01.240Z</time>
      </trkpt>
      <trkpt lat="48.7224" lon="2.51672">
        <ele>95.282</ele>
        <time>2016-01-29T11:00:09.315Z</time>
      </trkpt>
      <trkpt lat="48.7223" lon="2.51673">
        <ele>95.034</ele>
        <time>2016-01-29T11:00:16.892Z</time>
      </trkpt>
      <trkpt lat="48.72222" lon="2.51679">
        <ele>94.63</ele>
        <time>2016-01-29T11:00:24.368Z</time>
      </trkpt>
      <trkpt lat="48.72213" lon="2.51674">
        <ele>94.039</ele>
        <time>2016-01-29T11:00:33.404Z</time>
      </trkpt>
      <trkpt lat="48.72204" lon="2.51673">
        <ele>93.555</ele>
        <time>2016-01-29T11:00:42.618Z</time>
      </trkpt>
      <trkpt lat="48.72193" lon="2.51673">
        <ele>93.291</ele>
        <time>2016-01-29T11:00:51.146Z</time>
      </trkpt>
      <trkpt lat="48.72183" lon="2.51676">
        <ele>93.073</ele>
        <time>2016-01-29T11:00:58.648Z</time>
      </trkpt>
      <trkpt lat="48.72174" lon="2.51679">
        <ele>92.748</ele>
        <time>2016-01-29T11:01:05.517Z</time>
      </trkpt>
      <trkpt lat="48.72164" lon="2.51678">
        <ele>92.286</ele>
        <time>2016-01-29T11:01:12.719Z</time>
      </trkpt>
      <trkpt lat="48.72154" lon="2.51681">
        <ele>91.772</ele>
        <time>2016-01-29T11:01:19.696Z</time>
      </trkpt>
      <trkpt lat="48.72145" lon="2.51681">
        <ele>91.282</ele>
        <time>2016-01-29T11:01:27.075Z</time>
      </trkpt>
      <trkpt lat="48.72135" lon="2.51682">
        <ele>90.812</ele>
        <time>2016-01-29T11:01:36.190Z</time>
      </trkpt>
      <trkpt lat="48.72125" lon="2.51681">
        <ele>90.374</ele>
        <time>2016-01-29T11:01:45.234Z</time>
      </trkpt>
      <trkpt lat="48.72116" lon="2.51686">
        <ele>89.991</ele>
        <time>2016-01-29T11:01:52.400Z</time>
      </trkpt>
      <trkpt lat="48.72107" lon="2.51689">
        <ele>89.629</ele>
        <time>2016-01-29T11:01:58.503Z</time>
      </trkpt>
      <trkpt lat="48.72098" lon="2.51691">
        <ele>89.227</ele>
        <time>2016-01-29T11:02:04.946Z</time>
      </trkpt>
      <trkpt lat="48.72089" lon="2.51692">
        <ele>88.847</ele>
        <time>2016-01-29T11:02:12.085Z</time>
      </trkpt>
      <trkpt lat="48.72079" lon="2.51693">
        <ele>88.645</ele>
        <time>2016-01-29T11:02:20.216Z</time>
      </trkpt>
      <trkpt lat="48.72069" lon="2.51695">
        <ele>88.838</ele>
        <time>2016-01-29T11:02:28.660Z</time>
      </trkpt>
      <trkpt lat="48.7206" lon="2.51696">
        <ele>89.454</ele>
        <time>2016-01-29T11:02:37.098Z</time>
      </trkpt>
      <trkpt lat="48.72051" lon="2.51694">
        <ele>90.174</ele>
        <time>2016-01-29T11:02:45.809Z</time>
      </trkpt>
      <trkpt lat="48.72042" lon="2.51694">
        <ele>90.696</ele>
        <time>2016-01-29T11:02:55.199Z</time>
      </trkpt>
      <trkpt lat="48.72032" lon="2.51695">
        <ele>90.967</ele>
        <time>2016-01-29T11:03:03.843Z</time>
      </trkpt>
      <trkpt lat="48.72022" lon="2.51698">
        <ele>91.031</ele>
        <time>2016-01-29T11:03:12.732Z</time>
      </trkpt>
      <trkpt lat="48.72012" lon="2.51701">
        <ele>90.965</ele>
        <time>2016-01-29T11:03:20.949Z</time>
      </trkpt>
      <trkpt lat="48.72003" lon="2.51702">
        <ele>90.781</ele>
        <time>2016-01-29T11:03:27.764Z</time>
      </trkpt>
      <trkpt lat="48.71994" lon="2.51705">
        <ele>90.508</ele>
        <time>2016-01-29T11:03:35.288Z</time>
      </trkpt>
      <trkpt lat="48.71984" lon="2.51705">
        <ele>90.218</ele>
        <time>2016-01-29T11:03:43.121Z</time>
      </trkpt>
      <trkpt lat="48.71975" lon="2.51707">
        <ele>89.887</ele>
        <time>2016-01-29T11:03:51.765Z</time>
      </trkpt>
      <trkpt lat="48.71965" lon="2.5171">
        <ele>89.425</ele>
        <time>2016-01-29T11:04:00.561Z</time>
      </trkpt>
      <trkpt lat="48.71955" lon="2.51711">
        <ele>88.815</ele>
        <time>2016-01-29T11:04:08.827Z</time>
      </trkpt>
      <trkpt lat="48.71946" lon="2.51715">
        <ele>88.072</ele>
        <time>2016-01-29T11:04:16.528Z</time>
      </trkpt>
      <trkpt lat="48.71936" lon="2.51716">
        <ele>87.256</ele>
        <time>2016-01-29T11:04:25.129Z</time>
      </trkpt>
      <trkpt lat="48.71926" lon="2.51717">
        <ele>86.579</ele>
        <time>2016-01-29T11:04:34.038Z</time>
      </trkpt>
      <trkpt lat="48.71916" lon="2.51718">
        <ele>86.204</ele>
        <time>2016-01-29T11:04:42.318Z</time>
      </trkpt>
      <trkpt lat="48.71906" lon="2.5172">
        <ele>86.006</ele>
        <time>2016-01-29T11:04:49.386Z</time>
      </trkpt>
      <trkpt lat="48.71897" lon="2.51721">
        <ele>85.819</ele>
        <time>2016-01-29T11:04:55.331Z</time>
      </trkpt>
      <trkpt lat="48.71887" lon="2.51721">
        <ele>85.65</ele>
        <time>2016-01-29T11:05:02.105Z</time>
      </trkpt>
      <trkpt lat="48.71878" lon="2.51724">
        <ele>85.517</ele>
        <time>2016-01-29T11:05:10.092Z</time>
      </trkpt>
      <trkpt lat="48.71868" lon="2.51726">
        <ele>85.38</ele>
        <time>2016-01-29T11:05:19.000Z</time>
      </trkpt>
      <trkpt lat="48.71868" lon="2.51726">
        <ele>85.256</ele>
        <time>2016-01-29T11:05:32.000Z</time>
      </trkpt>
      <trkpt lat="48.71868" lon="2.51726">
        <ele>85.185</ele>
        <time>2016-01-29T11:05:39.406Z</time>
      </trkpt>
      <trkpt lat="48.71851" lon="2.51724">
        <ele>85.163</ele>
        <time>2016-01-29T11:06:06.415Z</time>
      </trkpt>
      <trkpt lat="48.71842" lon="2.51729">
        <ele>85.07</ele>
        <time>2016-01-29T11:06:15.979Z</time>
      </trkpt>
      <trkpt lat="48.71833" lon="2.51732">
        <ele>84.83</ele>
        <time>2016-01-29T11:06:23.772Z</time>
      </trkpt>
      <trkpt lat="48.71823" lon="2.51732">
        <ele>84.556</ele>
        <time>2016-01-29T11:06:31.425Z</time>
      </trkpt>
      <trkpt lat="48.71813" lon="2.51733">
        <ele>84.3</ele>
        <time>2016-01-29T11:06:38.992Z</time>
      </trkpt>
      <trkpt lat="48.71803" lon="2.51734">
        <ele>83.979</ele>
        <time>2016-01-29T11:06:46.087Z</time>
      </trkpt>
      <trkpt lat="48.71794" lon="2.51737">
        <ele>83.596</ele>
        <time>2016-01-29T11:06:53.496Z</time>
      </trkpt>
      <trkpt lat="48.71784" lon="2.51738">
        <ele>83.222</ele>
        <time>2016-01-29T11:07:01.176Z</time>
      </trkpt>
      <trkpt lat="48.71775" lon="2.51739">
        <ele>82.928</ele>
        <time>2016-01-29T11:07:08.806Z</time>
      </trkpt>
      <trkpt lat="48.71766" lon="2.51743">
        <ele>82.808</ele>
        <time>2016-01-29T11:07:17.277Z</time>
      </trkpt>
      <trkpt lat="48.71756" lon="2.51746">
        <ele>82.859</ele>
        <time>2016-01-29T11:07:26.582Z</time>
      </trkpt>
      <trkpt lat="48.71746" lon="2.51745">
        <ele>82.92</ele>
        <time>2016-01-29T11:07:35.905Z</time>
      </trkpt>
      <trkpt lat="48.71736" lon="2.51745">
        <ele>82.798</ele>
        <time>2016-01-29T11:07:45.331Z</time>
      </trkpt>
      <trkpt lat="48.71726" lon="2.51745">
        <ele>82.488</ele>
        <time>2016-01-29T11:07:53.031Z</time>
      </trkpt>
      <trkpt lat="48.71717" lon="2.51747">
        <ele>82.131</ele>
        <time>2016-01-29T11:08:00.760Z</time>
      </trkpt>
      <trkpt lat="48.71708" lon="2.51755">
        <ele>81.766</ele>
        <time>2016-01-29T11:08:09.378Z</time>
      </trkpt>
      <trkpt lat="48.71703" lon="2.51766">
        <ele>81.367</ele>
        <time>2016-01-29T11:08:17.540Z</time>
      </trkpt>
      <trkpt lat="48.71701" lon="2.5178">
        <ele>81.015</ele>
        <time>2016-01-29T11:08:25.299Z</time>
      </trkpt>
      <trkpt lat="48.71704" lon="2.51793">
        <ele>80.787</ele>
        <time>2016-01-29T11:08:33.276Z</time>
      </trkpt>
      <trkpt lat="48.71709" lon="2.51805">
        <ele>80.666</ele>
        <time>2016-01-29T11:08:40.728Z</time>
      </trkpt>
      <trkpt lat="48.71712" lon="2.51818">
        <ele>80.632</ele>
        <time>2016-01-29T11:08:48.036Z</time>
      </trkpt>
      <trkpt lat="48.71714" lon="2.51833">
        <ele>80.686</ele>
        <time>2016-01-29T11:08:55.768Z</time>
      </trkpt>
      <trkpt lat="48.71718" lon="2.51846">
        <ele>80.811</ele>
        <time>2016-01-29T11:09:03.172Z</time>
      </trkpt>
      <trkpt lat="48.71724" lon="2.51858">
        <ele>80.956</ele>
        <time>2016-01-29T11:09:11.267Z</time>
      </trkpt>
      <trkpt lat="48.71729" lon="2.5187">
        <ele>81.052</ele>
        <time>2016-01-29T11:09:19.117Z</time>
      </trkpt>
      <trkpt lat="48.71734" lon="2.51883">
        <ele>81.149</ele>
        <time>2016-01-29T11:09:27.513Z</time>
      </trkpt>
      <trkpt lat="48.71737" lon="2.51895">
        <ele>81.581</ele>
        <time>2016-01-29T11:09:35.360Z</time>
      </trkpt>
      <trkpt lat="48.71742" lon="2.51909">
        <ele>82.522</ele>
        <time>2016-01-29T11:09:43.568Z</time>
      </trkpt>
      <trkpt lat="48.71744" lon="2.51923">
        <ele>83.686</ele>
        <time>2016-01-29T11:09:51.678Z</time>
      </trkpt>
      <trkpt lat="48.71746" lon="2.51938">
        <ele>84.784</ele>
        <time>2016-01-29T11:10:00.143Z</time>
      </trkpt>
      <trkpt lat="48.71746" lon="2.51954">
        <ele>85.741</ele>
        <time>2016-01-29T11:10:08.581Z</time>
      </trkpt>
      <trkpt lat="48.71748" lon="2.51967">
        <ele>86.538</ele>
        <time>2016-01-29T11:10:16.179Z</time>
      </trkpt>
      <trkpt lat="48.71749" lon="2.51981">
        <ele>87.156</ele>
        <time>2016-01-29T11:10:23.545Z</time>
      </trkpt>
      <trkpt lat="48.71752" lon="2.51994">
        <ele>87.462</ele>
        <time>2016-01-29T11:10:30.937Z</time>
      </trkpt>
      <trkpt lat="48.71756" lon="2.52007">
        <ele>87.435</ele>
        <time>2016-01-29T11:10:38.135Z</time>
      </trkpt>
      <trkpt lat="48.71757" lon="2.52021">
        <ele>87.283</ele>
        <time>2016-01-29T11:10:44.997Z</time>
      </trkpt>
      <trkpt lat="48.71762" lon="2.52035">
        <ele>87.197</ele>
        <time>2016-01-29T11:10:53.000Z</time>
      </trkpt>
      <trkpt lat="48.71762" lon="2.52035">
        <ele>87.213</ele>
        <time>2016-01-29T11:10:56.000Z</time>
      </trkpt>
      <trkpt lat="48.71762" lon="2.52035">
        <ele>87.24</ele>
        <time>2016-01-29T11:10:56.100Z</time>
      </trkpt>
      <trkpt lat="48.71763" lon="2.5205">
        <ele>87.147</ele>
        <time>2016-01-29T11:11:10.609Z</time>
      </trkpt>
      <trkpt lat="48.71762" lon="2.52064">
        <ele>87.111</ele>
        <time>2016-01-29T11:11:19.397Z</time>
      </trkpt>
      <trkpt lat="48.71756" lon="2.52075">
        <ele>87.045</ele>
        <time>2016-01-29T11:11:28.545Z</time>
      </trkpt>
      <trkpt lat="48.71749" lon="2.52085">
        <ele>86.79</ele>
        <time>2016-01-29T11:11:36.600Z</time>
      </trkpt>
      <trkpt lat="48.7174" lon="2.52092">
        <ele>86.328</ele>
        <time>2016-01-29T11:11:43.204Z</time>
      </trkpt>
      <trkpt lat="48.71731" lon="2.52098">
        <ele>85.831</ele>
        <time>2016-01-29T11:11:49.352Z</time>
      </trkpt>
      <trkpt lat="48.71722" lon="2.52101">
        <ele>85.403</ele>
        <time>2016-01-29T11:11:55.508Z</time>
      </trkpt>
      <trkpt lat="48.71713" lon="2.52103">
        <ele>85.033</ele>
        <time>2016-01-29T11:12:01.633Z</time>
      </trkpt>
      <trkpt lat="48.71703" lon="2.52102">
        <ele>84.691</ele>
        <time>2016-01-29T11:12:08.335Z</time>
      </trkpt>
      <trkpt lat="48.71693" lon="2.52102">
        <ele>84.318</ele>
        <time>2016-01-29T11:12:15.248Z</time>
      </trkpt>
      <trkpt lat="48.71684" lon="2.52105">
        <ele>83.904</ele>
        <time>2016-01-29T11:12:22.161Z</time>
      </trkpt>
      <trkpt lat="48.71674" lon="2.52104">
        <ele>83.444</ele>
        <time>2016-01-29T11:12:29.222Z</time>
      </trkpt>
      <trkpt lat="48.71666" lon="2.52112">
        <ele>82.89</ele>
        <time>2016-01-29T11:12:37.000Z</time>
      </trkpt>
      <trkpt lat="48.71666" lon="2.52112">
        <ele>82.344</ele>
        <time>2016-01-29T11:12:39.000Z</time>
      </trkpt>
      <trkpt lat="48.71666" lon="2.52112">
        <ele>82.043</ele>
        <time>2016-01-29T11:12:55.539Z</time>
      </trkpt>
      <trkpt lat="48.71657" lon="2.52118">
        <ele>82.034</ele>
        <time>2016-01-29T11:13:11.094Z</time>
      </trkpt>
      <trkpt lat="48.71647" lon="2.52119">
        <ele>81.902</ele>
        <time>2016-01-29T11:13:22.010Z</time>
      </trkpt>
      <trkpt lat="48.71638" lon="2.5212">
        <ele>81.266</ele>
        <time>2016-01-29T11:13:32.356Z</time>
      </trkpt>
      <trkpt lat="48.71629" lon="2.52123">
        <ele>80.416</ele>
        <time>2016-01-29T11:13:41.582Z</time>
      </trkpt>
      <trkpt lat="48.7162" lon="2.52125">
        <ele>79.748</ele>
        <time>2016-01-29T11:13:49.785Z</time>
      </trkpt>
      <trkpt lat="48.7161" lon="2.52128">
        <ele>79.142</ele>
        <time>2016-01-29T11:13:58.723Z</time>
      </trkpt>
      <trkpt lat="48.71601" lon="2.52133">
        <ele>78.507</ele>
        <time>2016-01-29T11:14:07.602Z</time>
      </trkpt>
      <trkpt lat="48.71592" lon="2.52137">
        <ele>77.94</ele>
        <time>2016-01-29T11:14:15.916Z</time>
      </trkpt>
      <trkpt lat="48.71582" lon="2.5214">
        <ele>77.405</ele>
        <time>2016-01-29T11:14:24.736Z</time>
      </trkpt>
      <trkpt lat="48.71573" lon="2.52142">
        <ele>76.838</ele>
        <time>2016-01-29T11:14:33.392Z</time>
      </trkpt>
      <trkpt lat="48.71564" lon="2.52141">
        <ele>76.018</ele>
        <time>2016-01-29T11:14:43.876Z</time>
      </trkpt>
      <trkpt lat="48.71554" lon="2.52139">
        <ele>74.653</ele>
        <time>2016-01-29T11:14:55.440Z</time>
      </trkpt>
      <trkpt lat="48.71545" lon="2.52141">
        <ele>73.012</ele>
        <time>2016-01-29T11:15:04.539Z</time>
      </trkpt>
      <trkpt lat="48.71535" lon="2.52142">
        <ele>71.433</ele>
        <time>2016-01-29T11:15:13.000Z</time>
      </trkpt>
      <trkpt lat="48.71535" lon="2.52142">
        <ele>70.011</ele>
        <time>2016-01-29T11:15:15.000Z</time>
      </trkpt>
      <trkpt lat="48.71535" lon="2.52142">
        <ele>69.193</ele>
        <time>2016-01-29T11:15:16.961Z</time>
      </trkpt>
      <trkpt lat="48.71526" lon="2.52145">
        <ele>69.608</ele>
        <time>2016-01-29T11:15:34.434Z</time>
      </trkpt>
      <trkpt lat="48.71517" lon="2.52142">
        <ele>69.353</ele>
        <time>2016-01-29T11:15:44.701Z</time>
      </trkpt>
      <trkpt lat="48.71508" lon="2.52138">
        <ele>67.775</ele>
        <time>2016-01-29T11:15:54.492Z</time>
      </trkpt>
      <trkpt lat="48.71499" lon="2.52133">
        <ele>65.304</ele>
        <time>2016-01-29T11:16:04.542Z</time>
      </trkpt>
      <trkpt lat="48.71489" lon="2.52133">
        <ele>62.869</ele>
        <time>2016-01-29T11:16:14.488Z</time>
      </trkpt>
      <trkpt lat="48.7148" lon="2.52136">
        <ele>60.927</ele>
        <time>2016-01-29T11:16:24.670Z</time>
      </trkpt>
      <trkpt lat="48.7147" lon="2.52135">
        <ele>59.469</ele>
        <time>2016-01-29T11:16:34.329Z</time>
      </trkpt>
      <trkpt lat="48.7146" lon="2.52136">
        <ele>58.226</ele>
        <time>2016-01-29T11:16:41.952Z</time>
      </trkpt>
      <trkpt lat="48.71451" lon="2.52137">
        <ele>57.113</ele>
        <time>2016-01-29T11:16:49.164Z</time>
      </trkpt>
      <trkpt lat="48.71442" lon="2.52143">
        <ele>56.182</ele>
        <time>2016-01-29T11:16:56.942Z</time>
      </trkpt>
      <trkpt lat="48.71435" lon="2.52151">
        <ele>55.386</ele>
        <time>2016-01-29T11:17:05.258Z</time>
      </trkpt>
      <trkpt lat="48.7143" lon="2.52165">
        <ele>54.68</ele>
        <time>2016-01-29T11:17:16.000Z</time>
      </trkpt>
      <trkpt lat="48.7143" lon="2.52165">
        <ele>54.167</ele>
        <time>2016-01-29T11:17:20.000Z</time>
      </trkpt>
      <trkpt lat="48.7143" lon="2.52165">
        <ele>53.942</ele>
        <time>2016-01-29T11:18:52.141Z</time>
      </trkpt>
      <trkpt lat="48.71428" lon="2.52179">
        <ele>53.949</ele>
        <time>2016-01-29T11:19:06.258Z</time>
      </trkpt>
      <trkpt lat="48.71422" lon="2.52191">
        <ele>53.47</ele>
        <time>2016-01-29T11:19:15.523Z</time>
      </trkpt>
      <trkpt lat="48.71416" lon="2.52202">
        <ele>52.03</ele>
        <time>2016-01-29T11:19:24.000Z</time>
      </trkpt>
      <trkpt lat="48.71416" lon="2.52202">
        <ele>50.457</ele>
        <time>2016-01-29T11:19:32.000Z</time>
      </trkpt>
      <trkpt lat="48.71416" lon="2.52202">
        <ele>49.735</ele>
        <time>2016-01-29T11:19:42.590Z</time>
      </trkpt>
      <trkpt lat="48.71406" lon="2.52222">
        <ele>49.798</ele>
        <time>2016-01-29T11:20:01.000Z</time>
      </trkpt>
      <trkpt lat="48.71406" lon="2.52222">
        <ele>50.045</ele>
        <time>2016-01-29T11:20:04.000Z</time>
      </trkpt>
      <trkpt lat="48.71406" lon="2.52222">
        <ele>50.044</ele>
        <time>2016-01-29T11:20:05.514Z</time>
      </trkpt>
      <trkpt lat="48.71401" lon="2.52235">
        <ele>49.884</ele>
        <time>2016-01-29T11:20:20.482Z</time>
      </trkpt>
      <trkpt lat="48.71395" lon="2.52247">
        <ele>49.89</ele>
        <time>2016-01-29T11:20:30.001Z</time>
      </trkpt>
      <trkpt lat="48.71391" lon="2.52259">
        <ele>49.831</ele>
        <time>2016-01-29T11:20:38.962Z</time>
      </trkpt>
      <trkpt lat="48.71388" lon="2.52273">
        <ele>49.781</ele>
        <time>2016-01-29T11:20:48.443Z</time>
      </trkpt>
      <trkpt lat="48.71384" lon="2.52287">
        <ele>49.836</ele>
        <time>2016-01-29T11:20:57.429Z</time>
      </trkpt>
      <trkpt lat="48.71379" lon="2.523">
        <ele>49.947</ele>
        <time>2016-01-29T11:21:06.168Z</time>
      </trkpt>
      <trkpt lat="48.71375" lon="2.52314">
        <ele>50.048</ele>
        <time>2016-01-29T11:21:14.294Z</time>
      </trkpt>
      <trkpt lat="48.7137" lon="2.52326">
        <ele>50.132</ele>
        <time>2016-01-29T11:21:21.994Z</time>
      </trkpt>
      <trkpt lat="48.71366" lon="2.52339">
        <ele>50.119</ele>
        <time>2016-01-29T11:21:29.960Z</time>
      </trkpt>
      <trkpt lat="48.71362" lon="2.52352">
        <ele>49.963</ele>
        <time>2016-01-29T11:21:39.318Z</time>
      </trkpt>
      <trkpt lat="48.71357" lon="2.52364">
        <ele>49.776</ele>
        <time>2016-01-29T11:21:49.060Z</time>
      </trkpt>
      <trkpt lat="48.7135" lon="2.52374">
        <ele>49.694</ele>
        <time>2016-01-29T11:22:00.014Z</time>
      </trkpt>
      <trkpt lat="48.71346" lon="2.52388">
        <ele>49.709</ele>
        <time>2016-01-29T11:22:11.023Z</time>
      </trkpt>
      <trkpt lat="48.71344" lon="2.52402">
        <ele>49.732</ele>
        <time>2016-01-29T11:22:20.926Z</time>
      </trkpt>
      <trkpt lat="48.7134" lon="2.52415">
        <ele>49.724</ele>
        <time>2016-01-29T11:22:30.232Z</time>
      </trkpt>
      <trkpt lat="48.71341" lon="2.5243">
        <ele>49.737</ele>
        <time>2016-01-29T11:22:38.569Z</time>
      </trkpt>
      <trkpt lat="48.71341" lon="2.52444">
        <ele>49.834</ele>
        <time>2016-01-29T11:22:46.179Z</time>
      </trkpt>
      <trkpt lat="48.71341" lon="2.52458">
        <ele>50.01</ele>
        <time>2016-01-29T11:22:54.452Z</time>
      </trkpt>
      <trkpt lat="48.71338" lon="2.52472">
        <ele>50.201</ele>
        <time>2016-01-29T11:23:04.747Z</time>
      </trkpt>
      <trkpt lat="48.71341" lon="2.52486">
        <ele>50.365</ele>
        <time>2016-01-29T11:23:14.458Z</time>
      </trkpt>
      <trkpt lat="48.71347" lon="2.52497">
        <ele>50.468</ele>
        <time>2016-01-29T11:23:23.000Z</time>
      </trkpt>
      <trkpt lat="48.71349" lon="2.52511">
        <ele>50.478</ele>
        <time>2016-01-29T11:23:31.340Z</time>
      </trkpt>
      <trkpt lat="48.71356" lon="2.52522">
        <ele>50.42</ele>
        <time>2016-01-29T11:23:38.799Z</time>
      </trkpt>
      <trkpt lat="48.71362" lon="2.52532">
        <ele>50.369</ele>
        <time>2016-01-29T11:23:45.845Z</time>
      </trkpt>
      <trkpt lat="48.71369" lon="2.52541">
        <ele>50.376</ele>
        <time>2016-01-29T11:23:53.014Z</time>
      </trkpt>
      <trkpt lat="48.71377" lon="2.52549">
        <ele>50.429</ele>
        <time>2016-01-29T11:24:00.686Z</time>
      </trkpt>
      <trkpt lat="48.71384" lon="2.52558">
        <ele>50.552</ele>
        <time>2016-01-29T11:24:08.803Z</time>
      </trkpt>
      <trkpt lat="48.7139" lon="2.52568">
        <ele>50.781</ele>
        <time>2016-01-29T11:24:17.202Z</time>
      </trkpt>
      <trkpt lat="48.71398" lon="2.52575">
        <ele>51.021</ele>
        <time>2016-01-29T11:24:25.141Z</time>
      </trkpt>
      <trkpt lat="48.71406" lon="2.52584">
        <ele>51.144</ele>
        <time>2016-01-29T11:24:32.906Z</time>
      </trkpt>
      <trkpt lat="48.7141" lon="2.52596">
        <ele>51.149</ele>
        <time>2016-01-29T11:24:41.672Z</time>
      </trkpt>
      <trkpt lat="48.71418" lon="2.52605">
        <ele>51.102</ele>
        <time>2016-01-29T11:24:51.805Z</time>
      </trkpt>
      <trkpt lat="48.7142" lon="2.52619">
        <ele>51.125</ele>
        <time>2016-01-29T11:25:02.217Z</time>
      </trkpt>
      <trkpt lat="48.71425" lon="2.52632">
        <ele>51.273</ele>
        <time>2016-01-29T11:25:12.631Z</time>
      </trkpt>
      <trkpt lat="48.71425" lon="2.52646">
        <ele>51.444</ele>
        <time>2016-01-29T11:25:21.147Z</time>
      </trkpt>
      <trkpt lat="48.71424" lon="2.5266">
        <ele>51.567</ele>
        <time>2016-01-29T11:25:28.741Z</time>
      </trkpt>
      <trkpt lat="48.71423" lon="2.52674">
        <ele>51.676</ele>
        <time>2016-01-29T11:25:36.662Z</time>
      </trkpt>
      <trkpt lat="48.71423" lon="2.52688">
        <ele>51.843</ele>
        <time>2016-01-29T11:25:45.906Z</time>
      </trkpt>
      <trkpt lat="48.71423" lon="2.52702">
        <ele>52.226</ele>
        <time>2016-01-29T11:25:56.000Z</time>
      </trkpt>
      <trkpt lat="48.71423" lon="2.52702">
        <ele>52.803</ele>
        <time>2016-01-29T11:26:05.000Z</time>
      </trkpt>
      <trkpt lat="48.71423" lon="2.52702">
        <ele>53.182</ele>
        <time>2016-01-29T11:26:21.867Z</time>
      </trkpt>
      <trkpt lat="48.71422" lon="2.52721">
        <ele>53.142</ele>
        <time>2016-01-29T11:26:45.426Z</time>
      </trkpt>
      <trkpt lat="48.71413" lon="2.52727">
        <ele>53.109</ele>
        <time>2016-01-29T11:26:54.948Z</time>
      </trkpt>
      <trkpt lat="48.71404" lon="2.52729">
        <ele>53.449</ele>
        <time>2016-01-29T11:27:03.641Z</time>
      </trkpt>
      <trkpt lat="48.71396" lon="2.52736">
        <ele>53.905</ele>
        <time>2016-01-29T11:27:12.785Z</time>
      </trkpt>
      <trkpt lat="48.714" lon="2.52749">
        <ele>54.204</ele>
        <time>2016-01-29T11:27:22.581Z</time>
      </trkpt>
      <trkpt lat="48.714" lon="2.52762">
        <ele>54.396</ele>
        <time>2016-01-29T11:27:30.377Z</time>
      </trkpt>
      <trkpt lat="48.71399" lon="2.52777">
        <ele>54.508</ele>
        <time>2016-01-29T11:27:38.202Z</time>
      </trkpt>
      <trkpt lat="48.71398" lon="2.52791">
        <ele>54.52</ele>
        <time>2016-01-29T11:27:45.824Z</time>
      </trkpt>
      <trkpt lat="48.71399" lon="2.52805">
        <ele>54.453</ele>
        <time>2016-01-29T11:27:54.046Z</time>
      </trkpt>
      <trkpt lat="48.71402" lon="2.52819">
        <ele>54.298</ele>
        <time>2016-01-29T11:28:03.616Z</time>
      </trkpt>
      <trkpt lat="48.71404" lon="2.52834">
        <ele>54.049</ele>
        <time>2016-01-29T11:28:13.585Z</time>
      </trkpt>
      <trkpt lat="48.71407" lon="2.52848">
        <ele>53.745</ele>
        <time>2016-01-29T11:28:22.513Z</time>
      </trkpt>
      <trkpt lat="48.71411" lon="2.52861">
        <ele>53.465</ele>
        <time>2016-01-29T11:28:30.503Z</time>
      </trkpt>
      <trkpt lat="48.71415" lon="2.52873">
        <ele>53.276</ele>
        <time>2016-01-29T11:28:38.347Z</time>
      </trkpt>
      <trkpt lat="48.71418" lon="2.52887">
        <ele>53.203</ele>
        <time>2016-01-29T11:28:45.689Z</time>
      </trkpt>
      <trkpt lat="48.71421" lon="2.52901">
        <ele>53.209</ele>
        <time>2016-01-29T11:28:53.308Z</time>
      </trkpt>
      <trkpt lat="48.71426" lon="2.52914">
        <ele>53.237</ele>
        <time>2016-01-29T11:29:00.610Z</time>
      </trkpt>
      <trkpt lat="48.71432" lon="2.52925">
        <ele>53.325</ele>
        <time>2016-01-29T11:29:07.593Z</time>
      </trkpt>
      <trkpt lat="48.71439" lon="2.52936">
        <ele>53.528</ele>
        <time>2016-01-29T11:29:14.969Z</time>
      </trkpt>
      <trkpt lat="48.71445" lon="2.52948">
        <ele>53.787</ele>
        <time>2016-01-29T11:29:22.759Z</time>
      </trkpt>
      <trkpt lat="48.7145" lon="2.5296">
        <ele>54.025</ele>
        <time>2016-01-29T11:29:30.666Z</time>
      </trkpt>
      <trkpt lat="48.71455" lon="2.52972">
        <ele>54.214</ele>
        <time>2016-01-29T11:29:39.253Z</time>
      </trkpt>
      <trkpt lat="48.71461" lon="2.52984">
        <ele>54.315</ele>
        <time>2016-01-29T11:29:47.616Z</time>
      </trkpt>
      <trkpt lat="48.71467" lon="2.52995">
        <ele>54.322</ele>
        <time>2016-01-29T11:29:55.301Z</time>
      </trkpt>
      <trkpt lat="48.71474" lon="2.53006">
        <ele>54.267</ele>
        <time>2016-01-29T11:30:03.238Z</time>
      </trkpt>
      <trkpt lat="48.7148" lon="2.53016">
        <ele>54.193</ele>
        <time>2016-01-29T11:30:11.507Z</time>
      </trkpt>
      <trkpt lat="48.71486" lon="2.53028">
        <ele>54.157</ele>
        <time>2016-01-29T11:30:20.469Z</time>
      </trkpt>
      <trkpt lat="48.71489" lon="2.53042">
        <ele>54.189</ele>
        <time>2016-01-29T11:30:30.496Z</time>
      </trkpt>
      <trkpt lat="48.71494" lon="2.53054">
        <ele>54.279</ele>
        <time>2016-01-29T11:30:41.075Z</time>
      </trkpt>
      <trkpt lat="48.71499" lon="2.53065">
        <ele>54.425</ele>
        <time>2016-01-29T11:30:50.232Z</time>
      </trkpt>
      <trkpt lat="48.71505" lon="2.53076">
        <ele>54.607</ele>
        <time>2016-01-29T11:30:58.376Z</time>
      </trkpt>
      <trkpt lat="48.71512" lon="2.53086">
        <ele>54.747</ele>
        <time>2016-01-29T11:31:06.606Z</time>
      </trkpt>
      <trkpt lat="48.71519" lon="2.53097">
        <ele>54.795</ele>
        <time>2016-01-29T11:31:14.928Z</time>
      </trkpt>
      <trkpt lat="48.71526" lon="2.53106">
        <ele>54.78</ele>
        <time>2016-01-29T11:31:24.249Z</time>
      </trkpt>
      <trkpt lat="48.71531" lon="2.53118">
        <ele>54.735</ele>
        <time>2016-01-29T11:31:33.918Z</time>
      </trkpt>
      <trkpt lat="48.71537" lon="2.53129">
        <ele>54.679</ele>
        <time>2016-01-29T11:31:43.762Z</time>
      </trkpt>
      <trkpt lat="48.7154" lon="2.53143">
        <ele>54.631</ele>
        <time>2016-01-29T11:31:53.534Z</time>
      </trkpt>
      <trkpt lat="48.71542" lon="2.53157">
        <ele>54.604</ele>
        <time>2016-01-29T11:32:02.377Z</time>
      </trkpt>
      <trkpt lat="48.71545" lon="2.5317">
        <ele>54.664</ele>
        <time>2016-01-29T11:32:10.556Z</time>
      </trkpt>
      <trkpt lat="48.71551" lon="2.53181">
        <ele>54.839</ele>
        <time>2016-01-29T11:32:17.888Z</time>
      </trkpt>
      <trkpt lat="48.71556" lon="2.53196">
        <ele>55.016</ele>
        <time>2016-01-29T11:32:26.308Z</time>
      </trkpt>
      <trkpt lat="48.71562" lon="2.53207">
        <ele>55.101</ele>
        <time>2016-01-29T11:32:34.099Z</time>
      </trkpt>
      <trkpt lat="48.71565" lon="2.53221">
        <ele>55.141</ele>
        <time>2016-01-29T11:32:42.790Z</time>
      </trkpt>
      <trkpt lat="48.71571" lon="2.53233">
        <ele>55.192</ele>
        <time>2016-01-29T11:32:51.029Z</time>
      </trkpt>
      <trkpt lat="48.71575" lon="2.53246">
        <ele>55.305</ele>
        <time>2016-01-29T11:32:58.702Z</time>
      </trkpt>
      <trkpt lat="48.7158" lon="2.53259">
        <ele>55.491</ele>
        <time>2016-01-29T11:33:06.419Z</time>
      </trkpt>
      <trkpt lat="48.71585" lon="2.53272">
        <ele>55.65</ele>
        <time>2016-01-29T11:33:14.276Z</time>
      </trkpt>
      <trkpt lat="48.71588" lon="2.53286">
        <ele>55.675</ele>
        <time>2016-01-29T11:33:21.550Z</time>
      </trkpt>
      <trkpt lat="48.71591" lon="2.53299">
        <ele>55.597</ele>
        <time>2016-01-29T11:33:29.040Z</time>
      </trkpt>
      <trkpt lat="48.71596" lon="2.53311">
        <ele>55.508</ele>
        <time>2016-01-29T11:33:36.283Z</time>
      </trkpt>
      <trkpt lat="48.71601" lon="2.53323">
        <ele>55.452</ele>
        <time>2016-01-29T11:33:43.669Z</time>
      </trkpt>
      <trkpt lat="48.71607" lon="2.53333">
        <ele>55.417</ele>
        <time>2016-01-29T11:33:50.943Z</time>
      </trkpt>
      <trkpt lat="48.71612" lon="2.53346">
        <ele>55.397</ele>
        <time>2016-01-29T11:33:58.754Z</time>
      </trkpt>
      <trkpt lat="48.71616" lon="2.53359">
        <ele>55.457</ele>
        <time>2016-01-29T11:34:06.523Z</time>
      </trkpt>
      <trkpt lat="48.7162" lon="2.53371">
        <ele>55.68</ele>
        <time>2016-01-29T11:34:14.571Z</time>
      </trkpt>
      <trkpt lat="48.71626" lon="2.53382">
        <ele>56.004</ele>
        <time>2016-01-29T11:34:23.528Z</time>
      </trkpt>
      <trkpt lat="48.7163" lon="2.53396">
        <ele>56.282</ele>
        <time>2016-01-29T11:34:32.833Z</time>
      </trkpt>
      <trkpt lat="48.71634" lon="2.53408">
        <ele>56.496</ele>
        <time>2016-01-29T11:34:41.069Z</time>
      </trkpt>
      <trkpt lat="48.71638" lon="2.53422">
        <ele>56.678</ele>
        <time>2016-01-29T11:34:49.906Z</time>
      </trkpt>
      <trkpt lat="48.71641" lon="2.53435">
        <ele>56.793</ele>
        <time>2016-01-29T11:34:57.921Z</time>
      </trkpt>
      <trkpt lat="48.71643" lon="2.53449">
        <ele>56.85</ele>
        <time>2016-01-29T11:35:06.454Z</time>
      </trkpt>
      <trkpt lat="48.71645" lon="2.53463">
        <ele>56.9</ele>
        <time>2016-01-29T11:35:15.380Z</time>
      </trkpt>
      <trkpt lat="48.71648" lon="2.53477">
        <ele>56.929</ele>
        <time>2016-01-29T11:35:24.799Z</time>
      </trkpt>
      <trkpt lat="48.71652" lon="2.53491">
        <ele>56.832</ele>
        <time>2016-01-29T11:35:35.115Z</time>
      </trkpt>
      <trkpt lat="48.71655" lon="2.53505">
        <ele>56.588</ele>
        <time>2016-01-29T11:35:44.273Z</time>
      </trkpt>
      <trkpt lat="48.71657" lon="2.53519">
        <ele>56.385</ele>
        <time>2016-01-29T11:35:53.320Z</time>
      </trkpt>
      <trkpt lat="48.71661" lon="2.53532">
        <ele>56.366</ele>
        <time>2016-01-29T11:36:01.518Z</time>
      </trkpt>
      <trkpt lat="48.71662" lon="2.53547">
        <ele>56.484</ele>
        <time>2016-01-29T11:36:10.718Z</time>
      </trkpt>
      <trkpt lat="48.71663" lon="2.53562">
        <ele>56.675</ele>
        <time>2016-01-29T11:36:19.964Z</time>
      </trkpt>
      <trkpt lat="48.71664" lon="2.53576">
        <ele>56.913</ele>
        <time>2016-01-29T11:36:29.442Z</time>
      </trkpt>
      <trkpt lat="48.71667" lon="2.5359">
        <ele>57.174</ele>
        <time>2016-01-29T11:36:39.000Z</time>
      </trkpt>
      <trkpt lat="48.71667" lon="2.5359">
        <ele>57.403</ele>
        <time>2016-01-29T11:36:45.000Z</time>
      </trkpt>
      <trkpt lat="48.71667" lon="2.5359">
        <ele>57.507</ele>
        <time>2016-01-29T12:06:46.294Z</time>
      </trkpt>
      <trkpt lat="48.71661" lon="2.53601">
        <ele>57.441</ele>
        <time>2016-01-29T12:07:02.862Z</time>
      </trkpt>
      <trkpt lat="48.71657" lon="2.53587">
        <ele>57.036</ele>
        <time>2016-01-29T12:07:10.296Z</time>
      </trkpt>
      <trkpt lat="48.7165" lon="2.53577">
        <ele>56.256</ele>
        <time>2016-01-29T12:07:15.999Z</time>
      </trkpt>
      <trkpt lat="48.7165" lon="2.53577">
        <ele>55.512</ele>
        <time>2016-01-29T12:07:19.999Z</time>
      </trkpt>
      <trkpt lat="48.7165" lon="2.53577">
        <ele>55.184</ele>
        <time>2016-01-29T12:07:53.258Z</time>
      </trkpt>
      <trkpt lat="48.71655" lon="2.53589">
        <ele>55.339</ele>
        <time>2016-01-29T12:08:04.400Z</time>
      </trkpt>
      <trkpt lat="48.7166" lon="2.53602">
        <ele>55.465</ele>
        <time>2016-01-29T12:08:10.999Z</time>
      </trkpt>
      <trkpt lat="48.7166" lon="2.53602">
        <ele>55.575</ele>
        <time>2016-01-29T12:08:13.999Z</time>
      </trkpt>
      <trkpt lat="48.7166" lon="2.53602">
        <ele>55.631</ele>
        <time>2016-01-29T12:10:02.227Z</time>
      </trkpt>
      <trkpt lat="48.71664" lon="2.5362">
        <ele>55.604</ele>
        <time>2016-01-29T12:10:25.450Z</time>
      </trkpt>
      <trkpt lat="48.71667" lon="2.53634">
        <ele>55.633</ele>
        <time>2016-01-29T12:10:36.211Z</time>
      </trkpt>
      <trkpt lat="48.71671" lon="2.53646">
        <ele>55.884</ele>
        <time>2016-01-29T12:10:45.100Z</time>
      </trkpt>
      <trkpt lat="48.71676" lon="2.53659">
        <ele>56.394</ele>
        <time>2016-01-29T12:10:53.799Z</time>
      </trkpt>
      <trkpt lat="48.7168" lon="2.53672">
        <ele>57.024</ele>
        <time>2016-01-29T12:11:01.991Z</time>
      </trkpt>
      <trkpt lat="48.71686" lon="2.53683">
        <ele>57.568</ele>
        <time>2016-01-29T12:11:09.999Z</time>
      </trkpt>
      <trkpt lat="48.71686" lon="2.53683">
        <ele>57.921</ele>
        <time>2016-01-29T12:11:27.999Z</time>
      </trkpt>
      <trkpt lat="48.71686" lon="2.53683">
        <ele>58.064</ele>
        <time>2016-01-29T12:12:03.596Z</time>
      </trkpt>
      <trkpt lat="48.71681" lon="2.53707">
        <ele>58.021</ele>
        <time>2016-01-29T12:12:27.676Z</time>
      </trkpt>
      <trkpt lat="48.71684" lon="2.5372">
        <ele>57.987</ele>
        <time>2016-01-29T12:12:35.566Z</time>
      </trkpt>
      <trkpt lat="48.71688" lon="2.53734">
        <ele>58.099</ele>
        <time>2016-01-29T12:12:43.550Z</time>
      </trkpt>
      <trkpt lat="48.71691" lon="2.53748">
        <ele>58.086</ele>
        <time>2016-01-29T12:12:51.297Z</time>
      </trkpt>
      <trkpt lat="48.71695" lon="2.53761">
        <ele>57.632</ele>
        <time>2016-01-29T12:12:59.055Z</time>
      </trkpt>
      <trkpt lat="48.717" lon="2.53773">
        <ele>56.899</ele>
        <time>2016-01-29T12:13:06.982Z</time>
      </trkpt>
      <trkpt lat="48.71703" lon="2.53787">
        <ele>56.238</ele>
        <time>2016-01-29T12:13:14.220Z</time>
      </trkpt>
      <trkpt lat="48.71708" lon="2.53801">
        <ele>55.776</ele>
        <time>2016-01-29T12:13:21.535Z</time>
      </trkpt>
      <trkpt lat="48.71712" lon="2.53813">
        <ele>55.496</ele>
        <time>2016-01-29T12:13:28.913Z</time>
      </trkpt>
      <trkpt lat="48.71714" lon="2.53827">
        <ele>55.353</ele>
        <time>2016-01-29T12:13:37.296Z</time>
      </trkpt>
      <trkpt lat="48.71721" lon="2.53836">
        <ele>55.338</ele>
        <time>2016-01-29T12:13:45.798Z</time>
      </trkpt>
      <trkpt lat="48.71728" lon="2.53845">
        <ele>55.428</ele>
        <time>2016-01-29T12:13:53.325Z</time>
      </trkpt>
      <trkpt lat="48.71736" lon="2.53854">
        <ele>55.528</ele>
        <time>2016-01-29T12:14:00.437Z</time>
      </trkpt>
      <trkpt lat="48.71744" lon="2.53862">
        <ele>55.572</ele>
        <time>2016-01-29T12:14:08.000Z</time>
      </trkpt>
      <trkpt lat="48.71751" lon="2.53871">
        <ele>55.561</ele>
        <time>2016-01-29T12:14:15.935Z</time>
      </trkpt>
      <trkpt lat="48.71759" lon="2.53881">
        <ele>55.537</ele>
        <time>2016-01-29T12:14:24.240Z</time>
      </trkpt>
      <trkpt lat="48.71766" lon="2.5389">
        <ele>55.631</ele>
        <time>2016-01-29T12:14:32.602Z</time>
      </trkpt>
      <trkpt lat="48.71772" lon="2.53903">
        <ele>55.954</ele>
        <time>2016-01-29T12:14:41.737Z</time>
      </trkpt>
      <trkpt lat="48.71779" lon="2.53911">
        <ele>56.379</ele>
        <time>2016-01-29T12:14:48.780Z</time>
      </trkpt>
      <trkpt lat="48.71786" lon="2.53919">
        <ele>56.676</ele>
        <time>2016-01-29T12:14:55.561Z</time>
      </trkpt>
      <trkpt lat="48.71794" lon="2.53929">
        <ele>56.783</ele>
        <time>2016-01-29T12:15:02.882Z</time>
      </trkpt>
      <trkpt lat="48.71801" lon="2.53937">
        <ele>56.783</ele>
        <time>2016-01-29T12:15:10.836Z</time>
      </trkpt>
      <trkpt lat="48.71808" lon="2.53947">
        <ele>56.77</ele>
        <time>2016-01-29T12:15:18.683Z</time>
      </trkpt>
      <trkpt lat="48.71815" lon="2.53955">
        <ele>56.786</ele>
        <time>2016-01-29T12:15:27.141Z</time>
      </trkpt>
      <trkpt lat="48.71823" lon="2.53961">
        <ele>56.816</ele>
        <time>2016-01-29T12:15:36.287Z</time>
      </trkpt>
      <trkpt lat="48.7183" lon="2.5397">
        <ele>56.864</ele>
        <time>2016-01-29T12:15:46.005Z</time>
      </trkpt>
      <trkpt lat="48.71837" lon="2.53979">
        <ele>56.995</ele>
        <time>2016-01-29T12:15:55.662Z</time>
      </trkpt>
      <trkpt lat="48.7184" lon="2.53993">
        <ele>57.222</ele>
        <time>2016-01-29T12:16:05.136Z</time>
      </trkpt>
      <trkpt lat="48.71845" lon="2.54005">
        <ele>57.449</ele>
        <time>2016-01-29T12:16:13.461Z</time>
      </trkpt>
      <trkpt lat="48.71851" lon="2.54015">
        <ele>57.601</ele>
        <time>2016-01-29T12:16:21.808Z</time>
      </trkpt>
      <trkpt lat="48.7186" lon="2.54023">
        <ele>57.775</ele>
        <time>2016-01-29T12:16:30.369Z</time>
      </trkpt>
      <trkpt lat="48.71867" lon="2.54032">
        <ele>58.037</ele>
        <time>2016-01-29T12:16:37.631Z</time>
      </trkpt>
      <trkpt lat="48.71874" lon="2.54041">
        <ele>58.251</ele>
        <time>2016-01-29T12:16:44.496Z</time>
      </trkpt>
      <trkpt lat="48.71882" lon="2.54048">
        <ele>58.298</ele>
        <time>2016-01-29T12:16:51.832Z</time>
      </trkpt>
      <trkpt lat="48.71887" lon="2.5406">
        <ele>58.262</ele>
        <time>2016-01-29T12:16:59.583Z</time>
      </trkpt>
      <trkpt lat="48.71894" lon="2.54071">
        <ele>58.241</ele>
        <time>2016-01-29T12:17:08.856Z</time>
      </trkpt>
      <trkpt lat="48.719" lon="2.54083">
        <ele>58.245</ele>
        <time>2016-01-29T12:17:17.000Z</time>
      </trkpt>
      <trkpt lat="48.719" lon="2.54083">
        <ele>58.243</ele>
        <time>2016-01-29T12:17:26.000Z</time>
      </trkpt>
      <trkpt lat="48.719" lon="2.54083">
        <ele>58.22</ele>
        <time>2016-01-29T12:17:26.100Z</time>
      </trkpt>
      <trkpt lat="48.71903" lon="2.54101">
        <ele>58.191</ele>
        <time>2016-01-29T12:17:43.446Z</time>
      </trkpt>
      <trkpt lat="48.71905" lon="2.54115">
        <ele>58.176</ele>
        <time>2016-01-29T12:17:51.546Z</time>
      </trkpt>
      <trkpt lat="48.71908" lon="2.54129">
        <ele>58.162</ele>
        <time>2016-01-29T12:17:58.634Z</time>
      </trkpt>
      <trkpt lat="48.71912" lon="2.54142">
        <ele>58.138</ele>
        <time>2016-01-29T12:18:05.254Z</time>
      </trkpt>
      <trkpt lat="48.71917" lon="2.54154">
        <ele>58.146</ele>
        <time>2016-01-29T12:18:12.291Z</time>
      </trkpt>
      <trkpt lat="48.7192" lon="2.54168">
        <ele>58.247</ele>
        <time>2016-01-29T12:18:20.611Z</time>
      </trkpt>
      <trkpt lat="48.71926" lon="2.5418">
        <ele>58.405</ele>
        <time>2016-01-29T12:18:29.261Z</time>
      </trkpt>
      <trkpt lat="48.71931" lon="2.54191">
        <ele>58.589</ele>
        <time>2016-01-29T12:18:36.979Z</time>
      </trkpt>
      <trkpt lat="48.71936" lon="2.54203">
        <ele>58.855</ele>
        <time>2016-01-29T12:18:45.167Z</time>
      </trkpt>
      <trkpt lat="48.71941" lon="2.54215">
        <ele>59.169</ele>
        <time>2016-01-29T12:18:52.760Z</time>
      </trkpt>
      <trkpt lat="48.71947" lon="2.54226">
        <ele>59.411</ele>
        <time>2016-01-29T12:19:00.560Z</time>
      </trkpt>
      <trkpt lat="48.71952" lon="2.54237">
        <ele>59.598</ele>
        <time>2016-01-29T12:19:07.668Z</time>
      </trkpt>
      <trkpt lat="48.71959" lon="2.54247">
        <ele>59.784</ele>
        <time>2016-01-29T12:19:15.177Z</time>
      </trkpt>
      <trkpt lat="48.71964" lon="2.5426">
        <ele>59.915</ele>
        <time>2016-01-29T12:19:23.816Z</time>
      </trkpt>
      <trkpt lat="48.7197" lon="2.54271">
        <ele>59.95</ele>
        <time>2016-01-29T12:19:32.781Z</time>
      </trkpt>
      <trkpt lat="48.71978" lon="2.54281">
        <ele>59.931</ele>
        <time>2016-01-29T12:19:41.145Z</time>
      </trkpt>
      <trkpt lat="48.71987" lon="2.54283">
        <ele>59.98</ele>
        <time>2016-01-29T12:19:49.372Z</time>
      </trkpt>
      <trkpt lat="48.71996" lon="2.54287">
        <ele>60.155</ele>
        <time>2016-01-29T12:19:57.822Z</time>
      </trkpt>
      <trkpt lat="48.72004" lon="2.54295">
        <ele>60.334</ele>
        <time>2016-01-29T12:20:05.996Z</time>
      </trkpt>
      <trkpt lat="48.7201" lon="2.54307">
        <ele>60.406</ele>
        <time>2016-01-29T12:20:14.122Z</time>
      </trkpt>
      <trkpt lat="48.72018" lon="2.54314">
        <ele>60.426</ele>
        <time>2016-01-29T12:20:22.169Z</time>
      </trkpt>
      <trkpt lat="48.72025" lon="2.54322">
        <ele>60.466</ele>
        <time>2016-01-29T12:20:30.702Z</time>
      </trkpt>
      <trkpt lat="48.72034" lon="2.54328">
        <ele>60.623</ele>
        <time>2016-01-29T12:20:40.000Z</time>
      </trkpt>
      <trkpt lat="48.72034" lon="2.54328">
        <ele>60.927</ele>
        <time>2016-01-29T12:20:43.000Z</time>
      </trkpt>
      <trkpt lat="48.72034" lon="2.54328">
        <ele>61.154</ele>
        <time>2016-01-29T12:20:53.188Z</time>
      </trkpt>
      <trkpt lat="48.72046" lon="2.54329">
        <ele>61.123</ele>
        <time>2016-01-29T12:21:14.487Z</time>
      </trkpt>
      <trkpt lat="48.72049" lon="2.54315">
        <ele>61.129</ele>
        <time>2016-01-29T12:21:23.003Z</time>
      </trkpt>
      <trkpt lat="48.72051" lon="2.54301">
        <ele>61.441</ele>
        <time>2016-01-29T12:21:31.367Z</time>
      </trkpt>
      <trkpt lat="48.72057" lon="2.54289">
        <ele>61.856</ele>
        <time>2016-01-29T12:21:40.744Z</time>
      </trkpt>
      <trkpt lat="48.72066" lon="2.54284">
        <ele>62.103</ele>
        <time>2016-01-29T12:21:50.387Z</time>
      </trkpt>
      <trkpt lat="48.72075" lon="2.54282">
        <ele>62.167</ele>
        <time>2016-01-29T12:21:58.341Z</time>
      </trkpt>
      <trkpt lat="48.72084" lon="2.54281">
        <ele>62.009</ele>
        <time>2016-01-29T12:22:06.113Z</time>
      </trkpt>
      <trkpt lat="48.72094" lon="2.54282">
        <ele>61.636</ele>
        <time>2016-01-29T12:22:13.226Z</time>
      </trkpt>
      <trkpt lat="48.72103" lon="2.54286">
        <ele>61.273</ele>
        <time>2016-01-29T12:22:20.265Z</time>
      </trkpt>
      <trkpt lat="48.72112" lon="2.54292">
        <ele>61.09</ele>
        <time>2016-01-29T12:22:27.776Z</time>
      </trkpt>
      <trkpt lat="48.72122" lon="2.54296">
        <ele>61.02</ele>
        <time>2016-01-29T12:22:36.381Z</time>
      </trkpt>
      <trkpt lat="48.72131" lon="2.54299">
        <ele>60.984</ele>
        <time>2016-01-29T12:22:46.270Z</time>
      </trkpt>
      <trkpt lat="48.72141" lon="2.54302">
        <ele>60.993</ele>
        <time>2016-01-29T12:22:55.208Z</time>
      </trkpt>
      <trkpt lat="48.7215" lon="2.54305">
        <ele>61.107</ele>
        <time>2016-01-29T12:23:02.987Z</time>
      </trkpt>
      <trkpt lat="48.72159" lon="2.54308">
        <ele>61.3</ele>
        <time>2016-01-29T12:23:10.927Z</time>
      </trkpt>
      <trkpt lat="48.72168" lon="2.54311">
        <ele>61.426</ele>
        <time>2016-01-29T12:23:19.156Z</time>
      </trkpt>
      <trkpt lat="48.72178" lon="2.54314">
        <ele>61.314</ele>
        <time>2016-01-29T12:23:27.945Z</time>
      </trkpt>
      <trkpt lat="48.72187" lon="2.54317">
        <ele>60.785</ele>
        <time>2016-01-29T12:23:35.906Z</time>
      </trkpt>
      <trkpt lat="48.72196" lon="2.54324">
        <ele>59.693</ele>
        <time>2016-01-29T12:23:44.229Z</time>
      </trkpt>
      <trkpt lat="48.72205" lon="2.54329">
        <ele>58.271</ele>
        <time>2016-01-29T12:23:53.332Z</time>
      </trkpt>
      <trkpt lat="48.72215" lon="2.54333">
        <ele>57.112</ele>
        <time>2016-01-29T12:24:02.321Z</time>
      </trkpt>
      <trkpt lat="48.72225" lon="2.54335">
        <ele>56.549</ele>
        <time>2016-01-29T12:24:10.249Z</time>
      </trkpt>
      <trkpt lat="48.72234" lon="2.54339">
        <ele>56.467</ele>
        <time>2016-01-29T12:24:19.357Z</time>
      </trkpt>
      <trkpt lat="48.72237" lon="2.54353">
        <ele>56.64</ele>
        <time>2016-01-29T12:24:29.251Z</time>
      </trkpt>
      <trkpt lat="48.72233" lon="2.54366">
        <ele>56.865</ele>
        <time>2016-01-29T12:24:39.599Z</time>
      </trkpt>
      <trkpt lat="48.72237" lon="2.54379">
        <ele>57.013</ele>
        <time>2016-01-29T12:24:49.610Z</time>
      </trkpt>
      <trkpt lat="48.72241" lon="2.54392">
        <ele>57.117</ele>
        <time>2016-01-29T12:24:59.938Z</time>
      </trkpt>
      <trkpt lat="48.72243" lon="2.54406">
        <ele>57.246</ele>
        <time>2016-01-29T12:25:09.552Z</time>
      </trkpt>
      <trkpt lat="48.7224" lon="2.5442">
        <ele>57.304</ele>
        <time>2016-01-29T12:25:18.924Z</time>
      </trkpt>
      <trkpt lat="48.72237" lon="2.54434">
        <ele>57.197</ele>
        <time>2016-01-29T12:25:27.667Z</time>
      </trkpt>
      <trkpt lat="48.72238" lon="2.54448">
        <ele>57.021</ele>
        <time>2016-01-29T12:25:36.624Z</time>
      </trkpt>
      <trkpt lat="48.72238" lon="2.54462">
        <ele>56.75</ele>
        <time>2016-01-29T12:25:46.598Z</time>
      </trkpt>
      <trkpt lat="48.72233" lon="2.54474">
        <ele>55.98</ele>
        <time>2016-01-29T12:25:58.557Z</time>
      </trkpt>
      <trkpt lat="48.72233" lon="2.54488">
        <ele>56.283</ele>
        <time>2016-01-29T12:26:08.820Z</time>
      </trkpt>
      <trkpt lat="48.72232" lon="2.54503">
        <ele>56.435</ele>
        <time>2016-01-29T12:26:17.838Z</time>
      </trkpt>
      <trkpt lat="48.72232" lon="2.54517">
        <ele>56.767</ele>
        <time>2016-01-29T12:26:26.473Z</time>
      </trkpt>
      <trkpt lat="48.7223" lon="2.54531">
        <ele>57.616</ele>
        <time>2016-01-29T12:26:36.735Z</time>
      </trkpt>
      <trkpt lat="48.72233" lon="2.54545">
        <ele>58.246</ele>
        <time>2016-01-29T12:26:44.936Z</time>
      </trkpt>
      <trkpt lat="48.72231" lon="2.54558">
        <ele>59.307</ele>
        <time>2016-01-29T12:26:52.668Z</time>
      </trkpt>
      <trkpt lat="48.72232" lon="2.54572">
        <ele>60.582</ele>
        <time>2016-01-29T12:27:00.968Z</time>
      </trkpt>
      <trkpt lat="48.72228" lon="2.54584">
        <ele>61.725</ele>
        <time>2016-01-29T12:27:09.620Z</time>
      </trkpt>
      <trkpt lat="48.72232" lon="2.54596">
        <ele>62.711</ele>
        <time>2016-01-29T12:27:18.799Z</time>
      </trkpt>
      <trkpt lat="48.72228" lon="2.5461">
        <ele>63.721</ele>
        <time>2016-01-29T12:27:30.104Z</time>
      </trkpt>
      <trkpt lat="48.72226" lon="2.54623">
        <ele>64.965</ele>
        <time>2016-01-29T12:27:40.346Z</time>
      </trkpt>
      <trkpt lat="48.72219" lon="2.54635">
        <ele>66.474</ele>
        <time>2016-01-29T12:27:50.401Z</time>
      </trkpt>
      <trkpt lat="48.72217" lon="2.54648">
        <ele>67.928</ele>
        <time>2016-01-29T12:27:59.257Z</time>
      </trkpt>
      <trkpt lat="48.72214" lon="2.54661">
        <ele>69.081</ele>
        <time>2016-01-29T12:28:08.492Z</time>
      </trkpt>
      <trkpt lat="48.72211" lon="2.54675">
        <ele>69.987</ele>
        <time>2016-01-29T12:28:19.031Z</time>
      </trkpt>
      <trkpt lat="48.72207" lon="2.54688">
        <ele>70.832</ele>
        <time>2016-01-29T12:28:29.281Z</time>
      </trkpt>
      <trkpt lat="48.72205" lon="2.54701">
        <ele>71.797</ele>
        <time>2016-01-29T12:28:40.457Z</time>
      </trkpt>
      <trkpt lat="48.72204" lon="2.54715">
        <ele>72.867</ele>
        <time>2016-01-29T12:28:52.999Z</time>
      </trkpt>
      <trkpt lat="48.72204" lon="2.54715">
        <ele>73.778</ele>
        <time>2016-01-29T12:29:00.999Z</time>
      </trkpt>
      <trkpt lat="48.72204" lon="2.54715">
        <ele>74.214</ele>
        <time>2016-01-29T12:30:31.924Z</time>
      </trkpt>
      <trkpt lat="48.72209" lon="2.5473">
        <ele>74.138</ele>
        <time>2016-01-29T12:30:46.373Z</time>
      </trkpt>
      <trkpt lat="48.72211" lon="2.54745">
        <ele>74.06</ele>
        <time>2016-01-29T12:30:57.147Z</time>
      </trkpt>
      <trkpt lat="48.72221" lon="2.54743">
        <ele>74.395</ele>
        <time>2016-01-29T12:31:06.107Z</time>
      </trkpt>
      <trkpt lat="48.72227" lon="2.54732">
        <ele>74.965</ele>
        <time>2016-01-29T12:31:12.411Z</time>
      </trkpt>
      <trkpt lat="48.72236" lon="2.54725">
        <ele>75.417</ele>
        <time>2016-01-29T12:31:20.982Z</time>
      </trkpt>
      <trkpt lat="48.72245" lon="2.54719">
        <ele>75.655</ele>
        <time>2016-01-29T12:31:31.641Z</time>
      </trkpt>
      <trkpt lat="48.72253" lon="2.54714">
        <ele>75.729</ele>
        <time>2016-01-29T12:31:43.172Z</time>
      </trkpt>
      <trkpt lat="48.72261" lon="2.54706">
        <ele>75.723</ele>
        <time>2016-01-29T12:31:53.710Z</time>
      </trkpt>
      <trkpt lat="48.7227" lon="2.547">
        <ele>75.643</ele>
        <time>2016-01-29T12:32:02.456Z</time>
      </trkpt>
      <trkpt lat="48.72278" lon="2.54693">
        <ele>75.443</ele>
        <time>2016-01-29T12:32:10.597Z</time>
      </trkpt>
      <trkpt lat="48.72288" lon="2.54688">
        <ele>75.156</ele>
        <time>2016-01-29T12:32:19.076Z</time>
      </trkpt>
      <trkpt lat="48.72296" lon="2.54681">
        <ele>74.881</ele>
        <time>2016-01-29T12:32:26.129Z</time>
      </trkpt>
      <trkpt lat="48.72304" lon="2.54676">
        <ele>74.711</ele>
        <time>2016-01-29T12:32:33.711Z</time>
      </trkpt>
      <trkpt lat="48.72312" lon="2.54668">
        <ele>74.708</ele>
        <time>2016-01-29T12:32:41.407Z</time>
      </trkpt>
      <trkpt lat="48.7232" lon="2.54663">
        <ele>74.852</ele>
        <time>2016-01-29T12:32:48.957Z</time>
      </trkpt>
      <trkpt lat="48.72329" lon="2.54656">
        <ele>75.036</ele>
        <time>2016-01-29T12:32:57.321Z</time>
      </trkpt>
      <trkpt lat="48.72337" lon="2.5465">
        <ele>75.157</ele>
        <time>2016-01-29T12:33:05.485Z</time>
      </trkpt>
      <trkpt lat="48.72345" lon="2.54642">
        <ele>75.165</ele>
        <time>2016-01-29T12:33:14.132Z</time>
      </trkpt>
      <trkpt lat="48.72353" lon="2.54633">
        <ele>75.072</ele>
        <time>2016-01-29T12:33:23.193Z</time>
      </trkpt>
      <trkpt lat="48.7236" lon="2.54623">
        <ele>74.912</ele>
        <time>2016-01-29T12:33:32.753Z</time>
      </trkpt>
      <trkpt lat="48.72367" lon="2.54612">
        <ele>74.737</ele>
        <time>2016-01-29T12:33:42.362Z</time>
      </trkpt>
      <trkpt lat="48.72375" lon="2.54607">
        <ele>74.586</ele>
        <time>2016-01-29T12:33:50.838Z</time>
      </trkpt>
      <trkpt lat="48.72384" lon="2.54601">
        <ele>74.48</ele>
        <time>2016-01-29T12:33:59.416Z</time>
      </trkpt>
      <trkpt lat="48.7239" lon="2.5459">
        <ele>74.376</ele>
        <time>2016-01-29T12:34:07.319Z</time>
      </trkpt>
      <trkpt lat="48.72396" lon="2.5458">
        <ele>74.234</ele>
        <time>2016-01-29T12:34:15.459Z</time>
      </trkpt>
      <trkpt lat="48.72404" lon="2.54571">
        <ele>74.09</ele>
        <time>2016-01-29T12:34:24.107Z</time>
      </trkpt>
      <trkpt lat="48.72413" lon="2.54562">
        <ele>74.009</ele>
        <time>2016-01-29T12:34:32.403Z</time>
      </trkpt>
      <trkpt lat="48.72422" lon="2.54559">
        <ele>74.039</ele>
        <time>2016-01-29T12:34:40.698Z</time>
      </trkpt>
      <trkpt lat="48.72428" lon="2.54547">
        <ele>74.193</ele>
        <time>2016-01-29T12:34:49.781Z</time>
      </trkpt>
      <trkpt lat="48.72434" lon="2.54536">
        <ele>74.385</ele>
        <time>2016-01-29T12:34:57.728Z</time>
      </trkpt>
      <trkpt lat="48.7244" lon="2.54525">
        <ele>74.516</ele>
        <time>2016-01-29T12:35:05.871Z</time>
      </trkpt>
      <trkpt lat="48.72446" lon="2.54514">
        <ele>74.57</ele>
        <time>2016-01-29T12:35:13.878Z</time>
      </trkpt>
      <trkpt lat="48.72453" lon="2.54506">
        <ele>74.597</ele>
        <time>2016-01-29T12:35:21.417Z</time>
      </trkpt>
      <trkpt lat="48.7246" lon="2.54497">
        <ele>74.641</ele>
        <time>2016-01-29T12:35:28.913Z</time>
      </trkpt>
      <trkpt lat="48.72467" lon="2.54486">
        <ele>74.777</ele>
        <time>2016-01-29T12:35:37.163Z</time>
      </trkpt>
      <trkpt lat="48.72473" lon="2.54476">
        <ele>75.01</ele>
        <time>2016-01-29T12:35:45.644Z</time>
      </trkpt>
      <trkpt lat="48.7248" lon="2.54466">
        <ele>75.192</ele>
        <time>2016-01-29T12:35:54.141Z</time>
      </trkpt>
      <trkpt lat="48.72485" lon="2.54455">
        <ele>75.208</ele>
        <time>2016-01-29T12:36:01.087Z</time>
      </trkpt>
      <trkpt lat="48.72492" lon="2.54443">
        <ele>75.113</ele>
        <time>2016-01-29T12:36:08.796Z</time>
      </trkpt>
      <trkpt lat="48.72499" lon="2.54432">
        <ele>75.044</ele>
        <time>2016-01-29T12:36:16.473Z</time>
      </trkpt>
      <trkpt lat="48.72506" lon="2.54422">
        <ele>75.108</ele>
        <time>2016-01-29T12:36:24.629Z</time>
      </trkpt>
      <trkpt lat="48.72509" lon="2.5441">
        <ele>75.301</ele>
        <time>2016-01-29T12:36:33.977Z</time>
      </trkpt>
      <trkpt lat="48.72515" lon="2.544">
        <ele>75.511</ele>
        <time>2016-01-29T12:36:43.156Z</time>
      </trkpt>
      <trkpt lat="48.72521" lon="2.54388">
        <ele>75.659</ele>
        <time>2016-01-29T12:36:52.279Z</time>
      </trkpt>
      <trkpt lat="48.72527" lon="2.54377">
        <ele>75.759</ele>
        <time>2016-01-29T12:37:01.057Z</time>
      </trkpt>
      <trkpt lat="48.72533" lon="2.54367">
        <ele>75.839</ele>
        <time>2016-01-29T12:37:10.154Z</time>
      </trkpt>
      <trkpt lat="48.7254" lon="2.54355">
        <ele>75.893</ele>
        <time>2016-01-29T12:37:19.580Z</time>
      </trkpt>
      <trkpt lat="48.72544" lon="2.54342">
        <ele>75.919</ele>
        <time>2016-01-29T12:37:28.456Z</time>
      </trkpt>
      <trkpt lat="48.7255" lon="2.54329">
        <ele>75.912</ele>
        <time>2016-01-29T12:37:36.850Z</time>
      </trkpt>
      <trkpt lat="48.72553" lon="2.54316">
        <ele>75.89</ele>
        <time>2016-01-29T12:37:44.020Z</time>
      </trkpt>
      <trkpt lat="48.7256" lon="2.54306">
        <ele>75.881</ele>
        <time>2016-01-29T12:37:52.000Z</time>
      </trkpt>
      <trkpt lat="48.7256" lon="2.54306">
        <ele>75.89</ele>
        <time>2016-01-29T12:37:54.000Z</time>
      </trkpt>
      <trkpt lat="48.7256" lon="2.54306">
        <ele>75.886</ele>
        <time>2016-01-29T12:37:54.414Z</time>
      </trkpt>
      <trkpt lat="48.72563" lon="2.54292">
        <ele>75.818</ele>
        <time>2016-01-29T12:38:10.703Z</time>
      </trkpt>
      <trkpt lat="48.72565" lon="2.54277">
        <ele>75.843</ele>
        <time>2016-01-29T12:38:20.730Z</time>
      </trkpt>
      <trkpt lat="48.72571" lon="2.54265">
        <ele>76.026</ele>
        <time>2016-01-29T12:38:29.095Z</time>
      </trkpt>
      <trkpt lat="48.72574" lon="2.54252">
        <ele>76.385</ele>
        <time>2016-01-29T12:38:36.939Z</time>
      </trkpt>
      <trkpt lat="48.72578" lon="2.54238">
        <ele>76.77</ele>
        <time>2016-01-29T12:38:45.608Z</time>
      </trkpt>
      <trkpt lat="48.72582" lon="2.54226">
        <ele>77.031</ele>
        <time>2016-01-29T12:38:53.082Z</time>
      </trkpt>
      <trkpt lat="48.72586" lon="2.54213">
        <ele>77.201</ele>
        <time>2016-01-29T12:39:00.417Z</time>
      </trkpt>
      <trkpt lat="48.72589" lon="2.542">
        <ele>77.351</ele>
        <time>2016-01-29T12:39:07.811Z</time>
      </trkpt>
      <trkpt lat="48.72593" lon="2.54187">
        <ele>77.444</ele>
        <time>2016-01-29T12:39:15.445Z</time>
      </trkpt>
      <trkpt lat="48.72596" lon="2.54173">
        <ele>77.449</ele>
        <time>2016-01-29T12:39:23.603Z</time>
      </trkpt>
      <trkpt lat="48.726" lon="2.5416">
        <ele>77.4</ele>
        <time>2016-01-29T12:39:32.494Z</time>
      </trkpt>
      <trkpt lat="48.72602" lon="2.54146">
        <ele>77.298</ele>
        <time>2016-01-29T12:39:41.318Z</time>
      </trkpt>
      <trkpt lat="48.72607" lon="2.54134">
        <ele>77.172</ele>
        <time>2016-01-29T12:39:49.330Z</time>
      </trkpt>
      <trkpt lat="48.7261" lon="2.54121">
        <ele>77.165</ele>
        <time>2016-01-29T12:39:57.585Z</time>
      </trkpt>
      <trkpt lat="48.72611" lon="2.54107">
        <ele>77.364</ele>
        <time>2016-01-29T12:40:05.796Z</time>
      </trkpt>
      <trkpt lat="48.72612" lon="2.54093">
        <ele>77.632</ele>
        <time>2016-01-29T12:40:13.594Z</time>
      </trkpt>
      <trkpt lat="48.72614" lon="2.54078">
        <ele>77.872</ele>
        <time>2016-01-29T12:40:22.373Z</time>
      </trkpt>
      <trkpt lat="48.72616" lon="2.54063">
        <ele>78.1</ele>
        <time>2016-01-29T12:40:32.077Z</time>
      </trkpt>
      <trkpt lat="48.72618" lon="2.54048">
        <ele>78.259</ele>
        <time>2016-01-29T12:40:41.746Z</time>
      </trkpt>
      <trkpt lat="48.72619" lon="2.54034">
        <ele>78.387</ele>
        <time>2016-01-29T12:40:51.000Z</time>
      </trkpt>
      <trkpt lat="48.72619" lon="2.54034">
        <ele>78.572</ele>
        <time>2016-01-29T12:40:54.000Z</time>
      </trkpt>
      <trkpt lat="48.72619" lon="2.54034">
        <ele>78.703</ele>
        <time>2016-01-29T12:40:54.100Z</time>
      </trkpt>
      <trkpt lat="48.72627" lon="2.54006">
        <ele>78.666</ele>
        <time>2016-01-29T12:42:14.000Z</time>
      </trkpt>
      <trkpt lat="48.72627" lon="2.54006">
        <ele>78.57</ele>
        <time>2016-01-29T12:42:18.000Z</time>
      </trkpt>
      <trkpt lat="48.72627" lon="2.54006">
        <ele>78.533</ele>
        <time>2016-01-29T12:42:18.100Z</time>
      </trkpt>
      <trkpt lat="48.72627" lon="2.53991">
        <ele>78.532</ele>
        <time>2016-01-29T12:42:33.713Z</time>
      </trkpt>
      <trkpt lat="48.72626" lon="2.53977">
        <ele>78.517</ele>
        <time>2016-01-29T12:42:44.166Z</time>
      </trkpt>
      <trkpt lat="48.72626" lon="2.53963">
        <ele>78.514</ele>
        <time>2016-01-29T12:42:53.711Z</time>
      </trkpt>
      <trkpt lat="48.72626" lon="2.53949">
        <ele>78.561</ele>
        <time>2016-01-29T12:43:02.265Z</time>
      </trkpt>
      <trkpt lat="48.72628" lon="2.53935">
        <ele>78.641</ele>
        <time>2016-01-29T12:43:10.918Z</time>
      </trkpt>
      <trkpt lat="48.7263" lon="2.5392">
        <ele>78.705</ele>
        <time>2016-01-29T12:43:19.227Z</time>
      </trkpt>
      <trkpt lat="48.72631" lon="2.53907">
        <ele>78.733</ele>
        <time>2016-01-29T12:43:27.603Z</time>
      </trkpt>
      <trkpt lat="48.72632" lon="2.53892">
        <ele>78.755</ele>
        <time>2016-01-29T12:43:36.173Z</time>
      </trkpt>
      <trkpt lat="48.72633" lon="2.53878">
        <ele>78.802</ele>
        <time>2016-01-29T12:43:44.433Z</time>
      </trkpt>
      <trkpt lat="48.72634" lon="2.53863">
        <ele>78.875</ele>
        <time>2016-01-29T12:43:52.712Z</time>
      </trkpt>
      <trkpt lat="48.72633" lon="2.53848">
        <ele>79.034</ele>
        <time>2016-01-29T12:44:01.453Z</time>
      </trkpt>
      <trkpt lat="48.72636" lon="2.53833">
        <ele>79.3</ele>
        <time>2016-01-29T12:44:09.875Z</time>
      </trkpt>
      <trkpt lat="48.72637" lon="2.53819">
        <ele>79.596</ele>
        <time>2016-01-29T12:44:17.838Z</time>
      </trkpt>
      <trkpt lat="48.72636" lon="2.53806">
        <ele>79.899</ele>
        <time>2016-01-29T12:44:25.556Z</time>
      </trkpt>
      <trkpt lat="48.72637" lon="2.53792">
        <ele>80.237</ele>
        <time>2016-01-29T12:44:33.004Z</time>
      </trkpt>
      <trkpt lat="48.72637" lon="2.53778">
        <ele>80.582</ele>
        <time>2016-01-29T12:44:40.367Z</time>
      </trkpt>
      <trkpt lat="48.72637" lon="2.53764">
        <ele>80.824</ele>
        <time>2016-01-29T12:44:48.061Z</time>
      </trkpt>
      <trkpt lat="48.72636" lon="2.5375">
        <ele>80.189</ele>
        <time>2016-01-29T12:44:55.821Z</time>
      </trkpt>
      <trkpt lat="48.72635" lon="2.53737">
        <ele>78.228</ele>
        <time>2016-01-29T12:45:04.143Z</time>
      </trkpt>
      <trkpt lat="48.72634" lon="2.53722">
        <ele>76.054</ele>
        <time>2016-01-29T12:45:13.539Z</time>
      </trkpt>
      <trkpt lat="48.72634" lon="2.53707">
        <ele>74.894</ele>
        <time>2016-01-29T12:45:22.800Z</time>
      </trkpt>
      <trkpt lat="48.72633" lon="2.53693">
        <ele>74.739</ele>
        <time>2016-01-29T12:45:31.286Z</time>
      </trkpt>
      <trkpt lat="48.72632" lon="2.5368">
        <ele>75.072</ele>
        <time>2016-01-29T12:45:39.492Z</time>
      </trkpt>
      <trkpt lat="48.72631" lon="2.53666">
        <ele>75.451</ele>
        <time>2016-01-29T12:45:47.833Z</time>
      </trkpt>
      <trkpt lat="48.7263" lon="2.53651">
        <ele>75.744</ele>
        <time>2016-01-29T12:45:56.323Z</time>
      </trkpt>
      <trkpt lat="48.7263" lon="2.53636">
        <ele>75.968</ele>
        <time>2016-01-29T12:46:04.060Z</time>
      </trkpt>
      <trkpt lat="48.72629" lon="2.53621">
        <ele>76.087</ele>
        <time>2016-01-29T12:46:12.038Z</time>
      </trkpt>
      <trkpt lat="48.72629" lon="2.53606">
        <ele>76.094</ele>
        <time>2016-01-29T12:46:20.396Z</time>
      </trkpt>
      <trkpt lat="48.72628" lon="2.53591">
        <ele>76.1</ele>
        <time>2016-01-29T12:46:28.640Z</time>
      </trkpt>
      <trkpt lat="48.72626" lon="2.53577">
        <ele>76.186</ele>
        <time>2016-01-29T12:46:35.814Z</time>
      </trkpt>
      <trkpt lat="48.72625" lon="2.53562">
        <ele>76.293</ele>
        <time>2016-01-29T12:46:43.423Z</time>
      </trkpt>
      <trkpt lat="48.72626" lon="2.53548">
        <ele>76.359</ele>
        <time>2016-01-29T12:46:51.000Z</time>
      </trkpt>
      <trkpt lat="48.72626" lon="2.53548">
        <ele>76.396</ele>
        <time>2016-01-29T12:46:58.000Z</time>
      </trkpt>
      <trkpt lat="48.72626" lon="2.53548">
        <ele>76.401</ele>
        <time>2016-01-29T12:46:58.100Z</time>
      </trkpt>
      <trkpt lat="48.72627" lon="2.5352">
        <ele>76.368</ele>
        <time>2016-01-29T12:47:27.508Z</time>
      </trkpt>
      <trkpt lat="48.7263" lon="2.53507">
        <ele>76.344</ele>
        <time>2016-01-29T12:47:37.703Z</time>
      </trkpt>
      <trkpt lat="48.7263" lon="2.53492">
        <ele>76.379</ele>
        <time>2016-01-29T12:47:47.189Z</time>
      </trkpt>
      <trkpt lat="48.7263" lon="2.53478">
        <ele>76.466</ele>
        <time>2016-01-29T12:47:55.591Z</time>
      </trkpt>
      <trkpt lat="48.7263" lon="2.53463">
        <ele>76.572</ele>
        <time>2016-01-29T12:48:04.142Z</time>
      </trkpt>
      <trkpt lat="48.72629" lon="2.53448">
        <ele>76.717</ele>
        <time>2016-01-29T12:48:12.586Z</time>
      </trkpt>
      <trkpt lat="48.72629" lon="2.53434">
        <ele>76.91</ele>
        <time>2016-01-29T12:48:20.355Z</time>
      </trkpt>
      <trkpt lat="48.72629" lon="2.5342">
        <ele>77.062</ele>
        <time>2016-01-29T12:48:28.655Z</time>
      </trkpt>
      <trkpt lat="48.72629" lon="2.53404">
        <ele>77.104</ele>
        <time>2016-01-29T12:48:37.813Z</time>
      </trkpt>
      <trkpt lat="48.72629" lon="2.53389">
        <ele>77.082</ele>
        <time>2016-01-29T12:48:46.818Z</time>
      </trkpt>
      <trkpt lat="48.72628" lon="2.53376">
        <ele>77.105</ele>
        <time>2016-01-29T12:48:54.762Z</time>
      </trkpt>
      <trkpt lat="48.72628" lon="2.53362">
        <ele>77.253</ele>
        <time>2016-01-29T12:49:02.285Z</time>
      </trkpt>
      <trkpt lat="48.72626" lon="2.53347">
        <ele>77.466</ele>
        <time>2016-01-29T12:49:10.634Z</time>
      </trkpt>
      <trkpt lat="48.72627" lon="2.53333">
        <ele>77.656</ele>
        <time>2016-01-29T12:49:19.272Z</time>
      </trkpt>
      <trkpt lat="48.72627" lon="2.5332">
        <ele>77.92</ele>
        <time>2016-01-29T12:49:27.896Z</time>
      </trkpt>
      <trkpt lat="48.72626" lon="2.53305">
        <ele>78.311</ele>
        <time>2016-01-29T12:49:36.407Z</time>
      </trkpt>
      <trkpt lat="48.72626" lon="2.5329">
        <ele>78.668</ele>
        <time>2016-01-29T12:49:44.445Z</time>
      </trkpt>
      <trkpt lat="48.72627" lon="2.53276">
        <ele>78.9</ele>
        <time>2016-01-29T12:49:52.324Z</time>
      </trkpt>
      <trkpt lat="48.72628" lon="2.5326">
        <ele>79.07</ele>
        <time>2016-01-29T12:50:02.098Z</time>
      </trkpt>
      <trkpt lat="48.72628" lon="2.53246">
        <ele>79.207</ele>
        <time>2016-01-29T12:50:09.875Z</time>
      </trkpt>
      <trkpt lat="48.7263" lon="2.53233">
        <ele>79.319</ele>
        <time>2016-01-29T12:50:17.525Z</time>
      </trkpt>
      <trkpt lat="48.72631" lon="2.53218">
        <ele>79.422</ele>
        <time>2016-01-29T12:50:25.669Z</time>
      </trkpt>
      <trkpt lat="48.72632" lon="2.53203">
        <ele>79.532</ele>
        <time>2016-01-29T12:50:34.666Z</time>
      </trkpt>
      <trkpt lat="48.72626" lon="2.53191">
        <ele>79.723</ele>
        <time>2016-01-29T12:50:44.137Z</time>
      </trkpt>
      <trkpt lat="48.7262" lon="2.5318">
        <ele>80.042</ele>
        <time>2016-01-29T12:50:54.666Z</time>
      </trkpt>
      <trkpt lat="48.72612" lon="2.53173">
        <ele>80.511</ele>
        <time>2016-01-29T12:51:05.999Z</time>
      </trkpt>
      <trkpt lat="48.72612" lon="2.53173">
        <ele>81.075</ele>
        <time>2016-01-29T12:51:17.999Z</time>
      </trkpt>
      <trkpt lat="48.72612" lon="2.53173">
        <ele>81.432</ele>
        <time>2016-01-29T12:51:18.099Z</time>
      </trkpt>
      <trkpt lat="48.72606" lon="2.5316">
        <ele>81.379</ele>
        <time>2016-01-29T12:51:31.692Z</time>
      </trkpt>
      <trkpt lat="48.72611" lon="2.53148">
        <ele>81.536</ele>
        <time>2016-01-29T12:51:39.340Z</time>
      </trkpt>
      <trkpt lat="48.72616" lon="2.53136">
        <ele>82.48</ele>
        <time>2016-01-29T12:51:45.999Z</time>
      </trkpt>
      <trkpt lat="48.72616" lon="2.53136">
        <ele>83.714</ele>
        <time>2016-01-29T12:51:52.999Z</time>
      </trkpt>
      <trkpt lat="48.72616" lon="2.53136">
        <ele>84.354</ele>
        <time>2016-01-29T12:51:53.204Z</time>
      </trkpt>
      <trkpt lat="48.72616" lon="2.53119">
        <ele>84.263</ele>
        <time>2016-01-29T12:52:19.532Z</time>
      </trkpt>
      <trkpt lat="48.72623" lon="2.53109">
        <ele>84.095</ele>
        <time>2016-01-29T12:52:33.265Z</time>
      </trkpt>
      <trkpt lat="48.72631" lon="2.53102">
        <ele>84.37</ele>
        <time>2016-01-29T12:52:48.487Z</time>
      </trkpt>
      <trkpt lat="48.72639" lon="2.53094">
        <ele>84.698</ele>
        <time>2016-01-29T12:53:03.303Z</time>
      </trkpt>
      <trkpt lat="48.72643" lon="2.53082">
        <ele>84.155</ele>
        <time>2016-01-29T12:53:13.826Z</time>
      </trkpt>
      <trkpt lat="48.72649" lon="2.5307">
        <ele>82.647</ele>
        <time>2016-01-29T12:53:23.997Z</time>
      </trkpt>
      <trkpt lat="48.7265" lon="2.53055">
        <ele>81.21</ele>
        <time>2016-01-29T12:53:33.982Z</time>
      </trkpt>
      <trkpt lat="48.7265" lon="2.53041">
        <ele>80.587</ele>
        <time>2016-01-29T12:53:42.105Z</time>
      </trkpt>
      <trkpt lat="48.72652" lon="2.53027">
        <ele>80.542</ele>
        <time>2016-01-29T12:53:50.275Z</time>
      </trkpt>
      <trkpt lat="48.72656" lon="2.53013">
        <ele>80.739</ele>
        <time>2016-01-29T12:53:58.671Z</time>
      </trkpt>
      <trkpt lat="48.72657" lon="2.52999">
        <ele>81.008</ele>
        <time>2016-01-29T12:54:06.766Z</time>
      </trkpt>
      <trkpt lat="48.7266" lon="2.52985">
        <ele>81.239</ele>
        <time>2016-01-29T12:54:14.815Z</time>
      </trkpt>
      <trkpt lat="48.72663" lon="2.52971">
        <ele>81.42</ele>
        <time>2016-01-29T12:54:23.630Z</time>
      </trkpt>
      <trkpt lat="48.72666" lon="2.52957">
        <ele>81.618</ele>
        <time>2016-01-29T12:54:32.153Z</time>
      </trkpt>
      <trkpt lat="48.72669" lon="2.52944">
        <ele>81.885</ele>
        <time>2016-01-29T12:54:39.360Z</time>
      </trkpt>
      <trkpt lat="48.72672" lon="2.5293">
        <ele>82.218</ele>
        <time>2016-01-29T12:54:47.043Z</time>
      </trkpt>
      <trkpt lat="48.72677" lon="2.52916">
        <ele>82.537</ele>
        <time>2016-01-29T12:54:54.454Z</time>
      </trkpt>
      <trkpt lat="48.7268" lon="2.52902">
        <ele>82.77</ele>
        <time>2016-01-29T12:55:02.004Z</time>
      </trkpt>
      <trkpt lat="48.72684" lon="2.5289">
        <ele>82.949</ele>
        <time>2016-01-29T12:55:09.626Z</time>
      </trkpt>
      <trkpt lat="48.72688" lon="2.52876">
        <ele>83.15</ele>
        <time>2016-01-29T12:55:18.391Z</time>
      </trkpt>
      <trkpt lat="48.72692" lon="2.52862">
        <ele>83.405</ele>
        <time>2016-01-29T12:55:27.036Z</time>
      </trkpt>
      <trkpt lat="48.72695" lon="2.5285">
        <ele>83.67</ele>
        <time>2016-01-29T12:55:35.051Z</time>
      </trkpt>
      <trkpt lat="48.727" lon="2.52837">
        <ele>83.887</ele>
        <time>2016-01-29T12:55:42.984Z</time>
      </trkpt>
      <trkpt lat="48.72703" lon="2.52824">
        <ele>84.015</ele>
        <time>2016-01-29T12:55:50.985Z</time>
      </trkpt>
      <trkpt lat="48.72705" lon="2.5281">
        <ele>84.068</ele>
        <time>2016-01-29T12:55:58.933Z</time>
      </trkpt>
      <trkpt lat="48.72709" lon="2.52797">
        <ele>84.089</ele>
        <time>2016-01-29T12:56:07.179Z</time>
      </trkpt>
      <trkpt lat="48.72716" lon="2.52787">
        <ele>84.098</ele>
        <time>2016-01-29T12:56:15.510Z</time>
      </trkpt>
      <trkpt lat="48.72723" lon="2.52778">
        <ele>84.113</ele>
        <time>2016-01-29T12:56:23.629Z</time>
      </trkpt>
      <trkpt lat="48.72728" lon="2.52766">
        <ele>84.153</ele>
        <time>2016-01-29T12:56:31.636Z</time>
      </trkpt>
      <trkpt lat="48.72734" lon="2.52755">
        <ele>84.353</ele>
        <time>2016-01-29T12:56:40.179Z</time>
      </trkpt>
      <trkpt lat="48.72742" lon="2.52745">
        <ele>84.886</ele>
        <time>2016-01-29T12:56:49.150Z</time>
      </trkpt>
      <trkpt lat="48.72746" lon="2.52733">
        <ele>85.649</ele>
        <time>2016-01-29T12:56:57.328Z</time>
      </trkpt>
      <trkpt lat="48.72751" lon="2.52719">
        <ele>86.325</ele>
        <time>2016-01-29T12:57:05.702Z</time>
      </trkpt>
      <trkpt lat="48.72756" lon="2.52707">
        <ele>86.788</ele>
        <time>2016-01-29T12:57:12.966Z</time>
      </trkpt>
      <trkpt lat="48.72761" lon="2.52694">
        <ele>87.137</ele>
        <time>2016-01-29T12:57:20.207Z</time>
      </trkpt>
      <trkpt lat="48.72766" lon="2.52681">
        <ele>87.537</ele>
        <time>2016-01-29T12:57:28.891Z</time>
      </trkpt>
      <trkpt lat="48.72774" lon="2.52674">
        <ele>88.017</ele>
        <time>2016-01-29T12:57:40.246Z</time>
      </trkpt>
      <trkpt lat="48.72784" lon="2.52671">
        <ele>88.484</ele>
        <time>2016-01-29T12:57:51.146Z</time>
      </trkpt>
      <trkpt lat="48.72791" lon="2.52662">
        <ele>88.866</ele>
        <time>2016-01-29T12:58:00.000Z</time>
      </trkpt>
      <trkpt lat="48.72791" lon="2.52662">
        <ele>89.105</ele>
        <time>2016-01-29T12:58:06.000Z</time>
      </trkpt>
      <trkpt lat="48.72791" lon="2.52662">
        <ele>89.157</ele>
        <time>2016-01-29T12:58:15.749Z</time>
      </trkpt>
      <trkpt lat="48.72793" lon="2.52639">
        <ele>89.099</ele>
        <time>2016-01-29T12:58:37.009Z</time>
      </trkpt>
      <trkpt lat="48.72796" lon="2.52626">
        <ele>89.068</ele>
        <time>2016-01-29T12:58:45.811Z</time>
      </trkpt>
      <trkpt lat="48.72798" lon="2.52612">
        <ele>89.215</ele>
        <time>2016-01-29T12:58:55.133Z</time>
      </trkpt>
      <trkpt lat="48.72802" lon="2.52598">
        <ele>89.563</ele>
        <time>2016-01-29T12:59:03.909Z</time>
      </trkpt>
      <trkpt lat="48.72807" lon="2.52584">
        <ele>89.984</ele>
        <time>2016-01-29T12:59:11.932Z</time>
      </trkpt>
      <trkpt lat="48.72811" lon="2.52571">
        <ele>90.33</ele>
        <time>2016-01-29T12:59:21.034Z</time>
      </trkpt>
      <trkpt lat="48.72813" lon="2.52557">
        <ele>90.452</ele>
        <time>2016-01-29T12:59:30.737Z</time>
      </trkpt>
      <trkpt lat="48.72818" lon="2.52545">
        <ele>90.321</ele>
        <time>2016-01-29T12:59:39.185Z</time>
      </trkpt>
      <trkpt lat="48.72822" lon="2.52532">
        <ele>90.057</ele>
        <time>2016-01-29T12:59:46.811Z</time>
      </trkpt>
      <trkpt lat="48.72826" lon="2.52518">
        <ele>89.735</ele>
        <time>2016-01-29T12:59:54.736Z</time>
      </trkpt>
      <trkpt lat="48.7283" lon="2.52506">
        <ele>89.351</ele>
        <time>2016-01-29T13:00:02.823Z</time>
      </trkpt>
      <trkpt lat="48.72832" lon="2.52492">
        <ele>88.978</ele>
        <time>2016-01-29T13:00:11.225Z</time>
      </trkpt>
      <trkpt lat="48.72834" lon="2.52479">
        <ele>88.736</ele>
        <time>2016-01-29T13:00:19.084Z</time>
      </trkpt>
      <trkpt lat="48.72838" lon="2.52466">
        <ele>88.609</ele>
        <time>2016-01-29T13:00:26.746Z</time>
      </trkpt>
      <trkpt lat="48.72844" lon="2.52453">
        <ele>88.476</ele>
        <time>2016-01-29T13:00:35.098Z</time>
      </trkpt>
      <trkpt lat="48.72849" lon="2.52441">
        <ele>88.301</ele>
        <time>2016-01-29T13:00:42.139Z</time>
      </trkpt>
      <trkpt lat="48.72853" lon="2.52429">
        <ele>88.124</ele>
        <time>2016-01-29T13:00:49.704Z</time>
      </trkpt>
      <trkpt lat="48.72859" lon="2.52417">
        <ele>87.993</ele>
        <time>2016-01-29T13:00:57.940Z</time>
      </trkpt>
      <trkpt lat="48.72864" lon="2.52403">
        <ele>87.94</ele>
        <time>2016-01-29T13:01:06.291Z</time>
      </trkpt>
      <trkpt lat="48.72869" lon="2.5239">
        <ele>87.946</ele>
        <time>2016-01-29T13:01:14.630Z</time>
      </trkpt>
      <trkpt lat="48.72874" lon="2.52378">
        <ele>87.969</ele>
        <time>2016-01-29T13:01:22.401Z</time>
      </trkpt>
      <trkpt lat="48.72878" lon="2.52365">
        <ele>87.983</ele>
        <time>2016-01-29T13:01:30.183Z</time>
      </trkpt>
      <trkpt lat="48.72885" lon="2.52354">
        <ele>87.985</ele>
        <time>2016-01-29T13:01:37.676Z</time>
      </trkpt>
      <trkpt lat="48.7289" lon="2.52341">
        <ele>88.005</ele>
        <time>2016-01-29T13:01:45.231Z</time>
      </trkpt>
      <trkpt lat="48.72896" lon="2.52329">
        <ele>88.067</ele>
        <time>2016-01-29T13:01:53.054Z</time>
      </trkpt>
      <trkpt lat="48.729" lon="2.52316">
        <ele>88.224</ele>
        <time>2016-01-29T13:02:00.483Z</time>
      </trkpt>
      <trkpt lat="48.72907" lon="2.52305">
        <ele>88.399</ele>
        <time>2016-01-29T13:02:08.795Z</time>
      </trkpt>
      <trkpt lat="48.72913" lon="2.52294">
        <ele>88.391</ele>
        <time>2016-01-29T13:02:18.121Z</time>
      </trkpt>
      <trkpt lat="48.72921" lon="2.52302">
        <ele>88.206</ele>
        <time>2016-01-29T13:02:30.366Z</time>
      </trkpt>
      <trkpt lat="48.7293" lon="2.52302">
        <ele>88.4</ele>
        <time>2016-01-29T13:02:43.378Z</time>
      </trkpt>
      <trkpt lat="48.72934" lon="2.5229">
        <ele>89.301</ele>
        <time>2016-01-29T13:02:53.936Z</time>
      </trkpt>
      <trkpt lat="48.72938" lon="2.52277">
        <ele>90.368</ele>
        <time>2016-01-29T13:03:03.128Z</time>
      </trkpt>
      <trkpt lat="48.72943" lon="2.52264">
        <ele>90.977</ele>
        <time>2016-01-29T13:03:11.910Z</time>
      </trkpt>
      <trkpt lat="48.72947" lon="2.5225">
        <ele>91.143</ele>
        <time>2016-01-29T13:03:20.173Z</time>
      </trkpt>
      <trkpt lat="48.72951" lon="2.52238">
        <ele>91.123</ele>
        <time>2016-01-29T13:03:27.562Z</time>
      </trkpt>
      <trkpt lat="48.72955" lon="2.52224">
        <ele>91.071</ele>
        <time>2016-01-29T13:03:35.922Z</time>
      </trkpt>
      <trkpt lat="48.7296" lon="2.52212">
        <ele>90.955</ele>
        <time>2016-01-29T13:03:43.989Z</time>
      </trkpt>
      <trkpt lat="48.72965" lon="2.522">
        <ele>90.776</ele>
        <time>2016-01-29T13:03:51.974Z</time>
      </trkpt>
      <trkpt lat="48.72972" lon="2.52188">
        <ele>90.667</ele>
        <time>2016-01-29T13:04:00.006Z</time>
      </trkpt>
      <trkpt lat="48.72976" lon="2.52176">
        <ele>90.693</ele>
        <time>2016-01-29T13:04:07.585Z</time>
      </trkpt>
      <trkpt lat="48.72981" lon="2.52164">
        <ele>90.74</ele>
        <time>2016-01-29T13:04:15.719Z</time>
      </trkpt>
      <trkpt lat="48.72986" lon="2.52152">
        <ele>90.699</ele>
        <time>2016-01-29T13:04:23.859Z</time>
      </trkpt>
      <trkpt lat="48.72992" lon="2.52142">
        <ele>90.597</ele>
        <time>2016-01-29T13:04:33.000Z</time>
      </trkpt>
      <trkpt lat="48.72992" lon="2.52142">
        <ele>90.506</ele>
        <time>2016-01-29T13:04:38.000Z</time>
      </trkpt>
      <trkpt lat="48.72992" lon="2.52142">
        <ele>90.458</ele>
        <time>2016-01-29T13:04:46.037Z</time>
      </trkpt>
      <trkpt lat="48.72996" lon="2.52128">
        <ele>90.416</ele>
        <time>2016-01-29T13:05:05.658Z</time>
      </trkpt>
      <trkpt lat="48.72999" lon="2.52114">
        <ele>90.331</ele>
        <time>2016-01-29T13:05:15.132Z</time>
      </trkpt>
      <trkpt lat="48.73004" lon="2.52101">
        <ele>90.14</ele>
        <time>2016-01-29T13:05:23.017Z</time>
      </trkpt>
      <trkpt lat="48.73009" lon="2.5209">
        <ele>89.962</ele>
        <time>2016-01-29T13:05:30.000Z</time>
      </trkpt>
      <trkpt lat="48.73009" lon="2.5209">
        <ele>89.908</ele>
        <time>2016-01-29T13:05:37.000Z</time>
      </trkpt>
      <trkpt lat="48.73009" lon="2.5209">
        <ele>89.915</ele>
        <time>2016-01-29T13:09:18.644Z</time>
      </trkpt>
      <trkpt lat="48.73019" lon="2.52094">
        <ele>89.85</ele>
        <time>2016-01-29T13:09:28.000Z</time>
      </trkpt>
      <trkpt lat="48.73019" lon="2.52094">
        <ele>89.812</ele>
        <time>2016-01-29T13:09:32.000Z</time>
      </trkpt>
      <trkpt lat="48.73019" lon="2.52094">
        <ele>89.79</ele>
        <time>2016-01-29T13:09:32.100Z</time>
      </trkpt>
      <trkpt lat="48.73031" lon="2.521">
        <ele>89.768</ele>
        <time>2016-01-29T13:09:55.861Z</time>
      </trkpt>
      <trkpt lat="48.73041" lon="2.52104">
        <ele>90.059</ele>
        <time>2016-01-29T13:10:07.435Z</time>
      </trkpt>
      <trkpt lat="48.73048" lon="2.52113">
        <ele>90.854</ele>
        <time>2016-01-29T13:10:17.884Z</time>
      </trkpt>
      <trkpt lat="48.73055" lon="2.52123">
        <ele>91.673</ele>
        <time>2016-01-29T13:10:27.758Z</time>
      </trkpt>
      <trkpt lat="48.7306" lon="2.52135">
        <ele>92.041</ele>
        <time>2016-01-29T13:10:38.000Z</time>
      </trkpt>
      <trkpt lat="48.7306" lon="2.52135">
        <ele>92.056</ele>
        <time>2016-01-29T13:10:52.000Z</time>
      </trkpt>
      <trkpt lat="48.7306" lon="2.52135">
        <ele>91.961</ele>
        <time>2016-01-29T13:10:52.100Z</time>
      </trkpt>
      <trkpt lat="48.73073" lon="2.52146">
        <ele>91.908</ele>
        <time>2016-01-29T13:11:01.000Z</time>
      </trkpt>
      <trkpt lat="48.73073" lon="2.52146">
        <ele>91.889</ele>
        <time>2016-01-29T13:11:03.000Z</time>
      </trkpt>
      <trkpt lat="48.73073" lon="2.52146">
        <ele>91.853</ele>
        <time>2016-01-29T13:11:44.036Z</time>
      </trkpt>
      <trkpt lat="48.7308" lon="2.52158">
        <ele>91.811</ele>
        <time>2016-01-29T13:13:25.283Z</time>
      </trkpt>
      <trkpt lat="48.73088" lon="2.52164">
        <ele>91.843</ele>
        <time>2016-01-29T13:13:34.002Z</time>
      </trkpt>
      <trkpt lat="48.73095" lon="2.52173">
        <ele>91.98</ele>
        <time>2016-01-29T13:13:41.994Z</time>
      </trkpt>
      <trkpt lat="48.73102" lon="2.52183">
        <ele>92.181</ele>
        <time>2016-01-29T13:13:49.257Z</time>
      </trkpt>
      <trkpt lat="48.7311" lon="2.52192">
        <ele>92.39</ele>
        <time>2016-01-29T13:13:57.341Z</time>
      </trkpt>
      <trkpt lat="48.73117" lon="2.52201">
        <ele>92.571</ele>
        <time>2016-01-29T13:14:05.000Z</time>
      </trkpt>
      <trkpt lat="48.73117" lon="2.52201">
        <ele>92.69</ele>
        <time>2016-01-29T13:14:11.000Z</time>
      </trkpt>
      <trkpt lat="48.73117" lon="2.52201">
        <ele>92.726</ele>
        <time>2016-01-29T13:14:11.100Z</time>
      </trkpt>
      <trkpt lat="48.73133" lon="2.52196">
        <ele>92.664</ele>
        <time>2016-01-29T13:15:13.118Z</time>
      </trkpt>
      <trkpt lat="48.73141" lon="2.52188">
        <ele>92.518</ele>
        <time>2016-01-29T13:15:23.541Z</time>
      </trkpt>
      <trkpt lat="48.73149" lon="2.52182">
        <ele>92.338</ele>
        <time>2016-01-29T13:15:31.989Z</time>
      </trkpt>
      <trkpt lat="48.73157" lon="2.52174">
        <ele>92.232</ele>
        <time>2016-01-29T13:15:41.505Z</time>
      </trkpt>
      <trkpt lat="48.73164" lon="2.52163">
        <ele>92.255</ele>
        <time>2016-01-29T13:15:51.911Z</time>
      </trkpt>
      <trkpt lat="48.73164" lon="2.52149">
        <ele>92.334</ele>
        <time>2016-01-29T13:16:02.424Z</time>
      </trkpt>
      <trkpt lat="48.73161" lon="2.52135">
        <ele>92.422</ele>
        <time>2016-01-29T13:16:13.149Z</time>
      </trkpt>
      <trkpt lat="48.73158" lon="2.52121">
        <ele>92.53</ele>
        <time>2016-01-29T13:16:23.607Z</time>
      </trkpt>
      <trkpt lat="48.73155" lon="2.52108">
        <ele>92.657</ele>
        <time>2016-01-29T13:16:32.124Z</time>
      </trkpt>
      <trkpt lat="48.73154" lon="2.52093">
        <ele>92.782</ele>
        <time>2016-01-29T13:16:40.377Z</time>
      </trkpt>
      <trkpt lat="48.73152" lon="2.5208">
        <ele>92.86</ele>
        <time>2016-01-29T13:16:47.843Z</time>
      </trkpt>
      <trkpt lat="48.73151" lon="2.52066">
        <ele>92.871</ele>
        <time>2016-01-29T13:16:55.418Z</time>
      </trkpt>
      <trkpt lat="48.73151" lon="2.5205">
        <ele>92.885</ele>
        <time>2016-01-29T13:17:03.978Z</time>
      </trkpt>
      <trkpt lat="48.73151" lon="2.52035">
        <ele>92.992</ele>
        <time>2016-01-29T13:17:11.825Z</time>
      </trkpt>
      <trkpt lat="48.7315" lon="2.5202">
        <ele>93.166</ele>
        <time>2016-01-29T13:17:19.882Z</time>
      </trkpt>
      <trkpt lat="48.73151" lon="2.52005">
        <ele>93.318</ele>
        <time>2016-01-29T13:17:28.491Z</time>
      </trkpt>
      <trkpt lat="48.7315" lon="2.51991">
        <ele>93.417</ele>
        <time>2016-01-29T13:17:35.879Z</time>
      </trkpt>
      <trkpt lat="48.73148" lon="2.51976">
        <ele>93.47</ele>
        <time>2016-01-29T13:17:43.624Z</time>
      </trkpt>
      <trkpt lat="48.73145" lon="2.51963">
        <ele>93.467</ele>
        <time>2016-01-29T13:17:50.892Z</time>
      </trkpt>
      <trkpt lat="48.73142" lon="2.51949">
        <ele>93.376</ele>
        <time>2016-01-29T13:17:59.109Z</time>
      </trkpt>
      <trkpt lat="48.73141" lon="2.51935">
        <ele>93.193</ele>
        <time>2016-01-29T13:18:06.576Z</time>
      </trkpt>
      <trkpt lat="48.7314" lon="2.5192">
        <ele>92.998</ele>
        <time>2016-01-29T13:18:14.798Z</time>
      </trkpt>
      <trkpt lat="48.7314" lon="2.51906">
        <ele>92.873</ele>
        <time>2016-01-29T13:18:22.502Z</time>
      </trkpt>
      <trkpt lat="48.7314" lon="2.51892">
        <ele>92.822</ele>
        <time>2016-01-29T13:18:30.436Z</time>
      </trkpt>
      <trkpt lat="48.73138" lon="2.51877">
        <ele>92.795</ele>
        <time>2016-01-29T13:18:38.811Z</time>
      </trkpt>
      <trkpt lat="48.7314" lon="2.51863">
        <ele>92.72</ele>
        <time>2016-01-29T13:18:46.776Z</time>
      </trkpt>
      <trkpt lat="48.7314" lon="2.51849">
        <ele>92.595</ele>
        <time>2016-01-29T13:18:54.188Z</time>
      </trkpt>
      <trkpt lat="48.73143" lon="2.51836">
        <ele>92.463</ele>
        <time>2016-01-29T13:19:02.000Z</time>
      </trkpt>
      <trkpt lat="48.73143" lon="2.51836">
        <ele>92.362</ele>
        <time>2016-01-29T13:19:03.000Z</time>
      </trkpt>
      <trkpt lat="48.73143" lon="2.51836">
        <ele>92.308</ele>
        <time>2016-01-29T13:19:04.208Z</time>
      </trkpt>
      <trkpt lat="48.73138" lon="2.51825">
        <ele>92.265</ele>
        <time>2016-01-29T13:19:20.153Z</time>
      </trkpt>
      <trkpt lat="48.73139" lon="2.51812">
        <ele>92.229</ele>
        <time>2016-01-29T13:19:29.008Z</time>
      </trkpt>
      <trkpt lat="48.73137" lon="2.51797">
        <ele>92.123</ele>
        <time>2016-01-29T13:19:37.665Z</time>
      </trkpt>
      <trkpt lat="48.73138" lon="2.51784">
        <ele>91.856</ele>
        <time>2016-01-29T13:19:45.886Z</time>
      </trkpt>
      <trkpt lat="48.73135" lon="2.5177">
        <ele>91.45</ele>
        <time>2016-01-29T13:19:54.601Z</time>
      </trkpt>
      <trkpt lat="48.73135" lon="2.51757">
        <ele>91.074</ele>
        <time>2016-01-29T13:20:02.520Z</time>
      </trkpt>
      <trkpt lat="48.73138" lon="2.51743">
        <ele>90.853</ele>
        <time>2016-01-29T13:20:10.468Z</time>
      </trkpt>
      <trkpt lat="48.73143" lon="2.51732">
        <ele>90.775</ele>
        <time>2016-01-29T13:20:18.182Z</time>
      </trkpt>
      <trkpt lat="48.73148" lon="2.51719">
        <ele>90.807</ele>
        <time>2016-01-29T13:20:25.925Z</time>
      </trkpt>
      <trkpt lat="48.73153" lon="2.51707">
        <ele>90.898</ele>
        <time>2016-01-29T13:20:33.800Z</time>
      </trkpt>
      <trkpt lat="48.73159" lon="2.51694">
        <ele>90.964</ele>
        <time>2016-01-29T13:20:42.011Z</time>
      </trkpt>
      <trkpt lat="48.73163" lon="2.51682">
        <ele>90.922</ele>
        <time>2016-01-29T13:20:50.101Z</time>
      </trkpt>
      <trkpt lat="48.73168" lon="2.5167">
        <ele>90.787</ele>
        <time>2016-01-29T13:20:58.064Z</time>
      </trkpt>
      <trkpt lat="48.73173" lon="2.51658">
        <ele>90.66</ele>
        <time>2016-01-29T13:21:06.078Z</time>
      </trkpt>
      <trkpt lat="48.73179" lon="2.51645">
        <ele>90.593</ele>
        <time>2016-01-29T13:21:14.584Z</time>
      </trkpt>
      <trkpt lat="48.73184" lon="2.51634">
        <ele>90.533</ele>
        <time>2016-01-29T13:21:22.416Z</time>
      </trkpt>
      <trkpt lat="48.73188" lon="2.51621">
        <ele>90.388</ele>
        <time>2016-01-29T13:21:30.183Z</time>
      </trkpt>
      <trkpt lat="48.73193" lon="2.51609">
        <ele>90.155</ele>
        <time>2016-01-29T13:21:38.062Z</time>
      </trkpt>
      <trkpt lat="48.73199" lon="2.51596">
        <ele>89.916</ele>
        <time>2016-01-29T13:21:45.971Z</time>
      </trkpt>
      <trkpt lat="48.73203" lon="2.51584">
        <ele>89.578</ele>
        <time>2016-01-29T13:21:53.136Z</time>
      </trkpt>
      <trkpt lat="48.73208" lon="2.51572">
        <ele>89.062</ele>
        <time>2016-01-29T13:22:00.443Z</time>
      </trkpt>
      <trkpt lat="48.73213" lon="2.51559">
        <ele>88.61</ele>
        <time>2016-01-29T13:22:08.544Z</time>
      </trkpt>
      <trkpt lat="48.73218" lon="2.51547">
        <ele>88.453</ele>
        <time>2016-01-29T13:22:17.053Z</time>
      </trkpt>
      <trkpt lat="48.73223" lon="2.51535">
        <ele>88.532</ele>
        <time>2016-01-29T13:22:25.090Z</time>
      </trkpt>
      <trkpt lat="48.73228" lon="2.51523">
        <ele>88.714</ele>
        <time>2016-01-29T13:22:32.884Z</time>
      </trkpt>
      <trkpt lat="48.73231" lon="2.5151">
        <ele>88.927</ele>
        <time>2016-01-29T13:22:40.768Z</time>
      </trkpt>
      <trkpt lat="48.73234" lon="2.51497">
        <ele>89.155</ele>
        <time>2016-01-29T13:22:48.641Z</time>
      </trkpt>
      <trkpt lat="48.73238" lon="2.51483">
        <ele>89.392</ele>
        <time>2016-01-29T13:22:57.203Z</time>
      </trkpt>
      <trkpt lat="48.73241" lon="2.5147">
        <ele>89.597</ele>
        <time>2016-01-29T13:23:05.063Z</time>
      </trkpt>
      <trkpt lat="48.73246" lon="2.51457">
        <ele>89.749</ele>
        <time>2016-01-29T13:23:12.816Z</time>
      </trkpt>
      <trkpt lat="48.7325" lon="2.51443">
        <ele>89.876</ele>
        <time>2016-01-29T13:23:20.939Z</time>
      </trkpt>
      <trkpt lat="48.73254" lon="2.5143">
        <ele>89.998</ele>
        <time>2016-01-29T13:23:28.661Z</time>
      </trkpt>
      <trkpt lat="48.73257" lon="2.51417">
        <ele>90.113</ele>
        <time>2016-01-29T13:23:36.213Z</time>
      </trkpt>
      <trkpt lat="48.73261" lon="2.51403">
        <ele>90.184</ele>
        <time>2016-01-29T13:23:44.802Z</time>
      </trkpt>
      <trkpt lat="48.73265" lon="2.51389">
        <ele>90.18</ele>
        <time>2016-01-29T13:23:53.039Z</time>
      </trkpt>
      <trkpt lat="48.73268" lon="2.51375">
        <ele>90.181</ele>
        <time>2016-01-29T13:24:00.905Z</time>
      </trkpt>
      <trkpt lat="48.73272" lon="2.51362">
        <ele>90.29</ele>
        <time>2016-01-29T13:24:08.651Z</time>
      </trkpt>
      <trkpt lat="48.73275" lon="2.51349">
        <ele>90.503</ele>
        <time>2016-01-29T13:24:16.354Z</time>
      </trkpt>
      <trkpt lat="48.73278" lon="2.51335">
        <ele>90.71</ele>
        <time>2016-01-29T13:24:24.000Z</time>
      </trkpt>
      <trkpt lat="48.73278" lon="2.51335">
        <ele>90.809</ele>
        <time>2016-01-29T13:24:29.999Z</time>
      </trkpt>
      <trkpt lat="48.73278" lon="2.51335">
        <ele>90.793</ele>
        <time>2016-01-29T13:24:33.465Z</time>
      </trkpt>
      <trkpt lat="48.73284" lon="2.51325">
        <ele>90.703</ele>
        <time>2016-01-29T13:24:55.446Z</time>
      </trkpt>
      <trkpt lat="48.73292" lon="2.5132">
        <ele>90.694</ele>
        <time>2016-01-29T13:25:05.766Z</time>
      </trkpt>
      <trkpt lat="48.73297" lon="2.51307">
        <ele>90.691</ele>
        <time>2016-01-29T13:25:14.983Z</time>
      </trkpt>
      <trkpt lat="48.73301" lon="2.51293">
        <ele>90.665</ele>
        <time>2016-01-29T13:25:23.825Z</time>
      </trkpt>
      <trkpt lat="48.73304" lon="2.51279">
        <ele>90.613</ele>
        <time>2016-01-29T13:25:33.935Z</time>
      </trkpt>
      <trkpt lat="48.7331" lon="2.51268">
        <ele>90.554</ele>
        <time>2016-01-29T13:25:45.878Z</time>
      </trkpt>
      <trkpt lat="48.73317" lon="2.51258">
        <ele>90.458</ele>
        <time>2016-01-29T13:25:56.503Z</time>
      </trkpt>
      <trkpt lat="48.73326" lon="2.51251">
        <ele>90.141</ele>
        <time>2016-01-29T13:26:06.177Z</time>
      </trkpt>
      <trkpt lat="48.73335" lon="2.51245">
        <ele>89.572</ele>
        <time>2016-01-29T13:26:13.887Z</time>
      </trkpt>
      <trkpt lat="48.73344" lon="2.5124">
        <ele>89.07</ele>
        <time>2016-01-29T13:26:21.999Z</time>
      </trkpt>
      <trkpt lat="48.73353" lon="2.51234">
        <ele>88.861</ele>
        <time>2016-01-29T13:26:30.704Z</time>
      </trkpt>
      <trkpt lat="48.73362" lon="2.51232">
        <ele>88.814</ele>
        <time>2016-01-29T13:26:38.388Z</time>
      </trkpt>
      <trkpt lat="48.73372" lon="2.51231">
        <ele>88.77</ele>
        <time>2016-01-29T13:26:46.809Z</time>
      </trkpt>
      <trkpt lat="48.73381" lon="2.51228">
        <ele>88.726</ele>
        <time>2016-01-29T13:26:55.254Z</time>
      </trkpt>
      <trkpt lat="48.7339" lon="2.51227">
        <ele>88.737</ele>
        <time>2016-01-29T13:27:04.732Z</time>
      </trkpt>
      <trkpt lat="48.734" lon="2.51227">
        <ele>88.798</ele>
        <time>2016-01-29T13:27:15.079Z</time>
      </trkpt>
      <trkpt lat="48.73409" lon="2.51226">
        <ele>88.897</ele>
        <time>2016-01-29T13:27:24.851Z</time>
      </trkpt>
      <trkpt lat="48.73418" lon="2.51221">
        <ele>89.015</ele>
        <time>2016-01-29T13:27:34.591Z</time>
      </trkpt>
      <trkpt lat="48.73428" lon="2.5122">
        <ele>89.094</ele>
        <time>2016-01-29T13:27:43.469Z</time>
      </trkpt>
      <trkpt lat="48.73437" lon="2.5122">
        <ele>89.109</ele>
        <time>2016-01-29T13:27:50.933Z</time>
      </trkpt>
      <trkpt lat="48.73447" lon="2.51222">
        <ele>89.088</ele>
        <time>2016-01-29T13:27:59.608Z</time>
      </trkpt>
      <trkpt lat="48.73456" lon="2.51222">
        <ele>89.082</ele>
        <time>2016-01-29T13:28:08.837Z</time>
      </trkpt>
      <trkpt lat="48.73466" lon="2.51227">
        <ele>89.4</ele>
        <time>2016-01-29T13:28:17.287Z</time>
      </trkpt>
      <trkpt lat="48.73475" lon="2.51228">
        <ele>90.245</ele>
        <time>2016-01-29T13:28:23.929Z</time>
      </trkpt>
      <trkpt lat="48.73484" lon="2.51229">
        <ele>91.192</ele>
        <time>2016-01-29T13:28:31.450Z</time>
      </trkpt>
      <trkpt lat="48.73493" lon="2.5123">
        <ele>91.761</ele>
        <time>2016-01-29T13:28:39.869Z</time>
      </trkpt>
      <trkpt lat="48.73503" lon="2.51232">
        <ele>91.958</ele>
        <time>2016-01-29T13:28:48.917Z</time>
      </trkpt>
      <trkpt lat="48.73512" lon="2.5123">
        <ele>91.959</ele>
        <time>2016-01-29T13:28:56.677Z</time>
      </trkpt>
      <trkpt lat="48.73522" lon="2.5123">
        <ele>91.876</ele>
        <time>2016-01-29T13:29:03.892Z</time>
      </trkpt>
      <trkpt lat="48.73532" lon="2.51232">
        <ele>91.774</ele>
        <time>2016-01-29T13:29:11.390Z</time>
      </trkpt>
      <trkpt lat="48.73541" lon="2.51228">
        <ele>91.7</ele>
        <time>2016-01-29T13:29:19.072Z</time>
      </trkpt>
      <trkpt lat="48.7355" lon="2.51229">
        <ele>91.674</ele>
        <time>2016-01-29T13:29:27.950Z</time>
      </trkpt>
      <trkpt lat="48.73561" lon="2.51228">
        <ele>91.716</ele>
        <time>2016-01-29T13:29:38.464Z</time>
      </trkpt>
      <trkpt lat="48.7357" lon="2.51225">
        <ele>91.847</ele>
        <time>2016-01-29T13:29:47.245Z</time>
      </trkpt>
      <trkpt lat="48.73579" lon="2.51223">
        <ele>92.008</ele>
        <time>2016-01-29T13:29:55.141Z</time>
      </trkpt>
      <trkpt lat="48.73589" lon="2.51224">
        <ele>92.141</ele>
        <time>2016-01-29T13:30:03.156Z</time>
      </trkpt>
      <trkpt lat="48.73599" lon="2.51225">
        <ele>92.25</ele>
        <time>2016-01-29T13:30:11.645Z</time>
      </trkpt>
      <trkpt lat="48.73608" lon="2.51226">
        <ele>92.332</ele>
        <time>2016-01-29T13:30:20.898Z</time>
      </trkpt>
      <trkpt lat="48.73609" lon="2.5124">
        <ele>92.371</ele>
        <time>2016-01-29T13:30:30.897Z</time>
      </trkpt>
      <trkpt lat="48.73606" lon="2.51253">
        <ele>92.522</ele>
        <time>2016-01-29T13:30:40.461Z</time>
      </trkpt>
      <trkpt lat="48.73604" lon="2.51268">
        <ele>93.006</ele>
        <time>2016-01-29T13:30:49.105Z</time>
      </trkpt>
      <trkpt lat="48.73601" lon="2.5128">
        <ele>93.693</ele>
        <time>2016-01-29T13:30:56.597Z</time>
      </trkpt>
      <trkpt lat="48.73598" lon="2.51295">
        <ele>94.193</ele>
        <time>2016-01-29T13:31:04.075Z</time>
      </trkpt>
      <trkpt lat="48.73596" lon="2.5131">
        <ele>94.391</ele>
        <time>2016-01-29T13:31:11.988Z</time>
      </trkpt>
      <trkpt lat="48.73599" lon="2.51323">
        <ele>94.428</ele>
        <time>2016-01-29T13:31:20.433Z</time>
      </trkpt>
      <trkpt lat="48.73595" lon="2.51338">
        <ele>94.366</ele>
        <time>2016-01-29T13:31:29.417Z</time>
      </trkpt>
      <trkpt lat="48.73591" lon="2.51351">
        <ele>94.217</ele>
        <time>2016-01-29T13:31:36.443Z</time>
      </trkpt>
      <trkpt lat="48.73589" lon="2.51365">
        <ele>94.059</ele>
        <time>2016-01-29T13:31:44.300Z</time>
      </trkpt>
      <trkpt lat="48.73587" lon="2.5138">
        <ele>93.958</ele>
        <time>2016-01-29T13:31:53.049Z</time>
      </trkpt>
      <trkpt lat="48.73585" lon="2.51394">
        <ele>93.838</ele>
        <time>2016-01-29T13:32:02.324Z</time>
      </trkpt>
      <trkpt lat="48.73581" lon="2.51406">
        <ele>93.635</ele>
        <time>2016-01-29T13:32:10.331Z</time>
      </trkpt>
      <trkpt lat="48.73579" lon="2.5142">
        <ele>93.453</ele>
        <time>2016-01-29T13:32:18.232Z</time>
      </trkpt>
      <trkpt lat="48.73578" lon="2.51434">
        <ele>93.393</ele>
        <time>2016-01-29T13:32:26.397Z</time>
      </trkpt>
      <trkpt lat="48.73576" lon="2.51448">
        <ele>93.386</ele>
        <time>2016-01-29T13:32:34.639Z</time>
      </trkpt>
      <trkpt lat="48.73574" lon="2.51462">
        <ele>93.343</ele>
        <time>2016-01-29T13:32:42.187Z</time>
      </trkpt>
      <trkpt lat="48.73571" lon="2.51476">
        <ele>93.266</ele>
        <time>2016-01-29T13:32:50.872Z</time>
      </trkpt>
      <trkpt lat="48.73568" lon="2.5149">
        <ele>93.191</ele>
        <time>2016-01-29T13:33:00.099Z</time>
      </trkpt>
      <trkpt lat="48.73562" lon="2.51503">
        <ele>93.107</ele>
        <time>2016-01-29T13:33:08.817Z</time>
      </trkpt>
      <trkpt lat="48.7356" lon="2.51517">
        <ele>93.01</ele>
        <time>2016-01-29T13:33:16.466Z</time>
      </trkpt>
      <trkpt lat="48.73558" lon="2.51531">
        <ele>92.92</ele>
        <time>2016-01-29T13:33:24.068Z</time>
      </trkpt>
      <trkpt lat="48.73555" lon="2.51545">
        <ele>92.829</ele>
        <time>2016-01-29T13:33:32.092Z</time>
      </trkpt>
      <trkpt lat="48.73554" lon="2.5156">
        <ele>92.716</ele>
        <time>2016-01-29T13:33:40.691Z</time>
      </trkpt>
      <trkpt lat="48.7355" lon="2.51574">
        <ele>92.599</ele>
        <time>2016-01-29T13:33:48.598Z</time>
      </trkpt>
      <trkpt lat="48.7355" lon="2.51589">
        <ele>92.521</ele>
        <time>2016-01-29T13:33:57.791Z</time>
      </trkpt>
      <trkpt lat="48.73548" lon="2.51605">
        <ele>92.492</ele>
        <time>2016-01-29T13:34:08.644Z</time>
      </trkpt>
      <trkpt lat="48.73546" lon="2.51619">
        <ele>92.483</ele>
        <time>2016-01-29T13:34:18.232Z</time>
      </trkpt>
      <trkpt lat="48.73542" lon="2.51632">
        <ele>92.438</ele>
        <time>2016-01-29T13:34:25.857Z</time>
      </trkpt>
      <trkpt lat="48.73539" lon="2.51645">
        <ele>92.322</ele>
        <time>2016-01-29T13:34:31.984Z</time>
      </trkpt>
      <trkpt lat="48.73535" lon="2.51659">
        <ele>92.175</ele>
        <time>2016-01-29T13:34:38.868Z</time>
      </trkpt>
      <trkpt lat="48.7353" lon="2.51673">
        <ele>92.041</ele>
        <time>2016-01-29T13:34:46.302Z</time>
      </trkpt>
      <trkpt lat="48.73526" lon="2.51685">
        <ele>91.931</ele>
        <time>2016-01-29T13:34:53.312Z</time>
      </trkpt>
      <trkpt lat="48.73521" lon="2.51698">
        <ele>91.86</ele>
        <time>2016-01-29T13:35:01.780Z</time>
      </trkpt>
      <trkpt lat="48.73516" lon="2.51711">
        <ele>91.824</ele>
        <time>2016-01-29T13:35:11.026Z</time>
      </trkpt>
      <trkpt lat="48.73509" lon="2.51722">
        <ele>91.744</ele>
        <time>2016-01-29T13:35:20.253Z</time>
      </trkpt>
      <trkpt lat="48.73503" lon="2.51735">
        <ele>91.555</ele>
        <time>2016-01-29T13:35:29.682Z</time>
      </trkpt>
      <trkpt lat="48.73498" lon="2.51747">
        <ele>91.335</ele>
        <time>2016-01-29T13:35:39.261Z</time>
      </trkpt>
      <trkpt lat="48.73492" lon="2.51758">
        <ele>91.198</ele>
        <time>2016-01-29T13:35:46.997Z</time>
      </trkpt>
      <trkpt lat="48.73486" lon="2.51769">
        <ele>91.166</ele>
        <time>2016-01-29T13:35:55.299Z</time>
      </trkpt>
      <trkpt lat="48.7348" lon="2.51779">
        <ele>91.216</ele>
        <time>2016-01-29T13:36:02.917Z</time>
      </trkpt>
      <trkpt lat="48.73473" lon="2.5179">
        <ele>91.298</ele>
        <time>2016-01-29T13:36:10.662Z</time>
      </trkpt>
      <trkpt lat="48.73466" lon="2.518">
        <ele>91.356</ele>
        <time>2016-01-29T13:36:19.044Z</time>
      </trkpt>
      <trkpt lat="48.7346" lon="2.51811">
        <ele>91.369</ele>
        <time>2016-01-29T13:36:27.104Z</time>
      </trkpt>
      <trkpt lat="48.73456" lon="2.51825">
        <ele>91.352</ele>
        <time>2016-01-29T13:36:34.974Z</time>
      </trkpt>
      <trkpt lat="48.73449" lon="2.51835">
        <ele>91.314</ele>
        <time>2016-01-29T13:36:43.000Z</time>
      </trkpt>
      <trkpt lat="48.73449" lon="2.51835">
        <ele>91.263</ele>
        <time>2016-01-29T13:36:51.000Z</time>
      </trkpt>
    </trkseg>
  </trk>
</gpx>